Darstellungsparameter: Aktuell verwendete Einstellungen:
Skalierung der Graphiken ... ?
xyx+y,   Skalierungsfaktor:      Skalierung: Modus: x, Faktor: 1
Darstellungszeitraum ... ?
Vom - - bis: - -   Zeitraum: 25.07.2019 - 25.10.2019
Min/Max/Avg-Anzeige ... ?
Zeige MMA aktuell
Zeige MMA Monat
Zeige MMA alles
Zeige --A aktuell
Zeige --A Monat
Zeige --A alles
Keine MMA-Anzeige
MMA:
Minimum Maximum Average (ber die Originaldaten)
MMA-Basis: 25.07.2019 - 25.10.2019
Quicknavigation für Darstellung... ?
Tage:      1T, 2T, 3T, 5T -1T -2T -3T -5T +1T +2T +3T +5T
Wochen: 1W, 2W, 3W -1W -2W -3W +1W +2W +3W
Monate: 1M, 3M, 6M -1M -3M -6M +1M +3M +6M
Jahre:    1J, 3J, 5J, 10J -1J -3J -5J -10J +1J +3J +5J +10J
Nutze für die Darstellung ... ?
Originaldaten oder Mittelwerte auf ...
Stundenbasis Tagesbasis Wochenbasis
Monatsbasis Jahresbasis      Datenbasis: Original-Daten
Darstellen als:
Statistik (Auto) Statistik J:M      Darstellung:
Zur Graphik,    zurück zur Übersicht aller Sensoren.
 
Tabellarische Datenbersicht: ?
 
<
Sensor: Nr:Datum:Temp:Feuchte:Taupunkt:
Aussen-T/F 1 25-07-2019 00:00:00 24.3 C 62 % 16.55 C
2 25-07-2019 00:05:00 24 C 61 % 16.02 C
3 25-07-2019 00:10:00 23.9 C 63 % 16.43 C
4 25-07-2019 00:15:00 23.9 C 63 % 16.43 C
5 25-07-2019 00:20:00 23.8 C 63 % 16.33 C
6 25-07-2019 00:25:00 23.7 C 62 % 15.99 C
7 25-07-2019 00:30:00 23.6 C 62 % 15.89 C
8 25-07-2019 00:35:00 23.6 C 64 % 16.39 C
9 25-07-2019 00:40:00 23.4 C 64 % 16.2 C
10 25-07-2019 00:45:00 23.3 C 63 % 15.86 C
11 25-07-2019 00:50:00 23.4 C 64 % 16.2 C
12 25-07-2019 00:55:00 23.3 C 66 % 16.59 C
13 25-07-2019 01:00:00 23.2 C 65 % 16.26 C
14 25-07-2019 01:05:00 23.1 C 65 % 16.16 C
15 25-07-2019 01:10:00 22.9 C 66 % 16.21 C
16 25-07-2019 01:15:00 22.7 C 66 % 16.02 C
17 25-07-2019 01:20:00 22.6 C 67 % 16.16 C
18 25-07-2019 01:25:00 22.4 C 66 % 15.74 C
19 25-07-2019 01:30:00 22.3 C 67 % 15.88 C
20 25-07-2019 01:35:00 22.3 C 65 % 15.4 C
21 25-07-2019 01:40:00 22.3 C 68 % 16.11 C
22 25-07-2019 01:45:00 22.3 C 68 % 16.11 C
23 25-07-2019 01:50:00 22.2 C 68 % 16.01 C
24 25-07-2019 01:55:00 22.1 C 68 % 15.92 C
25 25-07-2019 02:00:00 22 C 69 % 16.05 C
Sensor: Nr:Datum:Temp:Feuchte:Taupunkt:
Aussen-T/F 26 25-07-2019 02:05:00 21.9 C 70 % 16.18 C
27 25-07-2019 02:10:00 21.8 C 70 % 16.09 C
28 25-07-2019 02:15:00 21.7 C 70 % 15.99 C
29 25-07-2019 02:20:00 21.7 C 70 % 15.99 C
30 25-07-2019 02:25:00 21.7 C 71 % 16.21 C
31 25-07-2019 02:30:00 21.6 C 70 % 15.89 C
32 25-07-2019 02:35:00 21.5 C 70 % 15.8 C
33 25-07-2019 02:40:00 21.4 C 71 % 15.93 C
34 25-07-2019 02:45:00 21.4 C 71 % 15.93 C
35 25-07-2019 02:50:00 21.3 C 72 % 16.05 C
36 25-07-2019 02:55:00 21.2 C 72 % 15.95 C
37 25-07-2019 03:00:00 21.2 C 72 % 15.95 C
38 25-07-2019 03:05:00 21.2 C 73 % 16.17 C
39 25-07-2019 03:10:00 21.2 C 73 % 16.17 C
40 25-07-2019 03:15:00 21.1 C 73 % 16.07 C
41 25-07-2019 03:20:00 20.9 C 74 % 16.09 C
42 25-07-2019 03:25:00 20.8 C 74 % 16 C
43 25-07-2019 03:30:00 20.8 C 74 % 16 C
44 25-07-2019 03:35:00 20.8 C 74 % 16 C
45 25-07-2019 03:40:00 20.8 C 74 % 16 C
46 25-07-2019 03:45:00 20.7 C 75 % 16.11 C
47 25-07-2019 03:50:00 20.6 C 75 % 16.01 C
48 25-07-2019 03:55:00 20.6 C 76 % 16.22 C
49 25-07-2019 04:00:00 20.4 C 76 % 16.03 C
50 25-07-2019 04:05:00 20.3 C 76 % 15.93 C
Sensor: Nr:Datum:Temp:Feuchte:Taupunkt:
Aussen-T/F 51 25-07-2019 04:10:00 20.2 C 77 % 16.04 C
52 25-07-2019 04:15:00 20.1 C 77 % 15.94 C
53 25-07-2019 04:20:00 19.9 C 78 % 15.95 C
54 25-07-2019 04:25:00 20.1 C 78 % 16.14 C
55 25-07-2019 04:30:00 20.1 C 78 % 16.14 C
56 25-07-2019 04:35:00 20.1 C 78 % 16.14 C
57 25-07-2019 04:40:00 20.1 C 78 % 16.14 C
58 25-07-2019 04:45:00 19.9 C 79 % 16.15 C
59 25-07-2019 04:50:00 19.9 C 79 % 16.15 C
60 25-07-2019 04:55:00 19.8 C 79 % 16.05 C
61 25-07-2019 05:00:00 19.7 C 79 % 15.96 C
62 25-07-2019 05:05:00 19.6 C 79 % 15.86 C
63 25-07-2019 05:10:00 19.6 C 80 % 16.06 C
64 25-07-2019 05:15:00 19.4 C 80 % 15.86 C
65 25-07-2019 05:20:00 19.4 C 80 % 15.86 C
66 25-07-2019 05:25:00 19.3 C 80 % 15.76 C
67 25-07-2019 05:30:00 19.3 C 80 % 15.76 C
68 25-07-2019 05:35:00 19.3 C 80 % 15.76 C
69 25-07-2019 05:40:00 19.2 C 80 % 15.67 C
70 25-07-2019 05:45:00 19.2 C 80 % 15.67 C
71 25-07-2019 05:50:00 19.2 C 81 % 15.86 C
72 25-07-2019 05:55:00 19.1 C 81 % 15.76 C
73 25-07-2019 06:00:00 19.1 C 82 % 15.96 C
74 25-07-2019 06:05:00 19.1 C 82 % 15.96 C
75 25-07-2019 06:10:00 19.1 C 82 % 15.96 C
Sensor: Nr:Datum:Temp:Feuchte:Taupunkt:
Aussen-T/F 76 25-07-2019 06:15:00 19.2 C 82 % 16.05 C
77 25-07-2019 06:20:00 19.2 C 82 % 16.05 C
78 25-07-2019 06:25:00 19.1 C 82 % 15.96 C
79 25-07-2019 06:30:00 19.2 C 82 % 16.05 C
80 25-07-2019 06:35:00 19.2 C 82 % 16.05 C
81 25-07-2019 06:40:00 19.2 C 82 % 16.05 C
82 25-07-2019 06:45:00 19.3 C 83 % 16.34 C
83 25-07-2019 06:50:00 19.3 C 83 % 16.34 C
84 25-07-2019 06:55:00 19.3 C 83 % 16.34 C
85 25-07-2019 07:00:00 19.3 C 83 % 16.34 C
86 25-07-2019 07:05:00 19.3 C 83 % 16.34 C
87 25-07-2019 07:10:00 19.4 C 84 % 16.63 C
88 25-07-2019 07:15:00 19.4 C 84 % 16.63 C
89 25-07-2019 07:20:00 19.4 C 84 % 16.63 C
90 25-07-2019 07:25:00 19.5 C 84 % 16.72 C
91 25-07-2019 07:30:00 19.6 C 84 % 16.82 C
92 25-07-2019 07:35:00 19.6 C 84 % 16.82 C
93 25-07-2019 07:40:00 19.7 C 84 % 16.92 C
94 25-07-2019 07:45:00 19.8 C 84 % 17.02 C
95 25-07-2019 07:50:00 19.8 C 84 % 17.02 C
96 25-07-2019 07:55:00 19.9 C 84 % 17.12 C
97 25-07-2019 08:00:00 20 C 83 % 17.02 C
98 25-07-2019 08:05:00 20.1 C 84 % 17.31 C
99 25-07-2019 08:10:00 20.2 C 83 % 17.22 C
100 25-07-2019 08:15:00 20.3 C 82 % 17.13 C
Sensor: Nr:Datum:Temp:Feuchte:Taupunkt:
Aussen-T/F 101 25-07-2019 08:20:00 20.5 C 83 % 17.51 C
102 25-07-2019 08:25:00 20.7 C 83 % 17.71 C
103 25-07-2019 08:30:00 20.8 C 83 % 17.81 C
104 25-07-2019 08:35:00 20.9 C 82 % 17.71 C
105 25-07-2019 08:40:00 21.1 C 83 % 18.1 C
106 25-07-2019 08:45:00 21.2 C 83 % 18.2 C
107 25-07-2019 08:50:00 21.4 C 82 % 18.2 C
108 25-07-2019 08:55:00 21.6 C 82 % 18.39 C
109 25-07-2019 09:00:00 21.7 C 81 % 18.3 C
110 25-07-2019 09:05:00 21.8 C 79 % 18 C
111 25-07-2019 09:10:00 22.1 C 81 % 18.69 C
112 25-07-2019 09:15:00 22.2 C 81 % 18.78 C
113 25-07-2019 09:20:00 22.3 C 78 % 18.28 C
114 25-07-2019 09:25:00 22.6 C 78 % 18.57 C
115 25-07-2019 09:30:00 22.8 C 77 % 18.56 C
116 25-07-2019 09:35:00 23.1 C 77 % 18.85 C
117 25-07-2019 09:40:00 23.3 C 75 % 18.62 C
118 25-07-2019 09:45:00 23.5 C 74 % 18.6 C
119 25-07-2019 09:50:00 23.7 C 72 % 18.35 C
120 25-07-2019 09:55:00 24 C 70 % 18.19 C
121 25-07-2019 10:00:00 24.3 C 70 % 18.48 C
122 25-07-2019 10:05:00 24.6 C 71 % 18.99 C
123 25-07-2019 10:10:00 24.9 C 70 % 19.05 C
124 25-07-2019 10:15:00 25.1 C 69 % 19.01 C
125 25-07-2019 10:20:00 25.3 C 68 % 18.97 C
Sensor: Nr:Datum:Temp:Feuchte:Taupunkt:
Aussen-T/F 126 25-07-2019 10:25:00 25.6 C 69 % 19.49 C
127 25-07-2019 10:30:00 25.9 C 67 % 19.3 C
128 25-07-2019 10:35:00 26.2 C 65 % 19.1 C
129 25-07-2019 10:40:00 26.6 C 63 % 18.97 C
130 25-07-2019 10:45:00 26.9 C 62 % 19 C
131 25-07-2019 10:50:00 27.2 C 63 % 19.54 C
132 25-07-2019 10:55:00 27.5 C 63 % 19.82 C
133 25-07-2019 11:00:00 27.8 C 61 % 19.59 C
134 25-07-2019 11:05:00 28.2 C 60 % 19.69 C
135 25-07-2019 11:10:00 28.6 C 56 % 18.96 C
136 25-07-2019 11:15:00 29.1 C 58 % 19.99 C
137 25-07-2019 11:20:00 29.4 C 54 % 19.12 C
138 25-07-2019 11:25:00 29.8 C 55 % 19.78 C
139 25-07-2019 11:30:00 30.1 C 54 % 19.76 C
140 25-07-2019 11:35:00 30.5 C 53 % 19.83 C
141 25-07-2019 11:40:00 30.8 C 50 % 19.17 C
142 25-07-2019 11:45:00 31.2 C 48 % 18.88 C
143 25-07-2019 11:50:00 31.6 C 47 % 18.91 C
144 25-07-2019 11:55:00 32.1 C 44 % 18.3 C
145 25-07-2019 12:00:00 32.6 C 41 % 17.63 C
146 25-07-2019 12:05:00 33 C 40 % 17.59 C
147 25-07-2019 12:10:00 33.4 C 38 % 17.14 C
148 25-07-2019 12:15:00 33.8 C 38 % 17.49 C
149 25-07-2019 12:20:00 34.3 C 35 % 16.63 C
150 25-07-2019 12:25:00 34.7 C 35 % 16.98 C
Sensor: Nr:Datum:Temp:Feuchte:Taupunkt:
Aussen-T/F 151 25-07-2019 12:30:00 34.9 C 35 % 17.16 C
152 25-07-2019 12:35:00 35.2 C 33 % 16.49 C
153 25-07-2019 12:40:00 35.3 C 33 % 16.58 C
154 25-07-2019 12:45:00 35.5 C 33 % 16.75 C
155 25-07-2019 12:50:00 35.7 C 33 % 16.92 C
156 25-07-2019 12:55:00 35.9 C 31 % 16.11 C
157 25-07-2019 13:00:00 36 C 32 % 16.7 C
158 25-07-2019 13:05:00 36.1 C 32 % 16.79 C
159 25-07-2019 13:10:00 36.2 C 32 % 16.87 C
160 25-07-2019 13:15:00 36.3 C 32 % 16.96 C
161 25-07-2019 13:20:00 36.3 C 30 % 15.94 C
162 25-07-2019 13:25:00 36.4 C 31 % 16.54 C
163 25-07-2019 13:30:00 36.4 C 31 % 16.54 C
164 25-07-2019 13:35:00 36.6 C 31 % 16.72 C
165 25-07-2019 13:40:00 36.7 C 31 % 16.8 C
166 25-07-2019 13:45:00 36.8 C 30 % 16.37 C
167 25-07-2019 13:50:00 36.9 C 31 % 16.97 C
168 25-07-2019 13:55:00 36.9 C 29 % 15.93 C
169 25-07-2019 14:00:00 36.9 C 30 % 16.46 C
170 25-07-2019 14:05:00 37.1 C 30 % 16.63 C
171 25-07-2019 14:10:00 37.2 C 29 % 16.18 C
172 25-07-2019 14:15:00 37.3 C 30 % 16.8 C
173 25-07-2019 14:20:00 37.4 C 29 % 16.35 C
174 25-07-2019 14:25:00 37.4 C 27 % 15.24 C
175 25-07-2019 14:30:00 37.4 C 30 % 16.89 C
Sensor: Nr:Datum:Temp:Feuchte:Taupunkt:
Aussen-T/F 176 25-07-2019 14:35:00 37.6 C 28 % 15.97 C
177 25-07-2019 14:40:00 37.6 C 29 % 16.52 C
178 25-07-2019 14:45:00 37.7 C 27 % 15.49 C
179 25-07-2019 14:50:00 37.7 C 29 % 16.61 C
180 25-07-2019 14:55:00 37.8 C 28 % 16.14 C
181 25-07-2019 15:00:00 37.9 C 28 % 16.23 C
182 25-07-2019 15:05:00 38.2 C 28 % 16.48 C
183 25-07-2019 15:10:00 38.3 C 28 % 16.57 C
184 25-07-2019 15:15:00 38.5 C 27 % 16.16 C
185 25-07-2019 15:20:00 38.7 C 26 % 15.74 C
186 25-07-2019 15:25:00 38.8 C 26 % 15.83 C
187 25-07-2019 15:30:00 38.9 C 26 % 15.91 C
188 25-07-2019 15:35:00 38.7 C 26 % 15.74 C
189 25-07-2019 15:40:00 38.8 C 26 % 15.83 C
190 25-07-2019 15:45:00 39.2 C 25 % 15.55 C
191 25-07-2019 15:50:00 39.6 C 26 % 16.5 C
192 25-07-2019 15:55:00 39.9 C 24 % 15.5 C
193 25-07-2019 16:00:00 40.1 C 23 % 15 C
194 25-07-2019 16:05:00 40.2 C 24 % 15.75 C
195 25-07-2019 16:10:00 40.2 C 25 % 16.39 C
196 25-07-2019 16:15:00 40.3 C 23 % 15.17 C
197 25-07-2019 16:20:00 40.4 C 24 % 15.91 C
198 25-07-2019 16:25:00 40.4 C 25 % 16.55 C
199 25-07-2019 16:30:00 40.4 C 23 % 15.25 C
200 25-07-2019 16:35:00 40.3 C 23 % 15.17 C
Sensor: Nr:Datum:Temp:Feuchte:Taupunkt:
Aussen-T/F 201 25-07-2019 16:40:00 40 C 23 % 14.92 C
202 25-07-2019 16:45:00 39.9 C 23 % 14.83 C
203 25-07-2019 16:50:00 39.9 C 25 % 16.13 C
204 25-07-2019 16:55:00 39.7 C 23 % 14.67 C
205 25-07-2019 17:00:00 39.8 C 24 % 15.41 C
206 25-07-2019 17:05:00 39.9 C 24 % 15.5 C
207 25-07-2019 17:10:00 40.3 C 23 % 15.17 C
208 25-07-2019 17:15:00 40.3 C 22 % 14.48 C
209 25-07-2019 17:20:00 40.1 C 22 % 14.31 C
210 25-07-2019 17:25:00 39.9 C 22 % 14.15 C
211 25-07-2019 17:30:00 39.6 C 22 % 13.9 C
212 25-07-2019 17:35:00 39.5 C 22 % 13.82 C
213 25-07-2019 17:40:00 39.5 C 22 % 13.82 C
214 25-07-2019 17:45:00 39.5 C 22 % 13.82 C
215 25-07-2019 17:50:00 39.6 C 23 % 14.59 C
216 25-07-2019 17:55:00 39.7 C 23 % 14.67 C
217 25-07-2019 18:00:00 39.6 C 23 % 14.59 C
218 25-07-2019 18:05:00 39.4 C 23 % 14.42 C
219 25-07-2019 18:10:00 39.4 C 22 % 13.74 C
220 25-07-2019 18:15:00 39.4 C 23 % 14.42 C
221 25-07-2019 18:20:00 39.3 C 22 % 13.65 C
222 25-07-2019 18:25:00 39.3 C 23 % 14.34 C
223 25-07-2019 18:30:00 39.2 C 23 % 14.26 C
224 25-07-2019 18:35:00 39.1 C 23 % 14.17 C
225 25-07-2019 18:40:00 38.8 C 23 % 13.92 C
Sensor: Nr:Datum:Temp:Feuchte:Taupunkt:
Aussen-T/F 226 25-07-2019 18:45:00 38.6 C 24 % 14.42 C
227 25-07-2019 18:50:00 38.6 C 24 % 14.42 C
228 25-07-2019 18:55:00 38.4 C 29 % 17.2 C
229 25-07-2019 19:00:00 38.3 C 25 % 14.8 C
230 25-07-2019 19:05:00 38.2 C 31 % 18.09 C
231 25-07-2019 19:10:00 38 C 28 % 16.31 C
232 25-07-2019 19:15:00 37.8 C 33 % 18.74 C
233 25-07-2019 19:20:00 37.4 C 32 % 17.91 C
234 25-07-2019 19:25:00 37 C 33 % 18.05 C
235 25-07-2019 19:30:00 36.6 C 33 % 17.7 C
236 25-07-2019 19:35:00 36.2 C 35 % 18.29 C
237 25-07-2019 19:40:00 35.7 C 36 % 18.3 C
238 25-07-2019 19:45:00 35.3 C 39 % 19.23 C
239 25-07-2019 19:50:00 34.9 C 38 % 18.46 C
240 25-07-2019 19:55:00 34.6 C 38 % 18.2 C
241 25-07-2019 20:00:00 34.3 C 41 % 19.15 C
242 25-07-2019 20:05:00 33.9 C 41 % 18.79 C
243 25-07-2019 20:10:00 33.7 C 40 % 18.22 C
244 25-07-2019 20:15:00 33.4 C 40 % 17.95 C
245 25-07-2019 20:20:00 33.2 C 42 % 18.55 C
246 25-07-2019 20:25:00 32.9 C 41 % 17.9 C
247 25-07-2019 20:30:00 32.7 C 42 % 18.1 C
248 25-07-2019 20:35:00 32.4 C 42 % 17.83 C
249 25-07-2019 20:40:00 32.2 C 43 % 18.03 C
250 25-07-2019 20:45:00 31.9 C 43 % 17.76 C
Sensor: Nr:Datum:Temp:Feuchte:Taupunkt:
Aussen-T/F 251 25-07-2019 20:50:00 31.7 C 44 % 17.94 C
252 25-07-2019 20:55:00 31.5 C 43 % 17.4 C
253 25-07-2019 21:00:00 31.3 C 44 % 17.58 C
254 25-07-2019 21:05:00 31.1 C 44 % 17.4 C
255 25-07-2019 21:10:00 30.9 C 45 % 17.58 C
256 25-07-2019 21:15:00 30.7 C 44 % 17.04 C
257 25-07-2019 21:20:00 30.5 C 44 % 16.86 C
258 25-07-2019 21:25:00 30.3 C 45 % 17.04 C
259 25-07-2019 21:30:00 30.2 C 45 % 16.95 C
260 25-07-2019 21:35:00 30.1 C 45 % 16.86 C
261 25-07-2019 21:40:00 29.9 C 45 % 16.68 C
262 25-07-2019 21:45:00 29.8 C 45 % 16.59 C
263 25-07-2019 21:50:00 29.7 C 45 % 16.5 C
264 25-07-2019 21:55:00 29.6 C 45 % 16.41 C
265 25-07-2019 22:00:00 29.4 C 45 % 16.23 C
266 25-07-2019 22:05:00 29.3 C 46 % 16.48 C
267 25-07-2019 22:10:00 29.2 C 46 % 16.39 C
268 25-07-2019 22:15:00 29.1 C 47 % 16.64 C
269 25-07-2019 22:20:00 28.9 C 46 % 16.12 C
270 25-07-2019 22:25:00 28.8 C 48 % 16.69 C
271 25-07-2019 22:30:00 28.7 C 48 % 16.6 C
272 25-07-2019 22:35:00 28.5 C 48 % 16.42 C
273 25-07-2019 22:40:00 28.4 C 48 % 16.33 C
274 25-07-2019 22:45:00 28.3 C 48 % 16.24 C
275 25-07-2019 22:50:00 28.3 C 49 % 16.56 C
Sensor: Nr:Datum:Temp:Feuchte:Taupunkt:
Aussen-T/F 276 25-07-2019 22:55:00 28.2 C 48 % 16.15 C
277 25-07-2019 23:00:00 28.1 C 49 % 16.38 C
278 25-07-2019 23:05:00 28 C 48 % 15.97 C
279 25-07-2019 23:10:00 27.9 C 49 % 16.2 C
280 25-07-2019 23:15:00 27.8 C 48 % 15.78 C
281 25-07-2019 23:20:00 27.8 C 49 % 16.11 C
282 25-07-2019 23:25:00 27.7 C 50 % 16.33 C
283 25-07-2019 23:30:00 27.6 C 49 % 15.92 C
284 25-07-2019 23:35:00 27.4 C 50 % 16.06 C
285 25-07-2019 23:40:00 27.3 C 50 % 15.97 C
286 25-07-2019 23:45:00 27.2 C 50 % 15.87 C
287 25-07-2019 23:50:00 27.1 C 51 % 16.09 C
288 25-07-2019 23:55:00 26.9 C 53 % 16.51 C
289 26-07-2019 00:00:00 26.8 C 53 % 16.42 C
290 26-07-2019 00:05:00 26.7 C 53 % 16.33 C
291 26-07-2019 00:10:00 26.5 C 52 % 15.84 C
292 26-07-2019 00:15:00 26.4 C 53 % 16.05 C
293 26-07-2019 00:20:00 26.3 C 53 % 15.96 C
294 26-07-2019 00:25:00 26.2 C 54 % 16.16 C
295 26-07-2019 00:30:00 26.1 C 54 % 16.07 C
296 26-07-2019 00:35:00 26 C 53 % 15.68 C
297 26-07-2019 00:40:00 25.9 C 54 % 15.88 C
298 26-07-2019 00:45:00 25.9 C 54 % 15.88 C
299 26-07-2019 00:50:00 25.8 C 54 % 15.79 C
300 26-07-2019 00:55:00 25.7 C 54 % 15.7 C
Sensor: Nr:Datum:Temp:Feuchte:Taupunkt:
Aussen-T/F 301 26-07-2019 01:00:00 25.6 C 54 % 15.6 C
302 26-07-2019 01:05:00 25.5 C 55 % 15.8 C
303 26-07-2019 01:10:00 25.4 C 54 % 15.42 C
304 26-07-2019 01:15:00 25.3 C 56 % 15.89 C
305 26-07-2019 01:20:00 25.2 C 56 % 15.8 C
306 26-07-2019 01:25:00 25.2 C 57 % 16.08 C
307 26-07-2019 01:30:00 25.1 C 56 % 15.71 C
308 26-07-2019 01:35:00 24.9 C 58 % 16.07 C
309 26-07-2019 01:40:00 24.8 C 59 % 16.24 C
310 26-07-2019 01:45:00 24.6 C 60 % 16.32 C
311 26-07-2019 01:50:00 24.3 C 60 % 16.04 C
312 26-07-2019 01:55:00 24.1 C 60 % 15.85 C
313 26-07-2019 02:00:00 23.8 C 62 % 16.08 C
314 26-07-2019 02:05:00 23.6 C 64 % 16.39 C
315 26-07-2019 02:10:00 23.3 C 65 % 16.35 C
316 26-07-2019 02:15:00 23 C 66 % 16.31 C
317 26-07-2019 02:20:00 22.8 C 67 % 16.35 C
318 26-07-2019 02:25:00 22.6 C 68 % 16.39 C
319 26-07-2019 02:30:00 22.3 C 69 % 16.34 C
320 26-07-2019 02:35:00 22.2 C 69 % 16.24 C
321 26-07-2019 02:40:00 21.9 C 69 % 15.96 C
322 26-07-2019 02:45:00 21.7 C 68 % 15.54 C
323 26-07-2019 02:50:00 21.6 C 69 % 15.67 C
324 26-07-2019 02:55:00 21.4 C 68 % 15.25 C
325 26-07-2019 03:00:00 21.3 C 70 % 15.61 C
Sensor: Nr:Datum:Temp:Feuchte:Taupunkt:
Aussen-T/F 326 26-07-2019 03:05:00 21.2 C 71 % 15.73 C
327 26-07-2019 03:10:00 21.2 C 71 % 15.73 C
328 26-07-2019 03:15:00 21.1 C 70 % 15.42 C
329 26-07-2019 03:20:00 21.1 C 71 % 15.64 C
330 26-07-2019 03:25:00 21 C 71 % 15.54 C
331 26-07-2019 03:30:00 21 C 72 % 15.76 C
332 26-07-2019 03:35:00 20.9 C 72 % 15.66 C
333 26-07-2019 03:40:00 20.8 C 72 % 15.57 C
334 26-07-2019 03:45:00 20.8 C 72 % 15.57 C
335 26-07-2019 03:50:00 20.8 C 74 % 16 C
336 26-07-2019 03:55:00 20.7 C 74 % 15.9 C
337 26-07-2019 04:00:00 20.7 C 74 % 15.9 C
338 26-07-2019 04:05:00 20.6 C 75 % 16.01 C
339 26-07-2019 04:10:00 20.4 C 75 % 15.82 C
340 26-07-2019 04:15:00 20.3 C 75 % 15.72 C
341 26-07-2019 04:20:00 20.3 C 76 % 15.93 C
342 26-07-2019 04:25:00 20.2 C 77 % 16.04 C
343 26-07-2019 04:30:00 20.1 C 77 % 15.94 C
344 26-07-2019 04:35:00 19.9 C 77 % 15.75 C
345 26-07-2019 04:40:00 19.9 C 78 % 15.95 C
346 26-07-2019 04:45:00 19.8 C 78 % 15.85 C
347 26-07-2019 04:50:00 19.7 C 78 % 15.76 C
348 26-07-2019 04:55:00 19.6 C 79 % 15.86 C
349 26-07-2019 05:00:00 19.6 C 79 % 15.86 C
350 26-07-2019 05:05:00 19.5 C 78 % 15.56 C
Sensor: Nr:Datum:Temp:Feuchte:Taupunkt:
Aussen-T/F 351 26-07-2019 05:10:00 19.4 C 78 % 15.47 C
352 26-07-2019 05:15:00 19.3 C 78 % 15.37 C
353 26-07-2019 05:20:00 19.3 C 79 % 15.57 C
354 26-07-2019 05:25:00 19.3 C 78 % 15.37 C
355 26-07-2019 05:30:00 19.3 C 80 % 15.76 C
356 26-07-2019 05:35:00 19.3 C 80 % 15.76 C
357 26-07-2019 05:40:00 19.2 C 80 % 15.67 C
358 26-07-2019 05:45:00 19.2 C 80 % 15.67 C
359 26-07-2019 05:50:00 19.1 C 79 % 15.37 C
360 26-07-2019 05:55:00 19 C 79 % 15.28 C
361 26-07-2019 06:00:00 18.9 C 80 % 15.38 C
362 26-07-2019 06:05:00 19 C 79 % 15.28 C
363 26-07-2019 06:10:00 19 C 79 % 15.28 C
364 26-07-2019 06:15:00 18.9 C 80 % 15.38 C
365 26-07-2019 06:20:00 18.9 C 80 % 15.38 C
366 26-07-2019 06:25:00 18.9 C 80 % 15.38 C
367 26-07-2019 06:30:00 18.9 C 80 % 15.38 C
368 26-07-2019 06:35:00 18.9 C 81 % 15.57 C
369 26-07-2019 06:40:00 18.9 C 81 % 15.57 C
370 26-07-2019 06:45:00 19 C 81 % 15.67 C
371 26-07-2019 06:50:00 19.1 C 81 % 15.76 C
372 26-07-2019 06:55:00 19.1 C 82 % 15.96 C
373 26-07-2019 07:00:00 19.2 C 83 % 16.24 C
374 26-07-2019 07:05:00 19.3 C 83 % 16.34 C
375 26-07-2019 07:10:00 19.3 C 83 % 16.34 C
Sensor: Nr:Datum:Temp:Feuchte:Taupunkt:
Aussen-T/F 376 26-07-2019 07:15:00 19.4 C 83 % 16.44 C
377 26-07-2019 07:20:00 19.4 C 82 % 16.25 C
378 26-07-2019 07:25:00 19.5 C 83 % 16.54 C
379 26-07-2019 07:30:00 19.6 C 83 % 16.63 C
380 26-07-2019 07:35:00 19.7 C 83 % 16.73 C
381 26-07-2019 07:40:00 19.8 C 83 % 16.83 C
382 26-07-2019 07:45:00 19.9 C 82 % 16.74 C
383 26-07-2019 07:50:00 20.1 C 81 % 16.74 C
384 26-07-2019 07:55:00 20.2 C 81 % 16.84 C
385 26-07-2019 08:00:00 20.4 C 81 % 17.03 C
386 26-07-2019 08:05:00 20.5 C 82 % 17.32 C
387 26-07-2019 08:10:00 20.6 C 81 % 17.22 C
388 26-07-2019 08:15:00 20.7 C 82 % 17.52 C
389 26-07-2019 08:20:00 20.8 C 81 % 17.42 C
390 26-07-2019 08:25:00 20.9 C 80 % 17.32 C
391 26-07-2019 08:30:00 21.1 C 79 % 17.32 C
392 26-07-2019 08:35:00 21.3 C 79 % 17.51 C
393 26-07-2019 08:40:00 21.5 C 78 % 17.5 C
394 26-07-2019 08:45:00 21.7 C 79 % 17.9 C
395 26-07-2019 08:50:00 21.9 C 80 % 18.29 C
396 26-07-2019 08:55:00 21.9 C 78 % 17.89 C
397 26-07-2019 09:00:00 22.1 C 76 % 17.67 C
398 26-07-2019 09:05:00 22.3 C 76 % 17.86 C
399 26-07-2019 09:10:00 22.4 C 74 % 17.54 C
400 26-07-2019 09:15:00 22.7 C 73 % 17.61 C
Sensor: Nr:Datum:Temp:Feuchte:Taupunkt:
Aussen-T/F 401 26-07-2019 09:20:00 22.9 C 74 % 18.02 C
402 26-07-2019 09:25:00 23.1 C 70 % 17.33 C
403 26-07-2019 09:30:00 23.4 C 70 % 17.62 C
404 26-07-2019 09:35:00 23.7 C 67 % 17.21 C
405 26-07-2019 09:40:00 24.2 C 67 % 17.68 C
406 26-07-2019 09:45:00 24.6 C 66 % 17.83 C
407 26-07-2019 09:50:00 25 C 58 % 16.16 C
408 26-07-2019 09:55:00 25.7 C 60 % 17.35 C
409 26-07-2019 10:00:00 25.9 C 60 % 17.54 C
410 26-07-2019 10:05:00 26.3 C 58 % 17.38 C
411 26-07-2019 10:10:00 26.4 C 57 % 17.19 C
412 26-07-2019 10:15:00 26.8 C 55 % 17 C
413 26-07-2019 10:20:00 27.2 C 54 % 17.08 C
414 26-07-2019 10:25:00 27.6 C 48 % 15.6 C
415 26-07-2019 10:30:00 28.4 C 46 % 15.66 C
416 26-07-2019 10:35:00 29.1 C 46 % 16.3 C
417 26-07-2019 10:40:00 29.6 C 44 % 16.05 C
418 26-07-2019 10:45:00 30.1 C 43 % 16.14 C
419 26-07-2019 10:50:00 30.5 C 42 % 16.13 C
420 26-07-2019 10:55:00 30.8 C 41 % 16.02 C
421 26-07-2019 11:00:00 31 C 39 % 15.42 C
422 26-07-2019 11:05:00 31.2 C 39 % 15.6 C
423 26-07-2019 11:10:00 31.4 C 41 % 16.56 C
424 26-07-2019 11:15:00 31.5 C 40 % 16.26 C
425 26-07-2019 11:20:00 31.7 C 39 % 16.04 C
Sensor: Nr:Datum:Temp:Feuchte:Taupunkt:
Aussen-T/F 426 26-07-2019 11:25:00 31.9 C 40 % 16.62 C
427 26-07-2019 11:30:00 32.1 C 38 % 15.99 C
428 26-07-2019 11:35:00 32.3 C 40 % 16.97 C
429 26-07-2019 11:40:00 32.6 C 39 % 16.84 C
430 26-07-2019 11:45:00 32.8 C 37 % 16.19 C
431 26-07-2019 11:50:00 32.9 C 37 % 16.28 C
432 26-07-2019 11:55:00 33.2 C 37 % 16.54 C
433 26-07-2019 12:00:00 33.4 C 36 % 16.29 C
434 26-07-2019 12:05:00 33.6 C 35 % 16.02 C
435 26-07-2019 12:10:00 33.7 C 37 % 16.98 C
436 26-07-2019 12:15:00 33.8 C 35 % 16.19 C
437 26-07-2019 12:20:00 34.1 C 35 % 16.46 C
438 26-07-2019 12:25:00 34.2 C 36 % 16.99 C
439 26-07-2019 12:30:00 34.3 C 34 % 16.18 C
440 26-07-2019 12:35:00 34.5 C 34 % 16.35 C
441 26-07-2019 12:40:00 34.8 C 34 % 16.61 C
442 26-07-2019 12:45:00 35.1 C 33 % 16.4 C
443 26-07-2019 12:50:00 35.3 C 33 % 16.58 C
444 26-07-2019 12:55:00 35.4 C 32 % 16.18 C
445 26-07-2019 13:00:00 35.5 C 32 % 16.27 C
446 26-07-2019 13:05:00 35.6 C 31 % 15.86 C
447 26-07-2019 13:10:00 35.7 C 31 % 15.94 C
448 26-07-2019 13:15:00 35.7 C 32 % 16.44 C
449 26-07-2019 13:20:00 35.8 C 32 % 16.53 C
450 26-07-2019 13:25:00 35.8 C 31 % 16.03 C
Sensor: Nr:Datum:Temp:Feuchte:Taupunkt:
Aussen-T/F 451 26-07-2019 13:30:00 35.9 C 30 % 15.6 C
452 26-07-2019 13:35:00 36.1 C 31 % 16.29 C
453 26-07-2019 13:40:00 36.2 C 31 % 16.37 C
454 26-07-2019 13:45:00 36.4 C 31 % 16.54 C
455 26-07-2019 13:50:00 36.6 C 30 % 16.2 C
456 26-07-2019 13:55:00 36.8 C 29 % 15.84 C
457 26-07-2019 14:00:00 36.9 C 29 % 15.93 C
458 26-07-2019 14:05:00 36.9 C 28 % 15.38 C
459 26-07-2019 14:10:00 36.8 C 28 % 15.29 C
460 26-07-2019 14:15:00 36.9 C 28 % 15.38 C
461 26-07-2019 14:20:00 37.1 C 29 % 16.1 C
462 26-07-2019 14:25:00 37.4 C 27 % 15.24 C
463 26-07-2019 14:30:00 37.6 C 26 % 14.82 C
464 26-07-2019 14:35:00 37.8 C 26 % 14.99 C
465 26-07-2019 14:40:00 37.8 C 26 % 14.99 C
466 26-07-2019 14:45:00 37.7 C 24 % 13.67 C
467 26-07-2019 14:50:00 37.7 C 26 % 14.9 C
468 26-07-2019 14:55:00 37.7 C 24 % 13.67 C
469 26-07-2019 15:00:00 38.1 C 25 % 14.63 C
470 26-07-2019 15:05:00 38.3 C 25 % 14.8 C
471 26-07-2019 15:10:00 38.6 C 24 % 14.42 C
472 26-07-2019 15:15:00 38.7 C 25 % 15.13 C
473 26-07-2019 15:20:00 38.3 C 27 % 16 C
474 26-07-2019 15:25:00 37.3 C 30 % 16.8 C
475 26-07-2019 15:30:00 36.8 C 30 % 16.37 C
Sensor: Nr:Datum:Temp:Feuchte:Taupunkt:
Aussen-T/F 476 26-07-2019 15:35:00 36.3 C 31 % 16.46 C
477 26-07-2019 15:40:00 35.9 C 31 % 16.11 C
478 26-07-2019 15:45:00 35.6 C 32 % 16.35 C
479 26-07-2019 15:50:00 35.7 C 30 % 15.43 C
480 26-07-2019 15:55:00 35.6 C 30 % 15.34 C
481 26-07-2019 16:00:00 35.4 C 31 % 15.68 C
482 26-07-2019 16:05:00 35.3 C 32 % 16.09 C
483 26-07-2019 16:10:00 35.4 C 32 % 16.18 C
484 26-07-2019 16:15:00 35.4 C 31 % 15.68 C
485 26-07-2019 16:20:00 35.5 C 32 % 16.27 C
486 26-07-2019 16:25:00 35.6 C 37 % 18.65 C
487 26-07-2019 16:30:00 35.6 C 39 % 19.5 C
488 26-07-2019 16:35:00 35.6 C 40 % 19.91 C
489 26-07-2019 16:40:00 35.3 C 32 % 16.09 C
490 26-07-2019 16:45:00 34.9 C 34 % 16.7 C
491 26-07-2019 16:50:00 34.8 C 35 % 17.07 C
492 26-07-2019 16:55:00 34.6 C 33 % 15.97 C
493 26-07-2019 17:00:00 34.2 C 35 % 16.54 C
494 26-07-2019 17:05:00 34.1 C 42 % 19.35 C
495 26-07-2019 17:10:00 33.5 C 39 % 17.64 C
496 26-07-2019 17:15:00 32.9 C 40 % 17.51 C
497 26-07-2019 17:20:00 32.6 C 42 % 18.01 C
498 26-07-2019 17:25:00 32.4 C 44 % 18.57 C
499 26-07-2019 17:30:00 32.2 C 45 % 18.75 C
500 26-07-2019 17:35:00 31.9 C 46 % 18.83 C
Sensor: Nr:Datum:Temp:Feuchte:Taupunkt:
Aussen-T/F 501 26-07-2019 17:40:00 31.8 C 43 % 17.67 C
502 26-07-2019 17:45:00 31.7 C 44 % 17.94 C
503 26-07-2019 17:50:00 31.4 C 45 % 18.03 C
504 26-07-2019 17:55:00 31.3 C 44 % 17.58 C
505 26-07-2019 18:00:00 31.2 C 45 % 17.85 C
506 26-07-2019 18:05:00 31.1 C 45 % 17.76 C
507 26-07-2019 18:10:00 30.9 C 44 % 17.22 C
508 26-07-2019 18:15:00 30.9 C 44 % 17.22 C
509 26-07-2019 18:20:00 30.8 C 44 % 17.13 C
510 26-07-2019 18:25:00 30.7 C 45 % 17.4 C
511 26-07-2019 18:30:00 30.6 C 45 % 17.31 C
512 26-07-2019 18:35:00 30.3 C 46 % 17.39 C
513 26-07-2019 18:40:00 30.1 C 46 % 17.2 C
514 26-07-2019 18:45:00 29.7 C 46 % 16.84 C
515 26-07-2019 18:50:00 29.6 C 48 % 17.42 C
516 26-07-2019 18:55:00 29.4 C 48 % 17.24 C
517 26-07-2019 19:00:00 29.3 C 49 % 17.48 C
518 26-07-2019 19:05:00 29.3 C 50 % 17.8 C
519 26-07-2019 19:10:00 29.2 C 50 % 17.71 C
520 26-07-2019 19:15:00 29.1 C 50 % 17.61 C
521 26-07-2019 19:20:00 29.1 C 52 % 18.24 C
522 26-07-2019 19:25:00 28.9 C 51 % 17.74 C
523 26-07-2019 19:30:00 28.8 C 53 % 18.26 C
524 26-07-2019 19:35:00 28.7 C 53 % 18.17 C
525 26-07-2019 19:40:00 28.6 C 54 % 18.38 C
Sensor: Nr:Datum:Temp:Feuchte:Taupunkt:
Aussen-T/F 526 26-07-2019 19:45:00 28.4 C 54 % 18.19 C
527 26-07-2019 19:50:00 28.3 C 54 % 18.1 C
528 26-07-2019 19:55:00 28.2 C 56 % 18.59 C
529 26-07-2019 20:00:00 28.1 C 56 % 18.49 C
530 26-07-2019 20:05:00 28 C 56 % 18.4 C
531 26-07-2019 20:10:00 27.9 C 57 % 18.59 C
532 26-07-2019 20:15:00 27.8 C 57 % 18.5 C
533 26-07-2019 20:20:00 27.7 C 58 % 18.68 C
534 26-07-2019 20:25:00 27.6 C 57 % 18.31 C
535 26-07-2019 20:30:00 27.5 C 59 % 18.77 C
536 26-07-2019 20:35:00 27.4 C 57 % 18.13 C
537 26-07-2019 20:40:00 27.2 C 59 % 18.49 C
538 26-07-2019 20:45:00 27.1 C 59 % 18.4 C
539 26-07-2019 20:50:00 27.1 C 59 % 18.4 C
540 26-07-2019 20:55:00 26.9 C 59 % 18.21 C
541 26-07-2019 21:00:00 26.8 C 59 % 18.11 C
542 26-07-2019 21:05:00 26.7 C 59 % 18.02 C
543 26-07-2019 21:10:00 26.7 C 59 % 18.02 C
544 26-07-2019 21:15:00 26.6 C 60 % 18.2 C
545 26-07-2019 21:20:00 26.4 C 59 % 17.74 C
546 26-07-2019 21:25:00 26.3 C 59 % 17.65 C
547 26-07-2019 21:30:00 26.2 C 59 % 17.55 C
548 26-07-2019 21:35:00 26.2 C 59 % 17.55 C
549 26-07-2019 21:40:00 26.1 C 59 % 17.46 C
550 26-07-2019 21:45:00 26.1 C 60 % 17.73 C
Sensor: Nr:Datum:Temp:Feuchte:Taupunkt:
Aussen-T/F 551 26-07-2019 21:50:00 26 C 60 % 17.63 C
552 26-07-2019 21:55:00 25.9 C 60 % 17.54 C
553 26-07-2019 22:00:00 25.9 C 60 % 17.54 C
554 26-07-2019 22:05:00 25.8 C 61 % 17.71 C
555 26-07-2019 22:10:00 25.7 C 61 % 17.61 C
556 26-07-2019 22:15:00 25.7 C 61 % 17.61 C
557 26-07-2019 22:20:00 25.7 C 62 % 17.87 C
558 26-07-2019 22:25:00 25.7 C 62 % 17.87 C
559 26-07-2019 22:30:00 25.6 C 63 % 18.03 C
560 26-07-2019 22:35:00 25.4 C 63 % 17.84 C
561 26-07-2019 22:40:00 25.3 C 62 % 17.5 C
562 26-07-2019 22:45:00 25.2 C 63 % 17.65 C
563 26-07-2019 22:50:00 25.1 C 63 % 17.56 C
564 26-07-2019 22:55:00 24.9 C 64 % 17.62 C
565 26-07-2019 23:00:00 24.8 C 65 % 17.77 C
566 26-07-2019 23:05:00 24.8 C 65 % 17.77 C
567 26-07-2019 23:10:00 24.7 C 66 % 17.92 C
568 26-07-2019 23:15:00 24.6 C 66 % 17.83 C
569 26-07-2019 23:20:00 24.5 C 67 % 17.97 C
570 26-07-2019 23:25:00 24.4 C 67 % 17.87 C
571 26-07-2019 23:30:00 24.3 C 67 % 17.78 C
572 26-07-2019 23:35:00 24.2 C 67 % 17.68 C
573 26-07-2019 23:40:00 24.2 C 67 % 17.68 C
574 26-07-2019 23:45:00 24.1 C 68 % 17.82 C
575 26-07-2019 23:50:00 23.9 C 68 % 17.63 C
Sensor: Nr:Datum:Temp:Feuchte:Taupunkt:
Aussen-T/F 576 26-07-2019 23:55:00 23.8 C 68 % 17.54 C
577 27-07-2019 00:00:00 23.6 C 69 % 17.58 C
578 27-07-2019 00:05:00 23.4 C 69 % 17.39 C
579 27-07-2019 00:10:00 23.3 C 69 % 17.29 C
580 27-07-2019 00:15:00 23.3 C 70 % 17.52 C
581 27-07-2019 00:20:00 23.2 C 70 % 17.42 C
582 27-07-2019 00:25:00 23.2 C 70 % 17.42 C
583 27-07-2019 00:30:00 23.1 C 70 % 17.33 C
584 27-07-2019 00:35:00 23.1 C 71 % 17.55 C
585 27-07-2019 00:40:00 23 C 71 % 17.46 C
586 27-07-2019 00:45:00 22.9 C 71 % 17.36 C
587 27-07-2019 00:50:00 22.9 C 71 % 17.36 C
588 27-07-2019 00:55:00 22.8 C 72 % 17.49 C
589 27-07-2019 01:00:00 22.8 C 72 % 17.49 C
590 27-07-2019 01:05:00 22.7 C 72 % 17.39 C
591 27-07-2019 01:10:00 22.7 C 73 % 17.61 C
592 27-07-2019 01:15:00 22.6 C 73 % 17.51 C
593 27-07-2019 01:20:00 22.7 C 74 % 17.83 C
594 27-07-2019 01:25:00 22.7 C 73 % 17.61 C
595 27-07-2019 01:30:00 22.7 C 73 % 17.61 C
596 27-07-2019 01:35:00 22.7 C 73 % 17.61 C
597 27-07-2019 01:40:00 22.7 C 74 % 17.83 C
598 27-07-2019 01:45:00 22.6 C 74 % 17.73 C
599 27-07-2019 01:50:00 22.4 C 74 % 17.54 C
600 27-07-2019 01:55:00 22.3 C 74 % 17.44 C
Sensor: Nr:Datum:Temp:Feuchte:Taupunkt:
Aussen-T/F 601 27-07-2019 02:00:00 22.3 C 74 % 17.44 C
602 27-07-2019 02:05:00 22.3 C 73 % 17.23 C
603 27-07-2019 02:10:00 22.3 C 73 % 17.23 C
604 27-07-2019 02:15:00 22.3 C 75 % 17.65 C
605 27-07-2019 02:20:00 22.4 C 75 % 17.75 C
606 27-07-2019 02:25:00 22.4 C 76 % 17.96 C
607 27-07-2019 02:30:00 22.4 C 76 % 17.96 C
608 27-07-2019 02:35:00 22.4 C 76 % 17.96 C
609 27-07-2019 02:40:00 22.3 C 76 % 17.86 C
610 27-07-2019 02:45:00 22.3 C 76 % 17.86 C
611 27-07-2019 02:50:00 22.3 C 76 % 17.86 C
612 27-07-2019 02:55:00 22.3 C 76 % 17.86 C
613 27-07-2019 03:00:00 22.3 C 76 % 17.86 C
614 27-07-2019 03:05:00 22.3 C 76 % 17.86 C
615 27-07-2019 03:10:00 22.3 C 74 % 17.44 C
616 27-07-2019 03:15:00 22.4 C 74 % 17.54 C
617 27-07-2019 03:20:00 22.5 C 73 % 17.42 C
618 27-07-2019 03:25:00 22.6 C 72 % 17.3 C
619 27-07-2019 03:30:00 22.6 C 71 % 17.07 C
620 27-07-2019 03:35:00 22.8 C 69 % 16.82 C
621 27-07-2019 03:40:00 23.2 C 75 % 18.52 C
622 27-07-2019 03:45:00 23.1 C 78 % 19.05 C
623 27-07-2019 03:50:00 22.7 C 79 % 18.87 C
624 27-07-2019 03:55:00 22.3 C 80 % 18.68 C
625 27-07-2019 04:00:00 21.9 C 83 % 18.88 C
Sensor: Nr:Datum:Temp:Feuchte:Taupunkt:
Aussen-T/F 626 27-07-2019 04:05:00 21.7 C 84 % 18.88 C
627 27-07-2019 04:10:00 21.4 C 85 % 18.77 C
628 27-07-2019 04:15:00 21.1 C 85 % 18.48 C
629 27-07-2019 04:20:00 20.9 C 86 % 18.47 C
630 27-07-2019 04:25:00 20.8 C 87 % 18.56 C
631 27-07-2019 04:30:00 20.7 C 87 % 18.46 C
632 27-07-2019 04:35:00 20.6 C 87 % 18.36 C
633 27-07-2019 04:40:00 20.5 C 88 % 18.44 C
634 27-07-2019 04:45:00 20.4 C 88 % 18.34 C
635 27-07-2019 04:50:00 20.4 C 88 % 18.34 C
636 27-07-2019 04:55:00 20.4 C 89 % 18.53 C
637 27-07-2019 05:00:00 20.4 C 88 % 18.34 C
638 27-07-2019 05:05:00 20.4 C 88 % 18.34 C
639 27-07-2019 05:10:00 20.3 C 89 % 18.43 C
640 27-07-2019 05:15:00 20.3 C 89 % 18.43 C
641 27-07-2019 05:20:00 20.3 C 89 % 18.43 C
642 27-07-2019 05:25:00 20.3 C 89 % 18.43 C
643 27-07-2019 05:30:00 20.2 C 89 % 18.33 C
644 27-07-2019 05:35:00 20.3 C 89 % 18.43 C
645 27-07-2019 05:40:00 20.2 C 89 % 18.33 C
646 27-07-2019 05:45:00 20.2 C 89 % 18.33 C
647 27-07-2019 05:50:00 20.2 C 89 % 18.33 C
648 27-07-2019 05:55:00 20.2 C 88 % 18.15 C
649 27-07-2019 06:00:00 20.2 C 88 % 18.15 C
650 27-07-2019 06:05:00 20.3 C 89 % 18.43 C
Sensor: Nr:Datum:Temp:Feuchte:Taupunkt:
Aussen-T/F 651 27-07-2019 06:10:00 20.3 C 88 % 18.25 C
652 27-07-2019 06:15:00 20.3 C 89 % 18.43 C
653 27-07-2019 06:20:00 20.3 C 88 % 18.25 C
654 27-07-2019 06:25:00 20.4 C 89 % 18.53 C
655 27-07-2019 06:30:00 20.6 C 89 % 18.72 C
656 27-07-2019 06:35:00 20.7 C 89 % 18.82 C
657 27-07-2019 06:40:00 20.7 C 88 % 18.64 C
658 27-07-2019 06:45:00 20.8 C 88 % 18.74 C
659 27-07-2019 06:50:00 20.8 C 89 % 18.92 C
660 27-07-2019 06:55:00 20.9 C 89 % 19.02 C
661 27-07-2019 07:00:00 20.9 C 89 % 19.02 C
662 27-07-2019 07:05:00 21 C 89 % 19.12 C
663 27-07-2019 07:10:00 20.9 C 88 % 18.84 C
664 27-07-2019 07:15:00 21 C 89 % 19.12 C
665 27-07-2019 07:20:00 21.1 C 88 % 19.03 C
666 27-07-2019 07:25:00 21.2 C 88 % 19.13 C
667 27-07-2019 07:30:00 21.3 C 89 % 19.41 C
668 27-07-2019 07:35:00 21.4 C 89 % 19.51 C
669 27-07-2019 07:40:00 21.4 C 88 % 19.33 C
670 27-07-2019 07:45:00 21.5 C 88 % 19.43 C
671 27-07-2019 07:50:00 21.6 C 87 % 19.34 C
672 27-07-2019 07:55:00 21.7 C 86 % 19.25 C
673 27-07-2019 08:00:00 21.8 C 86 % 19.35 C
674 27-07-2019 08:05:00 21.9 C 86 % 19.45 C
675 27-07-2019 08:10:00 22.1 C 86 % 19.65 C
Sensor: Nr:Datum:Temp:Feuchte:Taupunkt:
Aussen-T/F 676 27-07-2019 08:15:00 22.1 C 84 % 19.27 C
677 27-07-2019 08:20:00 22.2 C 83 % 19.17 C
678 27-07-2019 08:25:00 22.3 C 82 % 19.08 C
679 27-07-2019 08:30:00 22.5 C 81 % 19.08 C
680 27-07-2019 08:35:00 22.8 C 80 % 19.17 C
681 27-07-2019 08:40:00 23 C 78 % 18.96 C
682 27-07-2019 08:45:00 23.2 C 78 % 19.15 C
683 27-07-2019 08:50:00 23.4 C 77 % 19.14 C
684 27-07-2019 08:55:00 23.6 C 76 % 19.12 C
685 27-07-2019 09:00:00 23.8 C 76 % 19.31 C
686 27-07-2019 09:05:00 24.1 C 76 % 19.6 C
687 27-07-2019 09:10:00 24.3 C 76 % 19.8 C
688 27-07-2019 09:15:00 24.4 C 74 % 19.46 C
689 27-07-2019 09:20:00 24.6 C 73 % 19.44 C
690 27-07-2019 09:25:00 24.8 C 73 % 19.63 C
691 27-07-2019 09:30:00 24.9 C 73 % 19.72 C
692 27-07-2019 09:35:00 25.1 C 73 % 19.92 C
693 27-07-2019 09:40:00 25.1 C 72 % 19.69 C
694 27-07-2019 09:45:00 25.2 C 72 % 19.79 C
695 27-07-2019 09:50:00 25.2 C 72 % 19.79 C
696 27-07-2019 09:55:00 25.2 C 72 % 19.79 C
697 27-07-2019 10:00:00 25.2 C 72 % 19.79 C
698 27-07-2019 10:05:00 25.3 C 71 % 19.66 C
699 27-07-2019 10:10:00 25.3 C 71 % 19.66 C
700 27-07-2019 10:15:00 25.3 C 80 % 21.6 C
Sensor: Nr:Datum:Temp:Feuchte:Taupunkt:
Aussen-T/F 701 27-07-2019 10:20:00 25 C 82 % 21.71 C
702 27-07-2019 10:25:00 24.7 C 84 % 21.81 C
703 27-07-2019 10:30:00 24.4 C 85 % 21.71 C
704 27-07-2019 10:35:00 24.2 C 86 % 21.71 C
705 27-07-2019 10:40:00 24.1 C 87 % 21.8 C
706 27-07-2019 10:45:00 24.1 C 88 % 21.99 C
707 27-07-2019 10:50:00 24.1 C 87 % 21.8 C
708 27-07-2019 10:55:00 24 C 87 % 21.7 C
709 27-07-2019 11:00:00 24 C 88 % 21.89 C
710 27-07-2019 11:05:00 24.1 C 88 % 21.99 C
711 27-07-2019 11:10:00 24.1 C 88 % 21.99 C
712 27-07-2019 11:15:00 24.1 C 88 % 21.99 C
713 27-07-2019 11:20:00 24.2 C 88 % 22.08 C
714 27-07-2019 11:25:00 24.2 C 88 % 22.08 C
715 27-07-2019 11:30:00 24.2 C 87 % 21.9 C
716 27-07-2019 11:35:00 24 C 85 % 21.32 C
717 27-07-2019 11:40:00 23.9 C 85 % 21.22 C
718 27-07-2019 11:45:00 23.7 C 85 % 21.03 C
719 27-07-2019 11:50:00 23.5 C 84 % 20.64 C
720 27-07-2019 11:55:00 23.3 C 85 % 20.63 C
721 27-07-2019 12:00:00 23.2 C 85 % 20.54 C
722 27-07-2019 12:05:00 23.2 C 87 % 20.91 C
723 27-07-2019 12:10:00 23.2 C 88 % 21.1 C
724 27-07-2019 12:15:00 23.2 C 88 % 21.1 C
725 27-07-2019 12:20:00 23.2 C 86 % 20.73 C
Sensor: Nr:Datum:Temp:Feuchte:Taupunkt:
Aussen-T/F 726 27-07-2019 12:25:00 23.3 C 85 % 20.63 C
727 27-07-2019 12:30:00 23.5 C 84 % 20.64 C
728 27-07-2019 12:35:00 23.8 C 81 % 20.34 C
729 27-07-2019 12:40:00 24.1 C 80 % 20.43 C
730 27-07-2019 12:45:00 24.4 C 82 % 21.12 C
731 27-07-2019 12:50:00 24.8 C 78 % 20.7 C
732 27-07-2019 12:55:00 25.1 C 78 % 20.99 C
733 27-07-2019 13:00:00 25.3 C 75 % 20.55 C
734 27-07-2019 13:05:00 25.5 C 76 % 20.95 C
735 27-07-2019 13:10:00 25.7 C 74 % 20.71 C
736 27-07-2019 13:15:00 26 C 75 % 21.22 C
737 27-07-2019 13:20:00 26.2 C 74 % 21.2 C
738 27-07-2019 13:25:00 26.2 C 74 % 21.2 C
739 27-07-2019 13:30:00 26.1 C 75 % 21.32 C
740 27-07-2019 13:35:00 26.2 C 75 % 21.41 C
741 27-07-2019 13:40:00 26.2 C 74 % 21.2 C
742 27-07-2019 13:45:00 26.2 C 72 % 20.75 C
743 27-07-2019 13:50:00 26.2 C 70 % 20.29 C
744 27-07-2019 13:55:00 26.2 C 72 % 20.75 C
745 27-07-2019 14:00:00 26.2 C 69 % 20.06 C
746 27-07-2019 14:05:00 26.1 C 70 % 20.2 C
747 27-07-2019 14:10:00 25.9 C 70 % 20.01 C
748 27-07-2019 14:15:00 25.9 C 68 % 19.54 C
749 27-07-2019 14:20:00 25.8 C 70 % 19.91 C
750 27-07-2019 14:25:00 25.7 C 69 % 19.58 C
Sensor: Nr:Datum:Temp:Feuchte:Taupunkt:
Aussen-T/F 751 27-07-2019 14:30:00 25.6 C 71 % 19.95 C
752 27-07-2019 14:35:00 25.5 C 71 % 19.85 C
753 27-07-2019 14:40:00 25.5 C 73 % 20.3 C
754 27-07-2019 14:45:00 25.5 C 73 % 20.3 C
755 27-07-2019 14:50:00 25.5 C 75 % 20.74 C
756 27-07-2019 14:55:00 25.5 C 74 % 20.52 C
757 27-07-2019 15:00:00 25.3 C 74 % 20.33 C
758 27-07-2019 15:05:00 25.1 C 74 % 20.14 C
759 27-07-2019 15:10:00 24.8 C 74 % 19.85 C
760 27-07-2019 15:15:00 24.7 C 75 % 19.97 C
761 27-07-2019 15:20:00 24.7 C 75 % 19.97 C
762 27-07-2019 15:25:00 24.8 C 75 % 20.06 C
763 27-07-2019 15:30:00 24.8 C 74 % 19.85 C
764 27-07-2019 15:35:00 25 C 74 % 20.04 C
765 27-07-2019 15:40:00 25.1 C 74 % 20.14 C
766 27-07-2019 15:45:00 25.2 C 73 % 20.01 C
767 27-07-2019 15:50:00 25.4 C 73 % 20.21 C
768 27-07-2019 15:55:00 25.6 C 74 % 20.62 C
769 27-07-2019 16:00:00 25.8 C 72 % 20.37 C
770 27-07-2019 16:05:00 26.1 C 70 % 20.2 C
771 27-07-2019 16:10:00 26.2 C 68 % 19.82 C
772 27-07-2019 16:15:00 26.2 C 67 % 19.59 C
773 27-07-2019 16:20:00 26.2 C 68 % 19.82 C
774 27-07-2019 16:25:00 26.3 C 68 % 19.92 C
775 27-07-2019 16:30:00 26.3 C 67 % 19.68 C
Sensor: Nr:Datum:Temp:Feuchte:Taupunkt:
Aussen-T/F 776 27-07-2019 16:35:00 26.2 C 67 % 19.59 C
777 27-07-2019 16:40:00 25.9 C 68 % 19.54 C
778 27-07-2019 16:45:00 25.7 C 67 % 19.11 C
779 27-07-2019 16:50:00 25.5 C 69 % 19.39 C
780 27-07-2019 16:55:00 25.2 C 71 % 19.56 C
781 27-07-2019 17:00:00 24.9 C 73 % 19.72 C
782 27-07-2019 17:05:00 24.6 C 74 % 19.66 C
783 27-07-2019 17:10:00 24.5 C 76 % 19.99 C
784 27-07-2019 17:15:00 24.5 C 77 % 20.2 C
785 27-07-2019 17:20:00 24.5 C 77 % 20.2 C
786 27-07-2019 17:25:00 24.5 C 77 % 20.2 C
787 27-07-2019 17:30:00 24.4 C 76 % 19.89 C
788 27-07-2019 17:35:00 24.4 C 76 % 19.89 C
789 27-07-2019 17:40:00 24.4 C 77 % 20.1 C
790 27-07-2019 17:45:00 24.4 C 76 % 19.89 C
791 27-07-2019 17:50:00 24.4 C 76 % 19.89 C
792 27-07-2019 17:55:00 24.4 C 76 % 19.89 C
793 27-07-2019 18:00:00 24.4 C 77 % 20.1 C
794 27-07-2019 18:05:00 24.4 C 77 % 20.1 C
795 27-07-2019 18:10:00 24.4 C 76 % 19.89 C
796 27-07-2019 18:15:00 24.6 C 77 % 20.3 C
797 27-07-2019 18:20:00 24.8 C 76 % 20.28 C
798 27-07-2019 18:25:00 25.1 C 75 % 20.35 C
799 27-07-2019 18:30:00 25.4 C 75 % 20.64 C
800 27-07-2019 18:35:00 25.3 C 75 % 20.55 C
Sensor: Nr:Datum:Temp:Feuchte:Taupunkt:
Aussen-T/F 801 27-07-2019 18:40:00 25.3 C 75 % 20.55 C
802 27-07-2019 18:45:00 25.2 C 75 % 20.45 C
803 27-07-2019 18:50:00 25.1 C 75 % 20.35 C
804 27-07-2019 18:55:00 24.9 C 76 % 20.38 C
805 27-07-2019 19:00:00 24.7 C 77 % 20.39 C
806 27-07-2019 19:05:00 24.5 C 77 % 20.2 C
807 27-07-2019 19:10:00 24.3 C 76 % 19.8 C
808 27-07-2019 19:15:00 24.1 C 77 % 19.81 C
809 27-07-2019 19:20:00 23.9 C 79 % 20.03 C
810 27-07-2019 19:25:00 23.8 C 81 % 20.34 C
811 27-07-2019 19:30:00 23.7 C 82 % 20.44 C
812 27-07-2019 19:35:00 23.6 C 83 % 20.54 C
813 27-07-2019 19:40:00 23.4 C 84 % 20.54 C
814 27-07-2019 19:45:00 23.4 C 84 % 20.54 C
815 27-07-2019 19:50:00 23.4 C 85 % 20.73 C
816 27-07-2019 19:55:00 23.3 C 84 % 20.44 C
817 27-07-2019 20:00:00 23.2 C 84 % 20.34 C
818 27-07-2019 20:05:00 23.1 C 85 % 20.44 C
819 27-07-2019 20:10:00 23.1 C 85 % 20.44 C
820 27-07-2019 20:15:00 23 C 85 % 20.34 C
821 27-07-2019 20:20:00 23 C 85 % 20.34 C
822 27-07-2019 20:25:00 22.9 C 85 % 20.24 C
823 27-07-2019 20:30:00 22.8 C 85 % 20.14 C
824 27-07-2019 20:35:00 22.8 C 85 % 20.14 C
825 27-07-2019 20:40:00 22.8 C 85 % 20.14 C
Sensor: Nr:Datum:Temp:Feuchte:Taupunkt:
Aussen-T/F 826 27-07-2019 20:45:00 22.7 C 85 % 20.05 C
827 27-07-2019 20:50:00 22.6 C 85 % 19.95 C
828 27-07-2019 20:55:00 22.6 C 85 % 19.95 C
829 27-07-2019 21:00:00 22.4 C 85 % 19.75 C
830 27-07-2019 21:05:00 22.4 C 85 % 19.75 C
831 27-07-2019 21:10:00 22.3 C 85 % 19.65 C
832 27-07-2019 21:15:00 22.3 C 85 % 19.65 C
833 27-07-2019 21:20:00 22.2 C 86 % 19.75 C
834 27-07-2019 21:25:00 22.1 C 86 % 19.65 C
835 27-07-2019 21:30:00 22.1 C 86 % 19.65 C
836 27-07-2019 21:35:00 21.9 C 86 % 19.45 C
837 27-07-2019 21:40:00 21.9 C 86 % 19.45 C
838 27-07-2019 21:45:00 21.8 C 86 % 19.35 C
839 27-07-2019 21:50:00 21.8 C 86 % 19.35 C
840 27-07-2019 21:55:00 21.7 C 86 % 19.25 C
841 27-07-2019 22:00:00 21.7 C 86 % 19.25 C
842 27-07-2019 22:05:00 21.6 C 87 % 19.34 C
843 27-07-2019 22:10:00 21.6 C 87 % 19.34 C
844 27-07-2019 22:15:00 21.6 C 87 % 19.34 C
845 27-07-2019 22:20:00 21.5 C 87 % 19.24 C
846 27-07-2019 22:25:00 21.4 C 87 % 19.15 C
847 27-07-2019 22:30:00 21.4 C 87 % 19.15 C
848 27-07-2019 22:35:00 21.4 C 87 % 19.15 C
849 27-07-2019 22:40:00 21.3 C 87 % 19.05 C
850 27-07-2019 22:45:00 21.3 C 88 % 19.23 C
Sensor: Nr:Datum:Temp:Feuchte:Taupunkt:
Aussen-T/F 851 27-07-2019 22:50:00 21.3 C 88 % 19.23 C
852 27-07-2019 22:55:00 21.3 C 88 % 19.23 C
853 27-07-2019 23:00:00 21.3 C 88 % 19.23 C
854 27-07-2019 23:05:00 21.2 C 88 % 19.13 C
855 27-07-2019 23:10:00 21.2 C 88 % 19.13 C
856 27-07-2019 23:15:00 21.2 C 89 % 19.31 C
857 27-07-2019 23:20:00 21.2 C 89 % 19.31 C
858 27-07-2019 23:25:00 21.2 C 89 % 19.31 C
859 27-07-2019 23:30:00 21.1 C 89 % 19.22 C
860 27-07-2019 23:35:00 21.1 C 89 % 19.22 C
861 27-07-2019 23:40:00 21.1 C 89 % 19.22 C
862 27-07-2019 23:45:00 21.1 C 89 % 19.22 C
863 27-07-2019 23:50:00 21 C 89 % 19.12 C
864 27-07-2019 23:55:00 21 C 89 % 19.12 C
865 28-07-2019 00:00:00 20.9 C 89 % 19.02 C
866 28-07-2019 00:05:00 20.9 C 90 % 19.2 C
867 28-07-2019 00:10:00 20.9 C 90 % 19.2 C
868 28-07-2019 00:15:00 20.9 C 90 % 19.2 C
869 28-07-2019 00:20:00 20.8 C 90 % 19.1 C
870 28-07-2019 00:25:00 20.8 C 90 % 19.1 C
871 28-07-2019 00:30:00 20.8 C 90 % 19.1 C
872 28-07-2019 00:35:00 20.8 C 90 % 19.1 C
873 28-07-2019 00:40:00 20.8 C 90 % 19.1 C
874 28-07-2019 00:45:00 20.8 C 90 % 19.1 C
875 28-07-2019 00:50:00 20.8 C 90 % 19.1 C
Sensor: Nr:Datum:Temp:Feuchte:Taupunkt:
Aussen-T/F 876 28-07-2019 00:55:00 20.8 C 90 % 19.1 C
877 28-07-2019 01:00:00 20.8 C 90 % 19.1 C
878 28-07-2019 01:05:00 20.7 C 90 % 19 C
879 28-07-2019 01:10:00 20.7 C 90 % 19 C
880 28-07-2019 01:15:00 20.7 C 90 % 19 C
881 28-07-2019 01:20:00 20.7 C 90 % 19 C
882 28-07-2019 01:25:00 20.7 C 90 % 19 C
883 28-07-2019 01:30:00 20.7 C 90 % 19 C
884 28-07-2019 01:35:00 20.7 C 90 % 19 C
885 28-07-2019 01:40:00 20.7 C 90 % 19 C
886 28-07-2019 01:45:00 20.7 C 90 % 19 C
887 28-07-2019 01:50:00 20.7 C 90 % 19 C
888 28-07-2019 01:55:00 20.7 C 90 % 19 C
889 28-07-2019 02:00:00 20.7 C 90 % 19 C
890 28-07-2019 02:05:00 20.7 C 90 % 19 C
891 28-07-2019 02:10:00 20.7 C 90 % 19 C
892 28-07-2019 02:15:00 20.7 C 90 % 19 C
893 28-07-2019 02:20:00 20.7 C 90 % 19 C
894 28-07-2019 02:25:00 20.7 C 90 % 19 C
895 28-07-2019 02:30:00 20.7 C 90 % 19 C
896 28-07-2019 02:35:00 20.7 C 90 % 19 C
897 28-07-2019 02:40:00 20.7 C 90 % 19 C
898 28-07-2019 02:45:00 20.7 C 90 % 19 C
899 28-07-2019 02:50:00 20.7 C 90 % 19 C
900 28-07-2019 02:55:00 20.7 C 90 % 19 C
Sensor: Nr:Datum:Temp:Feuchte:Taupunkt:
Aussen-T/F 901 28-07-2019 03:00:00 20.7 C 90 % 19 C
902 28-07-2019 03:05:00 20.7 C 90 % 19 C
903 28-07-2019 03:10:00 20.7 C 90 % 19 C
904 28-07-2019 03:15:00 20.7 C 90 % 19 C
905 28-07-2019 03:20:00 20.7 C 90 % 19 C
906 28-07-2019 03:25:00 20.7 C 90 % 19 C
907 28-07-2019 03:30:00 20.7 C 90 % 19 C
908 28-07-2019 03:35:00 20.7 C 90 % 19 C
909 28-07-2019 03:40:00 20.7 C 90 % 19 C
910 28-07-2019 03:45:00 20.7 C 90 % 19 C
911 28-07-2019 03:50:00 20.6 C 90 % 18.9 C
912 28-07-2019 03:55:00 20.6 C 90 % 18.9 C
913 28-07-2019 04:00:00 20.7 C 90 % 19 C
914 28-07-2019 04:05:00 20.6 C 90 % 18.9 C
915 28-07-2019 04:10:00 20.6 C 91 % 19.08 C
916 28-07-2019 04:15:00 20.6 C 91 % 19.08 C
917 28-07-2019 04:20:00 20.6 C 91 % 19.08 C
918 28-07-2019 04:25:00 20.6 C 91 % 19.08 C
919 28-07-2019 04:30:00 20.6 C 91 % 19.08 C
920 28-07-2019 04:35:00 20.6 C 91 % 19.08 C
921 28-07-2019 04:40:00 20.6 C 91 % 19.08 C
922 28-07-2019 04:45:00 20.6 C 91 % 19.08 C
923 28-07-2019 04:50:00 20.6 C 91 % 19.08 C
924 28-07-2019 04:55:00 20.6 C 91 % 19.08 C
925 28-07-2019 05:00:00 20.6 C 91 % 19.08 C
Sensor: Nr:Datum:Temp:Feuchte:Taupunkt:
Aussen-T/F 926 28-07-2019 05:05:00 20.6 C 91 % 19.08 C
927 28-07-2019 05:10:00 20.6 C 91 % 19.08 C
928 28-07-2019 05:15:00 20.6 C 91 % 19.08 C
929 28-07-2019 05:20:00 20.6 C 91 % 19.08 C
930 28-07-2019 05:25:00 20.6 C 91 % 19.08 C
931 28-07-2019 05:30:00 20.5 C 91 % 18.98 C
932 28-07-2019 05:35:00 20.5 C 91 % 18.98 C
933 28-07-2019 05:40:00 20.5 C 91 % 18.98 C
934 28-07-2019 05:45:00 20.5 C 91 % 18.98 C
935 28-07-2019 05:50:00 20.5 C 91 % 18.98 C
936 28-07-2019 05:55:00 20.5 C 91 % 18.98 C
937 28-07-2019 06:00:00 20.5 C 91 % 18.98 C
938 28-07-2019 06:05:00 20.5 C 91 % 18.98 C
939 28-07-2019 06:10:00 20.5 C 91 % 18.98 C
940 28-07-2019 06:15:00 20.5 C 91 % 18.98 C
941 28-07-2019 06:20:00 20.5 C 91 % 18.98 C
942 28-07-2019 06:25:00 20.5 C 91 % 18.98 C
943 28-07-2019 06:30:00 20.5 C 91 % 18.98 C
944 28-07-2019 06:35:00 20.6 C 91 % 19.08 C
945 28-07-2019 06:40:00 20.6 C 91 % 19.08 C
946 28-07-2019 06:45:00 20.6 C 91 % 19.08 C
947 28-07-2019 06:50:00 20.6 C 91 % 19.08 C
948 28-07-2019 06:55:00 20.6 C 91 % 19.08 C
949 28-07-2019 07:00:00 20.6 C 91 % 19.08 C
950 28-07-2019 07:05:00 20.7 C 91 % 19.18 C
Sensor: Nr:Datum:Temp:Feuchte:Taupunkt:
Aussen-T/F 951 28-07-2019 07:10:00 20.7 C 91 % 19.18 C
952 28-07-2019 07:15:00 20.7 C 90 % 19 C
953 28-07-2019 07:20:00 20.7 C 90 % 19 C
954 28-07-2019 07:25:00 20.7 C 90 % 19 C
955 28-07-2019 07:30:00 20.7 C 90 % 19 C
956 28-07-2019 07:35:00 20.7 C 90 % 19 C
957 28-07-2019 07:40:00 20.7 C 90 % 19 C
958 28-07-2019 07:45:00 20.7 C 89 % 18.82 C
959 28-07-2019 07:50:00 20.7 C 89 % 18.82 C
960 28-07-2019 07:55:00 20.7 C 89 % 18.82 C
961 28-07-2019 08:00:00 20.7 C 89 % 18.82 C
962 28-07-2019 08:05:00 20.7 C 89 % 18.82 C
963 28-07-2019 08:10:00 20.8 C 89 % 18.92 C
964 28-07-2019 08:15:00 20.8 C 89 % 18.92 C
965 28-07-2019 08:20:00 20.7 C 89 % 18.82 C
966 28-07-2019 08:25:00 20.7 C 89 % 18.82 C
967 28-07-2019 08:30:00 20.7 C 89 % 18.82 C
968 28-07-2019 08:35:00 20.7 C 89 % 18.82 C
969 28-07-2019 08:40:00 20.7 C 89 % 18.82 C
970 28-07-2019 08:45:00 20.7 C 89 % 18.82 C
971 28-07-2019 08:50:00 20.7 C 89 % 18.82 C
972 28-07-2019 08:55:00 20.7 C 90 % 19 C
973 28-07-2019 09:00:00 20.6 C 90 % 18.9 C
974 28-07-2019 09:05:00 20.6 C 90 % 18.9 C
975 28-07-2019 09:10:00 20.6 C 90 % 18.9 C
Sensor: Nr:Datum:Temp:Feuchte:Taupunkt:
Aussen-T/F 976 28-07-2019 09:15:00 20.6 C 90 % 18.9 C
977 28-07-2019 09:20:00 20.5 C 90 % 18.8 C
978 28-07-2019 09:25:00 20.4 C 90 % 18.7 C
979 28-07-2019 09:30:00 20.4 C 90 % 18.7 C
980 28-07-2019 09:35:00 20.3 C 90 % 18.61 C
981 28-07-2019 09:40:00 20.3 C 91 % 18.78 C
982 28-07-2019 09:45:00 20.3 C 91 % 18.78 C
983 28-07-2019 09:50:00 20.3 C 91 % 18.78 C
984 28-07-2019 09:55:00 20.2 C 91 % 18.68 C
985 28-07-2019 10:00:00 20.2 C 91 % 18.68 C
986 28-07-2019 10:05:00 20.2 C 91 % 18.68 C
987 28-07-2019 10:10:00 20.2 C 91 % 18.68 C
988 28-07-2019 10:15:00 20.2 C 91 % 18.68 C
989 28-07-2019 10:20:00 20.1 C 91 % 18.58 C
990 28-07-2019 10:25:00 20.1 C 92 % 18.76 C
991 28-07-2019 10:30:00 19.9 C 92 % 18.56 C
992 28-07-2019 10:35:00 19.9 C 92 % 18.56 C
993 28-07-2019 10:40:00 19.9 C 92 % 18.56 C
994 28-07-2019 10:45:00 19.9 C 93 % 18.73 C
995 28-07-2019 10:50:00 19.8 C 93 % 18.63 C
996 28-07-2019 10:55:00 19.9 C 93 % 18.73 C
997 28-07-2019 11:00:00 19.8 C 93 % 18.63 C
998 28-07-2019 11:05:00 19.8 C 93 % 18.63 C
999 28-07-2019 11:10:00 19.8 C 93 % 18.63 C
1000 28-07-2019 11:15:00 19.8 C 93 % 18.63 C
Sensor: Nr:Datum:Temp:Feuchte:Taupunkt:
Aussen-T/F 1001 28-07-2019 11:20:00 19.9 C 93 % 18.73 C
1002 28-07-2019 11:25:00 19.9 C 93 % 18.73 C
1003 28-07-2019 11:30:00 20.1 C 92 % 18.76 C
1004 28-07-2019 11:35:00 20.2 C 92 % 18.86 C
1005 28-07-2019 11:40:00 20.3 C 91 % 18.78 C
1006 28-07-2019 11:45:00 20.4 C 90 % 18.7 C
1007 28-07-2019 11:50:00 20.4 C 90 % 18.7 C
1008 28-07-2019 11:55:00 20.6 C 89 % 18.72 C
1009 28-07-2019 12:00:00 20.6 C 89 % 18.72 C
1010 28-07-2019 12:05:00 20.5 C 89 % 18.62 C
1011 28-07-2019 12:10:00 20.5 C 89 % 18.62 C
1012 28-07-2019 12:15:00 20.5 C 88 % 18.44 C
1013 28-07-2019 12:20:00 20.5 C 88 % 18.44 C
1014 28-07-2019 12:25:00 20.5 C 88 % 18.44 C
1015 28-07-2019 12:30:00 20.4 C 87 % 18.16 C
1016 28-07-2019 12:35:00 20.5 C 87 % 18.26 C
1017 28-07-2019 12:40:00 20.6 C 88 % 18.54 C
1018 28-07-2019 12:45:00 20.5 C 87 % 18.26 C
1019 28-07-2019 12:50:00 20.5 C 87 % 18.26 C
1020 28-07-2019 12:55:00 20.5 C 87 % 18.26 C
1021 28-07-2019 13:00:00 20.5 C 87 % 18.26 C
1022 28-07-2019 13:05:00 20.6 C 87 % 18.36 C
1023 28-07-2019 13:10:00 20.5 C 86 % 18.08 C
1024 28-07-2019 13:15:00 20.5 C 86 % 18.08 C
1025 28-07-2019 13:20:00 20.4 C 86 % 17.98 C
Sensor: Nr:Datum:Temp:Feuchte:Taupunkt:
Aussen-T/F 1026 28-07-2019 13:25:00 20.4 C 87 % 18.16 C
1027 28-07-2019 13:30:00 20.4 C 87 % 18.16 C
1028 28-07-2019 13:35:00 20.3 C 87 % 18.06 C
1029 28-07-2019 13:40:00 20.2 C 88 % 18.15 C
1030 28-07-2019 13:45:00 20.1 C 89 % 18.23 C
1031 28-07-2019 13:50:00 19.9 C 89 % 18.03 C
1032 28-07-2019 13:55:00 19.9 C 89 % 18.03 C
1033 28-07-2019 14:00:00 19.9 C 89 % 18.03 C
1034 28-07-2019 14:05:00 19.9 C 89 % 18.03 C
1035 28-07-2019 14:10:00 19.9 C 90 % 18.21 C
1036 28-07-2019 14:15:00 19.9 C 90 % 18.21 C
1037 28-07-2019 14:20:00 19.9 C 90 % 18.21 C
1038 28-07-2019 14:25:00 20 C 89 % 18.13 C
1039 28-07-2019 14:30:00 20.1 C 89 % 18.23 C
1040 28-07-2019 14:35:00 20.1 C 89 % 18.23 C
1041 28-07-2019 14:40:00 20.1 C 89 % 18.23 C
1042 28-07-2019 14:45:00 20.1 C 89 % 18.23 C
1043 28-07-2019 14:50:00 20 C 89 % 18.13 C
1044 28-07-2019 14:55:00 19.9 C 89 % 18.03 C
1045 28-07-2019 15:00:00 20 C 89 % 18.13 C
1046 28-07-2019 15:05:00 19.9 C 89 % 18.03 C
1047 28-07-2019 15:10:00 19.9 C 88 % 17.85 C
1048 28-07-2019 15:15:00 19.9 C 88 % 17.85 C
1049 28-07-2019 15:20:00 19.9 C 89 % 18.03 C
1050 28-07-2019 15:25:00 19.9 C 88 % 17.85 C
Sensor: Nr:Datum:Temp:Feuchte:Taupunkt:
Aussen-T/F 1051 28-07-2019 15:30:00 19.9 C 88 % 17.85 C
1052 28-07-2019 15:35:00 19.9 C 88 % 17.85 C
1053 28-07-2019 15:40:00 19.9 C 88 % 17.85 C
1054 28-07-2019 15:45:00 19.9 C 88 % 17.85 C
1055 28-07-2019 15:50:00 19.9 C 88 % 17.85 C
1056 28-07-2019 15:55:00 19.9 C 87 % 17.67 C
1057 28-07-2019 16:00:00 19.9 C 88 % 17.85 C
1058 28-07-2019 16:05:00 19.9 C 87 % 17.67 C
1059 28-07-2019 16:10:00 19.9 C 87 % 17.67 C
1060 28-07-2019 16:15:00 19.9 C 87 % 17.67 C
1061 28-07-2019 16:20:00 19.8 C 87 % 17.57 C
1062 28-07-2019 16:25:00 19.8 C 88 % 17.75 C
1063 28-07-2019 16:30:00 19.8 C 88 % 17.75 C
1064 28-07-2019 16:35:00 19.8 C 88 % 17.75 C
1065 28-07-2019 16:40:00 19.8 C 88 % 17.75 C
1066 28-07-2019 16:45:00 19.7 C 88 % 17.66 C
1067 28-07-2019 16:50:00 19.7 C 88 % 17.66 C
1068 28-07-2019 16:55:00 19.8 C 88 % 17.75 C
1069 28-07-2019 17:00:00 19.7 C 88 % 17.66 C
1070 28-07-2019 17:05:00 19.8 C 89 % 17.93 C
1071 28-07-2019 17:10:00 19.7 C 89 % 17.84 C
1072 28-07-2019 17:15:00 19.6 C 89 % 17.74 C
1073 28-07-2019 17:20:00 19.4 C 89 % 17.54 C
1074 28-07-2019 17:25:00 19.4 C 90 % 17.72 C
1075 28-07-2019 17:30:00 19.4 C 90 % 17.72 C
Sensor: Nr:Datum:Temp:Feuchte:Taupunkt:
Aussen-T/F 1076 28-07-2019 17:35:00 19.3 C 90 % 17.62 C
1077 28-07-2019 17:40:00 19.3 C 90 % 17.62 C
1078 28-07-2019 17:45:00 19.3 C 91 % 17.79 C
1079 28-07-2019 17:50:00 19.3 C 91 % 17.79 C
1080 28-07-2019 17:55:00 19.3 C 92 % 17.97 C
1081 28-07-2019 18:00:00 19.2 C 91 % 17.69 C
1082 28-07-2019 18:05:00 19.2 C 91 % 17.69 C
1083 28-07-2019 18:10:00 19.2 C 91 % 17.69 C
1084 28-07-2019 18:15:00 19.3 C 91 % 17.79 C
1085 28-07-2019 18:20:00 19.2 C 90 % 17.52 C
1086 28-07-2019 18:25:00 19.2 C 90 % 17.52 C
1087 28-07-2019 18:30:00 19.2 C 90 % 17.52 C
1088 28-07-2019 18:35:00 19.2 C 90 % 17.52 C
1089 28-07-2019 18:40:00 19.1 C 90 % 17.42 C
1090 28-07-2019 18:45:00 19.1 C 90 % 17.42 C
1091 28-07-2019 18:50:00 19.1 C 90 % 17.42 C
1092 28-07-2019 18:55:00 19.1 C 91 % 17.6 C
1093 28-07-2019 19:00:00 19.1 C 91 % 17.6 C
1094 28-07-2019 19:05:00 19.1 C 91 % 17.6 C
1095 28-07-2019 19:10:00 19 C 91 % 17.5 C
1096 28-07-2019 19:15:00 18.9 C 91 % 17.4 C
1097 28-07-2019 19:20:00 18.9 C 91 % 17.4 C
1098 28-07-2019 19:25:00 18.9 C 92 % 17.57 C
1099 28-07-2019 19:30:00 18.9 C 92 % 17.57 C
1100 28-07-2019 19:35:00 18.8 C 92 % 17.47 C
Sensor: Nr:Datum:Temp:Feuchte:Taupunkt:
Aussen-T/F 1101 28-07-2019 19:40:00 18.8 C 92 % 17.47 C
1102 28-07-2019 19:45:00 18.7 C 92 % 17.37 C
1103 28-07-2019 19:50:00 18.7 C 92 % 17.37 C
1104 28-07-2019 19:55:00 18.7 C 92 % 17.37 C
1105 28-07-2019 20:00:00 18.7 C 92 % 17.37 C
1106 28-07-2019 20:05:00 18.7 C 92 % 17.37 C
1107 28-07-2019 20:10:00 18.6 C 92 % 17.27 C
1108 28-07-2019 20:15:00 18.6 C 93 % 17.45 C
1109 28-07-2019 20:20:00 18.6 C 93 % 17.45 C
1110 28-07-2019 20:25:00 18.6 C 93 % 17.45 C
1111 28-07-2019 20:30:00 18.5 C 93 % 17.35 C
1112 28-07-2019 20:35:00 18.4 C 93 % 17.25 C
1113 28-07-2019 20:40:00 18.4 C 93 % 17.25 C
1114 28-07-2019 20:45:00 18.3 C 93 % 17.15 C
1115 28-07-2019 20:50:00 18.3 C 93 % 17.15 C
1116 28-07-2019 20:55:00 18.3 C 93 % 17.15 C
1117 28-07-2019 21:00:00 18.2 C 93 % 17.05 C
1118 28-07-2019 21:05:00 18.2 C 93 % 17.05 C
1119 28-07-2019 21:10:00 18.2 C 94 % 17.22 C
1120 28-07-2019 21:15:00 18.2 C 94 % 17.22 C
1121 28-07-2019 21:20:00 18.2 C 94 % 17.22 C
1122 28-07-2019 21:25:00 18.2 C 94 % 17.22 C
1123 28-07-2019 21:30:00 18.2 C 94 % 17.22 C
1124 28-07-2019 21:35:00 18.2 C 94 % 17.22 C
1125 28-07-2019 21:40:00 18.2 C 94 % 17.22 C
Sensor: Nr:Datum:Temp:Feuchte:Taupunkt:
Aussen-T/F 1126 28-07-2019 21:45:00 18.1 C 94 % 17.12 C
1127 28-07-2019 21:50:00 18.1 C 94 % 17.12 C
1128 28-07-2019 21:55:00 18.1 C 94 % 17.12 C
1129 28-07-2019 22:00:00 18.1 C 94 % 17.12 C
1130 28-07-2019 22:05:00 18.1 C 94 % 17.12 C
1131 28-07-2019 22:10:00 18 C 94 % 17.02 C
1132 28-07-2019 22:15:00 17.9 C 95 % 17.09 C
1133 28-07-2019 22:20:00 17.9 C 95 % 17.09 C
1134 28-07-2019 22:25:00 17.9 C 95 % 17.09 C
1135 28-07-2019 22:30:00 17.9 C 95 % 17.09 C
1136 28-07-2019 22:35:00 17.9 C 95 % 17.09 C
1137 28-07-2019 22:40:00 17.8 C 95 % 16.99 C
1138 28-07-2019 22:45:00 17.8 C 95 % 16.99 C
1139 28-07-2019 22:50:00 17.8 C 95 % 16.99 C
1140 28-07-2019 22:55:00 17.8 C 95 % 16.99 C
1141 28-07-2019 23:00:00 17.7 C 95 % 16.89 C
1142 28-07-2019 23:05:00 17.7 C 95 % 16.89 C
1143 28-07-2019 23:10:00 17.7 C 95 % 16.89 C
1144 28-07-2019 23:15:00 17.7 C 95 % 16.89 C
1145 28-07-2019 23:20:00 17.7 C 95 % 16.89 C
1146 28-07-2019 23:25:00 17.6 C 95 % 16.79 C
1147 28-07-2019 23:30:00 17.6 C 95 % 16.79 C
1148 28-07-2019 23:35:00 17.6 C 95 % 16.79 C
1149 28-07-2019 23:40:00 17.5 C 95 % 16.69 C
1150 28-07-2019 23:45:00 17.5 C 95 % 16.69 C
Sensor: Nr:Datum:Temp:Feuchte:Taupunkt:
Aussen-T/F 1151 28-07-2019 23:50:00 17.4 C 95 % 16.59 C
1152 28-07-2019 23:55:00 17.5 C 95 % 16.69 C
1153 29-07-2019 00:00:00 17.4 C 95 % 16.59 C
1154 29-07-2019 00:05:00 17.4 C 95 % 16.59 C
1155 29-07-2019 00:10:00 17.4 C 95 % 16.59 C
1156 29-07-2019 00:15:00 17.4 C 95 % 16.59 C
1157 29-07-2019 00:20:00 17.4 C 95 % 16.59 C
1158 29-07-2019 00:25:00 17.4 C 95 % 16.59 C
1159 29-07-2019 00:30:00 17.3 C 95 % 16.49 C
1160 29-07-2019 00:35:00 17.3 C 95 % 16.49 C
1161 29-07-2019 00:40:00 17.3 C 95 % 16.49 C
1162 29-07-2019 00:45:00 17.2 C 95 % 16.39 C
1163 29-07-2019 00:50:00 17.2 C 95 % 16.39 C
1164 29-07-2019 00:55:00 17.2 C 95 % 16.39 C
1165 29-07-2019 01:00:00 17.1 C 95 % 16.29 C
1166 29-07-2019 01:05:00 17.2 C 95 % 16.39 C
1167 29-07-2019 01:10:00 17.1 C 95 % 16.29 C
1168 29-07-2019 01:15:00 17.1 C 95 % 16.29 C
1169 29-07-2019 01:20:00 17.1 C 95 % 16.29 C
1170 29-07-2019 01:25:00 17.1 C 95 % 16.29 C
1171 29-07-2019 01:30:00 17.1 C 95 % 16.29 C
1172 29-07-2019 01:35:00 17.1 C 95 % 16.29 C
1173 29-07-2019 01:40:00 17.1 C 95 % 16.29 C
1174 29-07-2019 01:45:00 17.1 C 95 % 16.29 C
1175 29-07-2019 01:50:00 17.1 C 95 % 16.29 C
Sensor: Nr:Datum:Temp:Feuchte:Taupunkt:
Aussen-T/F 1176 29-07-2019 01:55:00 17.1 C 95 % 16.29 C
1177 29-07-2019 02:00:00 17.1 C 95 % 16.29 C
1178 29-07-2019 02:05:00 17 C 95 % 16.19 C
1179 29-07-2019 02:10:00 17 C 95 % 16.19 C
1180 29-07-2019 02:15:00 17 C 96 % 16.36 C
1181 29-07-2019 02:20:00 17 C 96 % 16.36 C
1182 29-07-2019 02:25:00 17 C 96 % 16.36 C
1183 29-07-2019 02:30:00 17 C 96 % 16.36 C
1184 29-07-2019 02:35:00 17 C 96 % 16.36 C
1185 29-07-2019 02:40:00 16.9 C 96 % 16.26 C
1186 29-07-2019 02:45:00 16.9 C 96 % 16.26 C
1187 29-07-2019 02:50:00 16.9 C 96 % 16.26 C
1188 29-07-2019 02:55:00 16.9 C 96 % 16.26 C
1189 29-07-2019 03:00:00 16.9 C 96 % 16.26 C
1190 29-07-2019 03:05:00 16.9 C 96 % 16.26 C
1191 29-07-2019 03:10:00 16.9 C 96 % 16.26 C
1192 29-07-2019 03:15:00 16.9 C 96 % 16.26 C
1193 29-07-2019 03:20:00 16.9 C 96 % 16.26 C
1194 29-07-2019 03:25:00 16.8 C 96 % 16.16 C
1195 29-07-2019 03:30:00 16.8 C 96 % 16.16 C
1196 29-07-2019 03:35:00 16.8 C 96 % 16.16 C
1197 29-07-2019 03:40:00 16.8 C 96 % 16.16 C
1198 29-07-2019 03:45:00 16.8 C 96 % 16.16 C
1199 29-07-2019 03:50:00 16.8 C 96 % 16.16 C
1200 29-07-2019 03:55:00 16.8 C 96 % 16.16 C
Sensor: Nr:Datum:Temp:Feuchte:Taupunkt:
Aussen-T/F 1201 29-07-2019 04:00:00 16.9 C 96 % 16.26 C
1202 29-07-2019 04:05:00 16.8 C 96 % 16.16 C
1203 29-07-2019 04:10:00 16.8 C 96 % 16.16 C
1204 29-07-2019 04:15:00 16.8 C 96 % 16.16 C
1205 29-07-2019 04:20:00 16.8 C 96 % 16.16 C
1206 29-07-2019 04:25:00 16.8 C 96 % 16.16 C
1207 29-07-2019 04:30:00 16.8 C 96 % 16.16 C
1208 29-07-2019 04:35:00 16.8 C 96 % 16.16 C
1209 29-07-2019 04:40:00 16.8 C 96 % 16.16 C
1210 29-07-2019 04:45:00 16.8 C 96 % 16.16 C
1211 29-07-2019 04:50:00 16.8 C 96 % 16.16 C
1212 29-07-2019 04:55:00 16.8 C 96 % 16.16 C
1213 29-07-2019 05:00:00 16.8 C 96 % 16.16 C
1214 29-07-2019 05:05:00 16.8 C 96 % 16.16 C
1215 29-07-2019 05:10:00 16.8 C 96 % 16.16 C
1216 29-07-2019 05:15:00 16.8 C 96 % 16.16 C
1217 29-07-2019 05:20:00 16.8 C 96 % 16.16 C
1218 29-07-2019 05:25:00 16.7 C 96 % 16.06 C
1219 29-07-2019 05:30:00 16.7 C 96 % 16.06 C
1220 29-07-2019 05:35:00 16.7 C 96 % 16.06 C
1221 29-07-2019 05:40:00 16.7 C 96 % 16.06 C
1222 29-07-2019 05:45:00 16.7 C 96 % 16.06 C
1223 29-07-2019 05:50:00 16.7 C 96 % 16.06 C
1224 29-07-2019 05:55:00 16.7 C 96 % 16.06 C
1225 29-07-2019 06:00:00 16.7 C 96 % 16.06 C
Sensor: Nr:Datum:Temp:Feuchte:Taupunkt:
Aussen-T/F 1226 29-07-2019 06:05:00 16.7 C 96 % 16.06 C
1227 29-07-2019 06:10:00 16.7 C 96 % 16.06 C
1228 29-07-2019 06:15:00 16.7 C 96 % 16.06 C
1229 29-07-2019 06:20:00 16.7 C 96 % 16.06 C
1230 29-07-2019 06:25:00 16.7 C 96 % 16.06 C
1231 29-07-2019 06:30:00 16.7 C 96 % 16.06 C
1232 29-07-2019 06:35:00 16.7 C 96 % 16.06 C
1233 29-07-2019 06:40:00 16.7 C 96 % 16.06 C
1234 29-07-2019 06:45:00 16.8 C 96 % 16.16 C
1235 29-07-2019 06:50:00 16.8 C 96 % 16.16 C
1236 29-07-2019 06:55:00 16.8 C 96 % 16.16 C
1237 29-07-2019 07:00:00 16.9 C 96 % 16.26 C
1238 29-07-2019 07:05:00 16.9 C 96 % 16.26 C
1239 29-07-2019 07:10:00 16.9 C 96 % 16.26 C
1240 29-07-2019 07:15:00 17 C 96 % 16.36 C
1241 29-07-2019 07:20:00 17.1 C 96 % 16.46 C
1242 29-07-2019 07:25:00 17.1 C 96 % 16.46 C
1243 29-07-2019 07:30:00 16.9 C 96 % 16.26 C
1244 29-07-2019 07:35:00 16.9 C 96 % 16.26 C
1245 29-07-2019 07:40:00 17 C 96 % 16.36 C
1246 29-07-2019 07:45:00 17 C 95 % 16.19 C
1247 29-07-2019 07:50:00 17.1 C 95 % 16.29 C
1248 29-07-2019 07:55:00 17.1 C 95 % 16.29 C
1249 29-07-2019 08:00:00 17.2 C 95 % 16.39 C
1250 29-07-2019 08:05:00 17.2 C 94 % 16.23 C
Sensor: Nr:Datum:Temp:Feuchte:Taupunkt:
Aussen-T/F 1251 29-07-2019 08:10:00 17.3 C 94 % 16.33 C
1252 29-07-2019 08:15:00 17.3 C 93 % 16.16 C
1253 29-07-2019 08:20:00 17.4 C 94 % 16.42 C
1254 29-07-2019 08:25:00 17.4 C 93 % 16.26 C
1255 29-07-2019 08:30:00 17.4 C 92 % 16.09 C
1256 29-07-2019 08:35:00 17.6 C 92 % 16.28 C
1257 29-07-2019 08:40:00 17.6 C 92 % 16.28 C
1258 29-07-2019 08:45:00 17.6 C 91 % 16.11 C
1259 29-07-2019 08:50:00 17.7 C 90 % 16.04 C
1260 29-07-2019 08:55:00 17.9 C 91 % 16.41 C
1261 29-07-2019 09:00:00 18 C 90 % 16.34 C
1262 29-07-2019 09:05:00 18.2 C 90 % 16.53 C
1263 29-07-2019 09:10:00 18.2 C 88 % 16.18 C
1264 29-07-2019 09:15:00 18.3 C 88 % 16.28 C
1265 29-07-2019 09:20:00 18.3 C 88 % 16.28 C
1266 29-07-2019 09:25:00 18.4 C 87 % 16.2 C
1267 29-07-2019 09:30:00 18.6 C 86 % 16.21 C
1268 29-07-2019 09:35:00 18.7 C 86 % 16.31 C
1269 29-07-2019 09:40:00 18.8 C 84 % 16.04 C
1270 29-07-2019 09:45:00 18.8 C 83 % 15.85 C
1271 29-07-2019 09:50:00 18.8 C 83 % 15.85 C
1272 29-07-2019 09:55:00 18.8 C 83 % 15.85 C
1273 29-07-2019 10:00:00 18.8 C 82 % 15.66 C
1274 29-07-2019 10:05:00 18.8 C 83 % 15.85 C
1275 29-07-2019 10:10:00 18.9 C 83 % 15.95 C
Sensor: Nr:Datum:Temp:Feuchte:Taupunkt:
Aussen-T/F 1276 29-07-2019 10:15:00 19.1 C 81 % 15.76 C
1277 29-07-2019 10:20:00 19.3 C 80 % 15.76 C
1278 29-07-2019 10:25:00 19.4 C 79 % 15.66 C
1279 29-07-2019 10:30:00 19.5 C 79 % 15.76 C
1280 29-07-2019 10:35:00 19.7 C 79 % 15.96 C
1281 29-07-2019 10:40:00 19.7 C 77 % 15.56 C
1282 29-07-2019 10:45:00 19.8 C 78 % 15.85 C
1283 29-07-2019 10:50:00 19.8 C 76 % 15.45 C
1284 29-07-2019 10:55:00 19.9 C 75 % 15.34 C
1285 29-07-2019 11:00:00 19.9 C 75 % 15.34 C
1286 29-07-2019 11:05:00 20 C 76 % 15.64 C
1287 29-07-2019 11:10:00 20 C 75 % 15.43 C
1288 29-07-2019 11:15:00 20.1 C 75 % 15.53 C
1289 29-07-2019 11:20:00 20.2 C 75 % 15.63 C
1290 29-07-2019 11:25:00 20.3 C 76 % 15.93 C
1291 29-07-2019 11:30:00 20.4 C 74 % 15.61 C
1292 29-07-2019 11:35:00 20.6 C 73 % 15.59 C
1293 29-07-2019 11:40:00 20.8 C 72 % 15.57 C
1294 29-07-2019 11:45:00 21 C 72 % 15.76 C
1295 29-07-2019 11:50:00 21.2 C 72 % 15.95 C
1296 29-07-2019 11:55:00 21.2 C 70 % 15.51 C
1297 29-07-2019 12:00:00 21.4 C 68 % 15.25 C
1298 29-07-2019 12:05:00 21.5 C 67 % 15.12 C
1299 29-07-2019 12:10:00 21.6 C 69 % 15.67 C
1300 29-07-2019 12:15:00 21.6 C 68 % 15.44 C
Sensor: Nr:Datum:Temp:Feuchte:Taupunkt:
Aussen-T/F 1301 29-07-2019 12:20:00 21.8 C 68 % 15.63 C
1302 29-07-2019 12:25:00 21.9 C 66 % 15.26 C
1303 29-07-2019 12:30:00 22.1 C 66 % 15.45 C
1304 29-07-2019 12:35:00 22.1 C 65 % 15.21 C
1305 29-07-2019 12:40:00 22.2 C 66 % 15.55 C
1306 29-07-2019 12:45:00 22.3 C 65 % 15.4 C
1307 29-07-2019 12:50:00 22.4 C 65 % 15.5 C
1308 29-07-2019 12:55:00 22.5 C 64 % 15.35 C
1309 29-07-2019 13:00:00 22.6 C 65 % 15.69 C
1310 29-07-2019 13:05:00 22.7 C 63 % 15.3 C
1311 29-07-2019 13:10:00 22.8 C 64 % 15.64 C
1312 29-07-2019 13:15:00 23 C 61 % 15.08 C
1313 29-07-2019 13:20:00 23.2 C 61 % 15.26 C
1314 29-07-2019 13:25:00 23.3 C 62 % 15.61 C
1315 29-07-2019 13:30:00 23.5 C 61 % 15.55 C
1316 29-07-2019 13:35:00 23.6 C 62 % 15.89 C
1317 29-07-2019 13:40:00 23.5 C 62 % 15.8 C
1318 29-07-2019 13:45:00 23.5 C 62 % 15.8 C
1319 29-07-2019 13:50:00 23.6 C 61 % 15.64 C
1320 29-07-2019 13:55:00 23.7 C 60 % 15.48 C
1321 29-07-2019 14:00:00 23.7 C 60 % 15.48 C
1322 29-07-2019 14:05:00 23.8 C 60 % 15.57 C
1323 29-07-2019 14:10:00 23.9 C 61 % 15.92 C
1324 29-07-2019 14:15:00 24.2 C 59 % 15.68 C
1325 29-07-2019 14:20:00 24.4 C 58 % 15.6 C
Sensor: Nr:Datum:Temp:Feuchte:Taupunkt:
Aussen-T/F 1326 29-07-2019 14:25:00 24.5 C 58 % 15.7 C
1327 29-07-2019 14:30:00 24.7 C 56 % 15.33 C
1328 29-07-2019 14:35:00 24.7 C 57 % 15.61 C
1329 29-07-2019 14:40:00 24.7 C 57 % 15.61 C
1330 29-07-2019 14:45:00 24.8 C 54 % 14.86 C
1331 29-07-2019 14:50:00 24.8 C 55 % 15.15 C
1332 29-07-2019 14:55:00 24.8 C 55 % 15.15 C
1333 29-07-2019 15:00:00 24.8 C 54 % 14.86 C
1334 29-07-2019 15:05:00 24.9 C 54 % 14.95 C
1335 29-07-2019 15:10:00 25.1 C 54 % 15.14 C
1336 29-07-2019 15:15:00 25.4 C 53 % 15.13 C
1337 29-07-2019 15:20:00 25.6 C 52 % 15.02 C
1338 29-07-2019 15:25:00 25.7 C 51 % 14.81 C
1339 29-07-2019 15:30:00 25.9 C 51 % 14.99 C
1340 29-07-2019 15:35:00 26.1 C 51 % 15.17 C
1341 29-07-2019 15:40:00 26.1 C 50 % 14.87 C
1342 29-07-2019 15:45:00 26.4 C 50 % 15.14 C
1343 29-07-2019 15:50:00 26.8 C 49 % 15.19 C
1344 29-07-2019 15:55:00 27.2 C 48 % 15.24 C
1345 29-07-2019 16:00:00 27.3 C 47 % 15 C
1346 29-07-2019 16:05:00 27.4 C 47 % 15.09 C
1347 29-07-2019 16:10:00 27.6 C 46 % 14.94 C
1348 29-07-2019 16:15:00 27.3 C 47 % 15 C
1349 29-07-2019 16:20:00 27.2 C 47 % 14.91 C
1350 29-07-2019 16:25:00 27.2 C 46 % 14.58 C
Sensor: Nr:Datum:Temp:Feuchte:Taupunkt:
Aussen-T/F 1351 29-07-2019 16:30:00 27.3 C 47 % 15 C
1352 29-07-2019 16:35:00 27.7 C 45 % 14.69 C
1353 29-07-2019 16:40:00 27.9 C 45 % 14.87 C
1354 29-07-2019 16:45:00 28.2 C 44 % 14.79 C
1355 29-07-2019 16:50:00 28.2 C 44 % 14.79 C
1356 29-07-2019 16:55:00 27.9 C 44 % 14.52 C
1357 29-07-2019 17:00:00 27.9 C 45 % 14.87 C
1358 29-07-2019 17:05:00 28 C 45 % 14.96 C
1359 29-07-2019 17:10:00 28.3 C 44 % 14.88 C
1360 29-07-2019 17:15:00 28.4 C 43 % 14.62 C
1361 29-07-2019 17:20:00 28.3 C 42 % 14.16 C
1362 29-07-2019 17:25:00 28.4 C 43 % 14.62 C
1363 29-07-2019 17:30:00 28.4 C 42 % 14.25 C
1364 29-07-2019 17:35:00 28.4 C 43 % 14.62 C
1365 29-07-2019 17:40:00 28.6 C 43 % 14.8 C
1366 29-07-2019 17:45:00 28.3 C 43 % 14.53 C
1367 29-07-2019 17:50:00 28.1 C 43 % 14.35 C
1368 29-07-2019 17:55:00 27.7 C 43 % 13.99 C
1369 29-07-2019 18:00:00 27.4 C 44 % 14.07 C
1370 29-07-2019 18:05:00 27.2 C 44 % 13.89 C
1371 29-07-2019 18:10:00 27.1 C 45 % 14.15 C
1372 29-07-2019 18:15:00 27.3 C 45 % 14.33 C
1373 29-07-2019 18:20:00 27.4 C 44 % 14.07 C
1374 29-07-2019 18:25:00 27.4 C 44 % 14.07 C
1375 29-07-2019 18:30:00 27.4 C 44 % 14.07 C
Sensor: Nr:Datum:Temp:Feuchte:Taupunkt:
Aussen-T/F 1376 29-07-2019 18:35:00 27.7 C 44 % 14.34 C
1377 29-07-2019 18:40:00 28 C 43 % 14.26 C
1378 29-07-2019 18:45:00 28.3 C 42 % 14.16 C
1379 29-07-2019 18:50:00 28.6 C 42 % 14.43 C
1380 29-07-2019 18:55:00 28.7 C 41 % 14.15 C
1381 29-07-2019 19:00:00 28.8 C 41 % 14.24 C
1382 29-07-2019 19:05:00 28.9 C 42 % 14.7 C
1383 29-07-2019 19:10:00 28.9 C 41 % 14.33 C
1384 29-07-2019 19:15:00 28.8 C 41 % 14.24 C
1385 29-07-2019 19:20:00 28.6 C 42 % 14.43 C
1386 29-07-2019 19:25:00 28.1 C 43 % 14.35 C
1387 29-07-2019 19:30:00 27.9 C 44 % 14.52 C
1388 29-07-2019 19:35:00 27.7 C 44 % 14.34 C
1389 29-07-2019 19:40:00 27.6 C 45 % 14.6 C
1390 29-07-2019 19:45:00 27.4 C 46 % 14.76 C
1391 29-07-2019 19:50:00 27.3 C 45 % 14.33 C
1392 29-07-2019 19:55:00 27.2 C 46 % 14.58 C
1393 29-07-2019 20:00:00 27.1 C 46 % 14.49 C
1394 29-07-2019 20:05:00 27 C 47 % 14.73 C
1395 29-07-2019 20:10:00 26.8 C 47 % 14.55 C
1396 29-07-2019 20:15:00 26.6 C 48 % 14.69 C
1397 29-07-2019 20:20:00 26.4 C 49 % 14.83 C
1398 29-07-2019 20:25:00 26.3 C 49 % 14.74 C
1399 29-07-2019 20:30:00 26.3 C 50 % 15.05 C
1400 29-07-2019 20:35:00 26.2 C 50 % 14.96 C
Sensor: Nr:Datum:Temp:Feuchte:Taupunkt:
Aussen-T/F 1401 29-07-2019 20:40:00 26 C 50 % 14.77 C
1402 29-07-2019 20:45:00 25.9 C 51 % 14.99 C
1403 29-07-2019 20:50:00 25.8 C 51 % 14.9 C
1404 29-07-2019 20:55:00 25.6 C 52 % 15.02 C
1405 29-07-2019 21:00:00 25.3 C 55 % 15.61 C
1406 29-07-2019 21:05:00 24.9 C 56 % 15.52 C
1407 29-07-2019 21:10:00 24.5 C 59 % 15.96 C
1408 29-07-2019 21:15:00 24 C 59 % 15.5 C
1409 29-07-2019 21:20:00 23.5 C 60 % 15.29 C
1410 29-07-2019 21:25:00 23 C 61 % 15.08 C
1411 29-07-2019 21:30:00 22.6 C 63 % 15.2 C
1412 29-07-2019 21:35:00 22.2 C 64 % 15.07 C
1413 29-07-2019 21:40:00 21.9 C 65 % 15.02 C
1414 29-07-2019 21:45:00 21.8 C 66 % 15.17 C
1415 29-07-2019 21:50:00 21.6 C 66 % 14.98 C
1416 29-07-2019 21:55:00 21.4 C 66 % 14.79 C
1417 29-07-2019 22:00:00 21.3 C 67 % 14.93 C
1418 29-07-2019 22:05:00 21.2 C 68 % 15.06 C
1419 29-07-2019 22:10:00 21.1 C 68 % 14.97 C
1420 29-07-2019 22:15:00 21 C 68 % 14.87 C
1421 29-07-2019 22:20:00 20.9 C 68 % 14.77 C
1422 29-07-2019 22:25:00 20.8 C 69 % 14.91 C
1423 29-07-2019 22:30:00 20.8 C 70 % 15.13 C
1424 29-07-2019 22:35:00 20.7 C 71 % 15.25 C
1425 29-07-2019 22:40:00 20.6 C 71 % 15.16 C
Sensor: Nr:Datum:Temp:Feuchte:Taupunkt:
Aussen-T/F 1426 29-07-2019 22:45:00 20.4 C 71 % 14.97 C
1427 29-07-2019 22:50:00 20.2 C 72 % 14.99 C
1428 29-07-2019 22:55:00 20.1 C 73 % 15.11 C
1429 29-07-2019 23:00:00 20 C 73 % 15.01 C
1430 29-07-2019 23:05:00 19.9 C 73 % 14.92 C
1431 29-07-2019 23:10:00 19.8 C 74 % 15.03 C
1432 29-07-2019 23:15:00 19.7 C 75 % 15.15 C
1433 29-07-2019 23:20:00 19.6 C 75 % 15.05 C
1434 29-07-2019 23:25:00 19.4 C 75 % 14.86 C
1435 29-07-2019 23:30:00 19.3 C 76 % 14.97 C
1436 29-07-2019 23:35:00 19.1 C 76 % 14.77 C
1437 29-07-2019 23:40:00 19 C 77 % 14.88 C
1438 29-07-2019 23:45:00 18.8 C 77 % 14.68 C
1439 29-07-2019 23:50:00 18.8 C 78 % 14.88 C
1440 29-07-2019 23:55:00 18.7 C 78 % 14.79 C
1441 30-07-2019 00:00:00 18.5 C 79 % 14.79 C
1442 30-07-2019 00:05:00 18.3 C 79 % 14.6 C
1443 30-07-2019 00:10:00 18.2 C 80 % 14.69 C
1444 30-07-2019 00:15:00 18.1 C 80 % 14.6 C
1445 30-07-2019 00:20:00 18 C 81 % 14.69 C
1446 30-07-2019 00:25:00 17.9 C 81 % 14.59 C
1447 30-07-2019 00:30:00 17.8 C 81 % 14.5 C
1448 30-07-2019 00:35:00 17.8 C 82 % 14.69 C
1449 30-07-2019 00:40:00 17.7 C 82 % 14.59 C
1450 30-07-2019 00:45:00 17.7 C 82 % 14.59 C
Sensor: Nr:Datum:Temp:Feuchte:Taupunkt:
Aussen-T/F 1451 30-07-2019 00:50:00 17.7 C 83 % 14.78 C
1452 30-07-2019 00:55:00 17.7 C 83 % 14.78 C
1453 30-07-2019 01:00:00 17.7 C 83 % 14.78 C
1454 30-07-2019 01:05:00 17.7 C 84 % 14.96 C
1455 30-07-2019 01:10:00 17.7 C 83 % 14.78 C
1456 30-07-2019 01:15:00 17.7 C 83 % 14.78 C
1457 30-07-2019 01:20:00 17.6 C 83 % 14.68 C
1458 30-07-2019 01:25:00 17.5 C 83 % 14.58 C
1459 30-07-2019 01:30:00 17.4 C 83 % 14.48 C
1460 30-07-2019 01:35:00 17.3 C 84 % 14.57 C
1461 30-07-2019 01:40:00 17.2 C 84 % 14.47 C
1462 30-07-2019 01:45:00 17.2 C 84 % 14.47 C
1463 30-07-2019 01:50:00 17.1 C 84 % 14.38 C
1464 30-07-2019 01:55:00 17 C 84 % 14.28 C
1465 30-07-2019 02:00:00 16.9 C 84 % 14.18 C
1466 30-07-2019 02:05:00 16.9 C 85 % 14.36 C
1467 30-07-2019 02:10:00 16.8 C 85 % 14.26 C
1468 30-07-2019 02:15:00 16.8 C 85 % 14.26 C
1469 30-07-2019 02:20:00 16.7 C 85 % 14.17 C
1470 30-07-2019 02:25:00 16.6 C 85 % 14.07 C
1471 30-07-2019 02:30:00 16.6 C 86 % 14.25 C
1472 30-07-2019 02:35:00 16.5 C 86 % 14.15 C
1473 30-07-2019 02:40:00 16.4 C 86 % 14.05 C
1474 30-07-2019 02:45:00 16.4 C 86 % 14.05 C
1475 30-07-2019 02:50:00 16.3 C 86 % 13.95 C
Sensor: Nr:Datum:Temp:Feuchte:Taupunkt:
Aussen-T/F 1476 30-07-2019 02:55:00 16.3 C 87 % 14.13 C
1477 30-07-2019 03:00:00 16.2 C 87 % 14.03 C
1478 30-07-2019 03:05:00 16.1 C 87 % 13.94 C
1479 30-07-2019 03:10:00 16 C 87 % 13.84 C
1480 30-07-2019 03:15:00 15.9 C 88 % 13.92 C
1481 30-07-2019 03:20:00 15.9 C 88 % 13.92 C
1482 30-07-2019 03:25:00 15.9 C 88 % 13.92 C
1483 30-07-2019 03:30:00 15.9 C 88 % 13.92 C
1484 30-07-2019 03:35:00 15.8 C 89 % 13.99 C
1485 30-07-2019 03:40:00 15.8 C 89 % 13.99 C
1486 30-07-2019 03:45:00 15.7 C 89 % 13.89 C
1487 30-07-2019 03:50:00 15.7 C 89 % 13.89 C
1488 30-07-2019 03:55:00 15.6 C 89 % 13.79 C
1489 30-07-2019 04:00:00 15.6 C 89 % 13.79 C
1490 30-07-2019 04:05:00 15.6 C 89 % 13.79 C
1491 30-07-2019 04:10:00 15.5 C 90 % 13.87 C
1492 30-07-2019 04:15:00 15.5 C 90 % 13.87 C
1493 30-07-2019 04:20:00 15.4 C 90 % 13.77 C
1494 30-07-2019 04:25:00 15.4 C 90 % 13.77 C
1495 30-07-2019 04:30:00 15.4 C 90 % 13.77 C
1496 30-07-2019 04:35:00 15.3 C 90 % 13.67 C
1497 30-07-2019 04:40:00 15.3 C 90 % 13.67 C
1498 30-07-2019 04:45:00 15.3 C 91 % 13.84 C
1499 30-07-2019 04:50:00 15.3 C 91 % 13.84 C
1500 30-07-2019 04:55:00 15.2 C 91 % 13.74 C
Sensor: Nr:Datum:Temp:Feuchte:Taupunkt:
Aussen-T/F 1501 30-07-2019 05:00:00 15.2 C 91 % 13.74 C
1502 30-07-2019 05:05:00 15.1 C 91 % 13.64 C
1503 30-07-2019 05:10:00 15.1 C 91 % 13.64 C
1504 30-07-2019 05:15:00 15.1 C 91 % 13.64 C
1505 30-07-2019 05:20:00 15.1 C 91 % 13.64 C
1506 30-07-2019 05:25:00 15.1 C 91 % 13.64 C
1507 30-07-2019 05:30:00 15.1 C 92 % 13.81 C
1508 30-07-2019 05:35:00 15 C 92 % 13.71 C
1509 30-07-2019 05:40:00 15 C 92 % 13.71 C
1510 30-07-2019 05:45:00 14.9 C 92 % 13.61 C
1511 30-07-2019 05:50:00 14.9 C 92 % 13.61 C
1512 30-07-2019 05:55:00 14.8 C 92 % 13.51 C
1513 30-07-2019 06:00:00 14.8 C 92 % 13.51 C
1514 30-07-2019 06:05:00 14.8 C 92 % 13.51 C
1515 30-07-2019 06:10:00 14.7 C 93 % 13.58 C
1516 30-07-2019 06:15:00 14.7 C 93 % 13.58 C
1517 30-07-2019 06:20:00 14.7 C 93 % 13.58 C
1518 30-07-2019 06:25:00 14.7 C 93 % 13.58 C
1519 30-07-2019 06:30:00 14.7 C 93 % 13.58 C
1520 30-07-2019 06:35:00 14.7 C 93 % 13.58 C
1521 30-07-2019 06:40:00 14.8 C 93 % 13.68 C
1522 30-07-2019 06:45:00 14.7 C 93 % 13.58 C
1523 30-07-2019 06:50:00 14.7 C 93 % 13.58 C
1524 30-07-2019 06:55:00 14.7 C 93 % 13.58 C
1525 30-07-2019 07:00:00 14.7 C 93 % 13.58 C
Sensor: Nr:Datum:Temp:Feuchte:Taupunkt:
Aussen-T/F 1526 30-07-2019 07:05:00 14.7 C 93 % 13.58 C
1527 30-07-2019 07:10:00 14.8 C 94 % 13.84 C
1528 30-07-2019 07:15:00 14.8 C 94 % 13.84 C
1529 30-07-2019 07:20:00 14.8 C 94 % 13.84 C
1530 30-07-2019 07:25:00 14.9 C 94 % 13.94 C
1531 30-07-2019 07:30:00 15 C 94 % 14.04 C
1532 30-07-2019 07:35:00 15 C 94 % 14.04 C
1533 30-07-2019 07:40:00 15.1 C 94 % 14.14 C
1534 30-07-2019 07:45:00 15.1 C 94 % 14.14 C
1535 30-07-2019 07:50:00 15.1 C 94 % 14.14 C
1536 30-07-2019 07:55:00 15.2 C 94 % 14.24 C
1537 30-07-2019 08:00:00 15.3 C 94 % 14.34 C
1538 30-07-2019 08:05:00 15.6 C 94 % 14.64 C
1539 30-07-2019 08:10:00 15.7 C 94 % 14.74 C
1540 30-07-2019 08:15:00 15.7 C 94 % 14.74 C
1541 30-07-2019 08:20:00 15.7 C 94 % 14.74 C
1542 30-07-2019 08:25:00 15.8 C 94 % 14.84 C
1543 30-07-2019 08:30:00 15.9 C 94 % 14.94 C
1544 30-07-2019 08:35:00 15.9 C 94 % 14.94 C
1545 30-07-2019 08:40:00 16.1 C 94 % 15.13 C
1546 30-07-2019 08:45:00 16.2 C 94 % 15.23 C
1547 30-07-2019 08:50:00 16.3 C 94 % 15.33 C
1548 30-07-2019 08:55:00 16.4 C 93 % 15.27 C
1549 30-07-2019 09:00:00 16.6 C 93 % 15.46 C
1550 30-07-2019 09:05:00 16.7 C 93 % 15.56 C
Sensor: Nr:Datum:Temp:Feuchte:Taupunkt:
Aussen-T/F 1551 30-07-2019 09:10:00 16.8 C 93 % 15.66 C
1552 30-07-2019 09:15:00 16.9 C 93 % 15.76 C
1553 30-07-2019 09:20:00 17.1 C 93 % 15.96 C
1554 30-07-2019 09:25:00 17.2 C 92 % 15.89 C
1555 30-07-2019 09:30:00 17.4 C 92 % 16.09 C
1556 30-07-2019 09:35:00 17.7 C 92 % 16.38 C
1557 30-07-2019 09:40:00 17.8 C 91 % 16.31 C
1558 30-07-2019 09:45:00 18 C 91 % 16.51 C
1559 30-07-2019 09:50:00 18.2 C 90 % 16.53 C
1560 30-07-2019 09:55:00 18.4 C 89 % 16.55 C
1561 30-07-2019 10:00:00 18.6 C 89 % 16.75 C
1562 30-07-2019 10:05:00 18.8 C 88 % 16.77 C
1563 30-07-2019 10:10:00 19.2 C 87 % 16.98 C
1564 30-07-2019 10:15:00 19.4 C 86 % 17 C
1565 30-07-2019 10:20:00 19.7 C 84 % 16.92 C
1566 30-07-2019 10:25:00 20.1 C 83 % 17.12 C
1567 30-07-2019 10:30:00 20.3 C 82 % 17.13 C
1568 30-07-2019 10:35:00 20.7 C 81 % 17.32 C
1569 30-07-2019 10:40:00 21.1 C 79 % 17.32 C
1570 30-07-2019 10:45:00 21.4 C 79 % 17.61 C
1571 30-07-2019 10:50:00 21.8 C 75 % 17.17 C
1572 30-07-2019 10:55:00 22.2 C 74 % 17.34 C
1573 30-07-2019 11:00:00 22.6 C 72 % 17.3 C
1574 30-07-2019 11:05:00 22.9 C 70 % 17.14 C
1575 30-07-2019 11:10:00 23.4 C 63 % 15.96 C
Sensor: Nr:Datum:Temp:Feuchte:Taupunkt:
Aussen-T/F 1576 30-07-2019 11:15:00 24.3 C 61 % 16.3 C
1577 30-07-2019 11:20:00 24.7 C 58 % 15.88 C
1578 30-07-2019 11:25:00 25.3 C 55 % 15.61 C
1579 30-07-2019 11:30:00 25.7 C 54 % 15.7 C
1580 30-07-2019 11:35:00 26.1 C 53 % 15.77 C
1581 30-07-2019 11:40:00 26.2 C 53 % 15.87 C
1582 30-07-2019 11:45:00 26.1 C 52 % 15.48 C
1583 30-07-2019 11:50:00 26.1 C 52 % 15.48 C
1584 30-07-2019 11:55:00 26.2 C 52 % 15.57 C
1585 30-07-2019 12:00:00 26.3 C 51 % 15.36 C
1586 30-07-2019 12:05:00 26.5 C 49 % 14.92 C
1587 30-07-2019 12:10:00 26.6 C 49 % 15.01 C
1588 30-07-2019 12:15:00 26.8 C 46 % 14.21 C
1589 30-07-2019 12:20:00 26.9 C 48 % 14.96 C
1590 30-07-2019 12:25:00 27.1 C 45 % 14.15 C
1591 30-07-2019 12:30:00 27.2 C 44 % 13.89 C
1592 30-07-2019 12:35:00 27.2 C 43 % 13.54 C
1593 30-07-2019 12:40:00 27.2 C 44 % 13.89 C
1594 30-07-2019 12:45:00 27.3 C 42 % 13.27 C
1595 30-07-2019 12:50:00 27.5 C 44 % 14.16 C
1596 30-07-2019 12:55:00 27.7 C 41 % 13.25 C
1597 30-07-2019 13:00:00 27.7 C 43 % 13.99 C
1598 30-07-2019 13:05:00 27.7 C 41 % 13.25 C
1599 30-07-2019 13:10:00 27.9 C 42 % 13.8 C
1600 30-07-2019 13:15:00 28.1 C 40 % 13.23 C
Sensor: Nr:Datum:Temp:Feuchte:Taupunkt:
Aussen-T/F 1601 30-07-2019 13:20:00 28.1 C 39 % 12.85 C
1602 30-07-2019 13:25:00 28.1 C 39 % 12.85 C
1603 30-07-2019 13:30:00 28.3 C 39 % 13.02 C
1604 30-07-2019 13:35:00 28.4 C 39 % 13.11 C
1605 30-07-2019 13:40:00 28.5 C 39 % 13.2 C
1606 30-07-2019 13:45:00 28.6 C 39 % 13.29 C
1607 30-07-2019 13:50:00 28.7 C 36 % 12.16 C
1608 30-07-2019 13:55:00 28.8 C 35 % 11.82 C
1609 30-07-2019 14:00:00 28.8 C 36 % 12.25 C
1610 30-07-2019 14:05:00 28.9 C 36 % 12.33 C
1611 30-07-2019 14:10:00 29.1 C 37 % 12.93 C
1612 30-07-2019 14:15:00 29.2 C 39 % 13.82 C
1613 30-07-2019 14:20:00 29.3 C 37 % 13.1 C
1614 30-07-2019 14:25:00 29.3 C 39 % 13.91 C
1615 30-07-2019 14:30:00 29.6 C 39 % 14.18 C
1616 30-07-2019 14:35:00 29.8 C 37 % 13.54 C
1617 30-07-2019 14:40:00 29.9 C 39 % 14.44 C
1618 30-07-2019 14:45:00 29.9 C 37 % 13.63 C
1619 30-07-2019 14:50:00 30 C 39 % 14.53 C
1620 30-07-2019 14:55:00 30.1 C 37 % 13.81 C
1621 30-07-2019 15:00:00 30.1 C 38 % 14.22 C
1622 30-07-2019 15:05:00 30.3 C 38 % 14.4 C
1623 30-07-2019 15:10:00 30.4 C 36 % 13.65 C
1624 30-07-2019 15:15:00 30.4 C 37 % 14.07 C
1625 30-07-2019 15:20:00 30.5 C 36 % 13.74 C
Sensor: Nr:Datum:Temp:Feuchte:Taupunkt:
Aussen-T/F 1626 30-07-2019 15:25:00 30.5 C 37 % 14.16 C
1627 30-07-2019 15:30:00 30.8 C 36 % 14 C
1628 30-07-2019 15:35:00 31 C 35 % 13.75 C
1629 30-07-2019 15:40:00 31.3 C 34 % 13.56 C
1630 30-07-2019 15:45:00 30.9 C 35 % 13.66 C
1631 30-07-2019 15:50:00 31 C 36 % 14.18 C
1632 30-07-2019 15:55:00 31.1 C 35 % 13.83 C
1633 30-07-2019 16:00:00 31.2 C 33 % 13.02 C
1634 30-07-2019 16:05:00 31.3 C 34 % 13.56 C
1635 30-07-2019 16:10:00 31.6 C 33 % 13.36 C
1636 30-07-2019 16:15:00 32 C 32 % 13.24 C
1637 30-07-2019 16:20:00 31.9 C 31 % 12.67 C
1638 30-07-2019 16:25:00 31.3 C 34 % 13.56 C
1639 30-07-2019 16:30:00 31.3 C 35 % 14.01 C
1640 30-07-2019 16:35:00 31.6 C 35 % 14.27 C
1641 30-07-2019 16:40:00 31.1 C 35 % 13.83 C
1642 30-07-2019 16:45:00 30.7 C 36 % 13.92 C
1643 30-07-2019 16:50:00 30.4 C 36 % 13.65 C
1644 30-07-2019 16:55:00 30.1 C 37 % 13.81 C
1645 30-07-2019 17:00:00 29.8 C 38 % 13.95 C
1646 30-07-2019 17:05:00 29.9 C 38 % 14.04 C
1647 30-07-2019 17:10:00 30.5 C 37 % 14.16 C
1648 30-07-2019 17:15:00 30.6 C 37 % 14.25 C
1649 30-07-2019 17:20:00 30.3 C 37 % 13.99 C
1650 30-07-2019 17:25:00 29.7 C 38 % 13.87 C
Sensor: Nr:Datum:Temp:Feuchte:Taupunkt:
Aussen-T/F 1651 30-07-2019 17:30:00 29.1 C 39 % 13.73 C
1652 30-07-2019 17:35:00 28.8 C 39 % 13.47 C
1653 30-07-2019 17:40:00 28.6 C 40 % 13.68 C
1654 30-07-2019 17:45:00 28.4 C 38 % 12.72 C
1655 30-07-2019 17:50:00 28.2 C 36 % 11.72 C
1656 30-07-2019 17:55:00 27.8 C 37 % 11.78 C
1657 30-07-2019 18:00:00 27.4 C 37 % 11.43 C
1658 30-07-2019 18:05:00 27.2 C 38 % 11.65 C
1659 30-07-2019 18:10:00 27.1 C 39 % 11.96 C
1660 30-07-2019 18:15:00 26.9 C 39 % 11.78 C
1661 30-07-2019 18:20:00 26.8 C 40 % 12.07 C
1662 30-07-2019 18:25:00 26.7 C 40 % 11.99 C
1663 30-07-2019 18:30:00 26.6 C 41 % 12.27 C
1664 30-07-2019 18:35:00 26.4 C 42 % 12.46 C
1665 30-07-2019 18:40:00 26.3 C 42 % 12.37 C
1666 30-07-2019 18:45:00 26.2 C 43 % 12.64 C
1667 30-07-2019 18:50:00 26 C 44 % 12.81 C
1668 30-07-2019 18:55:00 25.9 C 44 % 12.72 C
1669 30-07-2019 19:00:00 25.8 C 45 % 12.97 C
1670 30-07-2019 19:05:00 25.7 C 45 % 12.88 C
1671 30-07-2019 19:10:00 25.6 C 45 % 12.79 C
1672 30-07-2019 19:15:00 25.6 C 45 % 12.79 C
1673 30-07-2019 19:20:00 25.5 C 46 % 13.03 C
1674 30-07-2019 19:25:00 24.9 C 53 % 14.66 C
1675 30-07-2019 19:30:00 23.8 C 56 % 14.5 C
Sensor: Nr:Datum:Temp:Feuchte:Taupunkt:
Aussen-T/F 1676 30-07-2019 19:35:00 23.4 C 56 % 14.13 C
1677 30-07-2019 19:40:00 23.4 C 55 % 13.85 C
1678 30-07-2019 19:45:00 23.6 C 56 % 14.31 C
1679 30-07-2019 19:50:00 23.7 C 56 % 14.4 C
1680 30-07-2019 19:55:00 23.7 C 55 % 14.13 C
1681 30-07-2019 20:00:00 23.7 C 56 % 14.4 C
1682 30-07-2019 20:05:00 23.8 C 56 % 14.5 C
1683 30-07-2019 20:10:00 23.9 C 55 % 14.31 C
1684 30-07-2019 20:15:00 23.9 C 55 % 14.31 C
1685 30-07-2019 20:20:00 24 C 55 % 14.41 C
1686 30-07-2019 20:25:00 24 C 55 % 14.41 C
1687 30-07-2019 20:30:00 24.1 C 55 % 14.5 C
1688 30-07-2019 20:35:00 24.2 C 55 % 14.59 C
1689 30-07-2019 20:40:00 24.3 C 55 % 14.68 C
1690 30-07-2019 20:45:00 24.4 C 55 % 14.78 C
1691 30-07-2019 20:50:00 24.4 C 55 % 14.78 C
1692 30-07-2019 20:55:00 24.4 C 55 % 14.78 C
1693 30-07-2019 21:00:00 24.3 C 55 % 14.68 C
1694 30-07-2019 21:05:00 24.3 C 54 % 14.4 C
1695 30-07-2019 21:10:00 24.2 C 54 % 14.31 C
1696 30-07-2019 21:15:00 24.1 C 55 % 14.5 C
1697 30-07-2019 21:20:00 23.9 C 56 % 14.59 C
1698 30-07-2019 21:25:00 23.8 C 57 % 14.77 C
1699 30-07-2019 21:30:00 23.6 C 57 % 14.59 C
1700 30-07-2019 21:35:00 23.4 C 58 % 14.67 C
Sensor: Nr:Datum:Temp:Feuchte:Taupunkt:
Aussen-T/F 1701 30-07-2019 21:40:00 23.3 C 58 % 14.58 C
1702 30-07-2019 21:45:00 23.2 C 59 % 14.75 C
1703 30-07-2019 21:50:00 23.1 C 59 % 14.65 C
1704 30-07-2019 21:55:00 22.9 C 59 % 14.47 C
1705 30-07-2019 22:00:00 22.7 C 60 % 14.54 C
1706 30-07-2019 22:05:00 22.6 C 60 % 14.44 C
1707 30-07-2019 22:10:00 22.5 C 61 % 14.61 C
1708 30-07-2019 22:15:00 22.4 C 62 % 14.76 C
1709 30-07-2019 22:20:00 22.3 C 62 % 14.67 C
1710 30-07-2019 22:25:00 22.2 C 63 % 14.82 C
1711 30-07-2019 22:30:00 22.1 C 63 % 14.73 C
1712 30-07-2019 22:35:00 22.1 C 63 % 14.73 C
1713 30-07-2019 22:40:00 22 C 63 % 14.63 C
1714 30-07-2019 22:45:00 21.9 C 64 % 14.78 C
1715 30-07-2019 22:50:00 21.9 C 66 % 15.26 C
1716 30-07-2019 22:55:00 21.8 C 66 % 15.17 C
1717 30-07-2019 23:00:00 21.7 C 66 % 15.07 C
1718 30-07-2019 23:05:00 21.6 C 66 % 14.98 C
1719 30-07-2019 23:10:00 21.5 C 67 % 15.12 C
1720 30-07-2019 23:15:00 21.4 C 67 % 15.02 C
1721 30-07-2019 23:20:00 21.3 C 68 % 15.16 C
1722 30-07-2019 23:25:00 21.2 C 69 % 15.29 C
1723 30-07-2019 23:30:00 21.1 C 69 % 15.19 C
1724 30-07-2019 23:35:00 21 C 69 % 15.1 C
1725 30-07-2019 23:40:00 20.9 C 68 % 14.77 C
Sensor: Nr:Datum:Temp:Feuchte:Taupunkt:
Aussen-T/F 1726 30-07-2019 23:45:00 20.8 C 69 % 14.91 C
1727 30-07-2019 23:50:00 20.8 C 69 % 14.91 C
1728 30-07-2019 23:55:00 20.8 C 69 % 14.91 C
1729 31-07-2019 00:00:00 20.7 C 69 % 14.81 C
1730 31-07-2019 00:05:00 20.7 C 69 % 14.81 C
1731 31-07-2019 00:10:00 20.7 C 69 % 14.81 C
1732 31-07-2019 00:15:00 20.6 C 69 % 14.71 C
1733 31-07-2019 00:20:00 20.6 C 70 % 14.94 C
1734 31-07-2019 00:25:00 20.6 C 70 % 14.94 C
1735 31-07-2019 00:30:00 20.6 C 69 % 14.71 C
1736 31-07-2019 00:35:00 20.5 C 70 % 14.84 C
1737 31-07-2019 00:40:00 20.4 C 70 % 14.75 C
1738 31-07-2019 00:45:00 20.4 C 71 % 14.97 C
1739 31-07-2019 00:50:00 20.4 C 71 % 14.97 C
1740 31-07-2019 00:55:00 20.4 C 71 % 14.97 C
1741 31-07-2019 01:00:00 20.3 C 71 % 14.87 C
1742 31-07-2019 01:05:00 20.3 C 71 % 14.87 C
1743 31-07-2019 01:10:00 20.3 C 71 % 14.87 C
1744 31-07-2019 01:15:00 20.3 C 71 % 14.87 C
1745 31-07-2019 01:20:00 20.3 C 71 % 14.87 C
1746 31-07-2019 01:25:00 20.3 C 71 % 14.87 C
1747 31-07-2019 01:30:00 20.3 C 71 % 14.87 C
1748 31-07-2019 01:35:00 20.3 C 71 % 14.87 C
1749 31-07-2019 01:40:00 20.4 C 71 % 14.97 C
1750 31-07-2019 01:45:00 20.4 C 71 % 14.97 C
Sensor: Nr:Datum:Temp:Feuchte:Taupunkt:
Aussen-T/F 1751 31-07-2019 01:50:00 20.4 C 71 % 14.97 C
1752 31-07-2019 01:55:00 20.3 C 71 % 14.87 C
1753 31-07-2019 02:00:00 20.2 C 71 % 14.78 C
1754 31-07-2019 02:05:00 20.1 C 71 % 14.68 C
1755 31-07-2019 02:10:00 19.9 C 71 % 14.49 C
1756 31-07-2019 02:15:00 19.8 C 71 % 14.39 C
1757 31-07-2019 02:20:00 19.8 C 72 % 14.61 C
1758 31-07-2019 02:25:00 19.7 C 72 % 14.51 C
1759 31-07-2019 02:30:00 19.7 C 72 % 14.51 C
1760 31-07-2019 02:35:00 19.6 C 72 % 14.42 C
1761 31-07-2019 02:40:00 19.6 C 72 % 14.42 C
1762 31-07-2019 02:45:00 19.4 C 72 % 14.22 C
1763 31-07-2019 02:50:00 19.4 C 72 % 14.22 C
1764 31-07-2019 02:55:00 19.3 C 72 % 14.13 C
1765 31-07-2019 03:00:00 19.2 C 72 % 14.03 C
1766 31-07-2019 03:05:00 19.1 C 73 % 14.15 C
1767 31-07-2019 03:10:00 18.9 C 73 % 13.96 C
1768 31-07-2019 03:15:00 18.8 C 74 % 14.07 C
1769 31-07-2019 03:20:00 18.7 C 74 % 13.97 C
1770 31-07-2019 03:25:00 18.6 C 75 % 14.08 C
1771 31-07-2019 03:30:00 18.6 C 76 % 14.29 C
1772 31-07-2019 03:35:00 18.4 C 76 % 14.1 C
1773 31-07-2019 03:40:00 18.4 C 76 % 14.1 C
1774 31-07-2019 03:45:00 18.3 C 77 % 14.2 C
1775 31-07-2019 03:50:00 18.3 C 77 % 14.2 C
Sensor: Nr:Datum:Temp:Feuchte:Taupunkt:
Aussen-T/F 1776 31-07-2019 03:55:00 18.3 C 78 % 14.4 C
1777 31-07-2019 04:00:00 18.3 C 78 % 14.4 C
1778 31-07-2019 04:05:00 18.3 C 79 % 14.6 C
1779 31-07-2019 04:10:00 18.3 C 78 % 14.4 C
1780 31-07-2019 04:15:00 18.4 C 78 % 14.5 C
1781 31-07-2019 04:20:00 18.6 C 77 % 14.49 C
1782 31-07-2019 04:25:00 18.7 C 77 % 14.59 C
1783 31-07-2019 04:30:00 18.7 C 76 % 14.39 C
1784 31-07-2019 04:35:00 18.7 C 76 % 14.39 C
1785 31-07-2019 04:40:00 18.8 C 76 % 14.48 C
1786 31-07-2019 04:45:00 18.8 C 77 % 14.68 C
1787 31-07-2019 04:50:00 18.7 C 76 % 14.39 C
1788 31-07-2019 04:55:00 18.6 C 76 % 14.29 C
1789 31-07-2019 05:00:00 18.4 C 76 % 14.1 C
1790 31-07-2019 05:05:00 18.3 C 76 % 14 C
1791 31-07-2019 05:10:00 18.1 C 76 % 13.81 C
1792 31-07-2019 05:15:00 17.9 C 77 % 13.81 C
1793 31-07-2019 05:20:00 17.8 C 78 % 13.91 C
1794 31-07-2019 05:25:00 17.7 C 78 % 13.82 C
1795 31-07-2019 05:30:00 17.7 C 79 % 14.01 C
1796 31-07-2019 05:35:00 17.6 C 79 % 13.92 C
1797 31-07-2019 05:40:00 17.6 C 79 % 13.92 C
1798 31-07-2019 05:45:00 17.6 C 79 % 13.92 C
1799 31-07-2019 05:50:00 17.6 C 80 % 14.11 C
1800 31-07-2019 05:55:00 17.7 C 79 % 14.01 C
Sensor: Nr:Datum:Temp:Feuchte:Taupunkt:
Aussen-T/F 1801 31-07-2019 06:00:00 17.7 C 79 % 14.01 C
1802 31-07-2019 06:05:00 17.7 C 79 % 14.01 C
1803 31-07-2019 06:10:00 17.7 C 79 % 14.01 C
1804 31-07-2019 06:15:00 17.8 C 78 % 13.91 C
1805 31-07-2019 06:20:00 17.8 C 78 % 13.91 C
1806 31-07-2019 06:25:00 17.7 C 78 % 13.82 C
1807 31-07-2019 06:30:00 17.7 C 78 % 13.82 C
1808 31-07-2019 06:35:00 17.7 C 78 % 13.82 C
1809 31-07-2019 06:40:00 17.6 C 78 % 13.72 C
1810 31-07-2019 06:45:00 17.5 C 78 % 13.62 C
1811 31-07-2019 06:50:00 17.4 C 79 % 13.72 C
1812 31-07-2019 06:55:00 17.4 C 79 % 13.72 C
1813 31-07-2019 07:00:00 17.3 C 79 % 13.63 C
1814 31-07-2019 07:05:00 17.3 C 80 % 13.82 C
1815 31-07-2019 07:10:00 17.3 C 80 % 13.82 C
1816 31-07-2019 07:15:00 17.3 C 80 % 13.82 C
1817 31-07-2019 07:20:00 17.3 C 80 % 13.82 C
1818 31-07-2019 07:25:00 17.3 C 80 % 13.82 C
1819 31-07-2019 07:30:00 17.3 C 80 % 13.82 C
1820 31-07-2019 07:35:00 17.4 C 80 % 13.92 C
1821 31-07-2019 07:40:00 17.4 C 80 % 13.92 C
1822 31-07-2019 07:45:00 17.4 C 80 % 13.92 C
1823 31-07-2019 07:50:00 17.6 C 80 % 14.11 C
1824 31-07-2019 07:55:00 17.6 C 80 % 14.11 C
1825 31-07-2019 08:00:00 17.7 C 79 % 14.01 C
Sensor: Nr:Datum:Temp:Feuchte:Taupunkt:
Aussen-T/F 1826 31-07-2019 08:05:00 17.8 C 78 % 13.91 C
1827 31-07-2019 08:10:00 17.9 C 78 % 14.01 C
1828 31-07-2019 08:15:00 18 C 78 % 14.11 C
1829 31-07-2019 08:20:00 18.1 C 79 % 14.4 C
1830 31-07-2019 08:25:00 18.2 C 76 % 13.9 C
1831 31-07-2019 08:30:00 18.4 C 75 % 13.89 C
1832 31-07-2019 08:35:00 18.7 C 74 % 13.97 C
1833 31-07-2019 08:40:00 18.9 C 73 % 13.96 C
1834 31-07-2019 08:45:00 19.1 C 72 % 13.94 C
1835 31-07-2019 08:50:00 19.2 C 72 % 14.03 C
1836 31-07-2019 08:55:00 19.3 C 71 % 13.91 C
1837 31-07-2019 09:00:00 19.4 C 72 % 14.22 C
1838 31-07-2019 09:05:00 19.5 C 71 % 14.1 C
1839 31-07-2019 09:10:00 19.6 C 70 % 13.98 C
1840 31-07-2019 09:15:00 19.8 C 70 % 14.17 C
1841 31-07-2019 09:20:00 19.8 C 69 % 13.95 C
1842 31-07-2019 09:25:00 19.9 C 68 % 13.82 C
1843 31-07-2019 09:30:00 20.1 C 67 % 13.78 C
1844 31-07-2019 09:35:00 20.2 C 67 % 13.88 C
1845 31-07-2019 09:40:00 20.4 C 66 % 13.84 C
1846 31-07-2019 09:45:00 20.4 C 65 % 13.6 C
1847 31-07-2019 09:50:00 20.5 C 64 % 13.46 C
1848 31-07-2019 09:55:00 20.6 C 63 % 13.31 C
1849 31-07-2019 10:00:00 20.7 C 64 % 13.65 C
1850 31-07-2019 10:05:00 20.8 C 62 % 13.26 C
Sensor: Nr:Datum:Temp:Feuchte:Taupunkt:
Aussen-T/F 1851 31-07-2019 10:10:00 20.9 C 61 % 13.1 C
1852 31-07-2019 10:15:00 21.2 C 61 % 13.38 C
1853 31-07-2019 10:20:00 21.4 C 59 % 13.06 C
1854 31-07-2019 10:25:00 21.4 C 57 % 12.53 C
1855 31-07-2019 10:30:00 21.4 C 57 % 12.53 C
1856 31-07-2019 10:35:00 21.5 C 56 % 12.36 C
1857 31-07-2019 10:40:00 21.7 C 57 % 12.81 C
1858 31-07-2019 10:45:00 21.8 C 58 % 13.17 C
1859 31-07-2019 10:50:00 21.8 C 56 % 12.64 C
1860 31-07-2019 10:55:00 21.7 C 57 % 12.81 C
1861 31-07-2019 11:00:00 21.5 C 56 % 12.36 C
1862 31-07-2019 11:05:00 21.3 C 56 % 12.17 C
1863 31-07-2019 11:10:00 21.1 C 58 % 12.52 C
1864 31-07-2019 11:15:00 21.1 C 57 % 12.25 C
1865 31-07-2019 11:20:00 21.2 C 57 % 12.35 C
1866 31-07-2019 11:25:00 21.4 C 56 % 12.27 C
1867 31-07-2019 11:30:00 21.6 C 55 % 12.18 C
1868 31-07-2019 11:35:00 21.8 C 54 % 12.08 C
1869 31-07-2019 11:40:00 21.9 C 54 % 12.18 C
1870 31-07-2019 11:45:00 22 C 54 % 12.27 C
1871 31-07-2019 11:50:00 22.2 C 53 % 12.17 C
1872 31-07-2019 11:55:00 22.2 C 53 % 12.17 C
1873 31-07-2019 12:00:00 22.1 C 52 % 11.79 C
1874 31-07-2019 12:05:00 22.2 C 52 % 11.88 C
1875 31-07-2019 12:10:00 22.3 C 52 % 11.97 C
Sensor: Nr:Datum:Temp:Feuchte:Taupunkt:
Aussen-T/F 1876 31-07-2019 12:15:00 22.6 C 53 % 12.54 C
1877 31-07-2019 12:20:00 22.8 C 52 % 12.43 C
1878 31-07-2019 12:25:00 22.9 C 51 % 12.23 C
1879 31-07-2019 12:30:00 22.9 C 48 % 11.31 C
1880 31-07-2019 12:35:00 22.7 C 49 % 11.44 C
1881 31-07-2019 12:40:00 22.8 C 49 % 11.53 C
1882 31-07-2019 12:45:00 22.8 C 50 % 11.84 C
1883 31-07-2019 12:50:00 22.9 C 51 % 12.23 C
1884 31-07-2019 12:55:00 23 C 51 % 12.32 C
1885 31-07-2019 13:00:00 23.1 C 52 % 12.71 C
1886 31-07-2019 13:05:00 23.2 C 51 % 12.51 C
1887 31-07-2019 13:10:00 23.3 C 49 % 11.99 C
1888 31-07-2019 13:15:00 23.3 C 47 % 11.36 C
1889 31-07-2019 13:20:00 23.4 C 47 % 11.45 C
1890 31-07-2019 13:25:00 23.6 C 47 % 11.63 C
1891 31-07-2019 13:30:00 23.9 C 46 % 11.58 C
1892 31-07-2019 13:35:00 24 C 45 % 11.34 C
1893 31-07-2019 13:40:00 24 C 46 % 11.67 C
1894 31-07-2019 13:45:00 24.1 C 45 % 11.43 C
1895 31-07-2019 13:50:00 24.2 C 44 % 11.18 C
1896 31-07-2019 13:55:00 24.2 C 45 % 11.52 C
1897 31-07-2019 14:00:00 24.3 C 44 % 11.27 C
1898 31-07-2019 14:05:00 24.4 C 44 % 11.36 C
1899 31-07-2019 14:10:00 24.3 C 43 % 10.93 C
1900 31-07-2019 14:15:00 24.4 C 43 % 11.02 C
Sensor: Nr:Datum:Temp:Feuchte:Taupunkt:
Aussen-T/F 1901 31-07-2019 14:20:00 24.5 C 44 % 11.45 C
1902 31-07-2019 14:25:00 24.7 C 44 % 11.63 C
1903 31-07-2019 14:30:00 25 C 42 % 11.2 C
1904 31-07-2019 14:35:00 25.1 C 41 % 10.93 C
1905 31-07-2019 14:40:00 24.9 C 41 % 10.75 C
1906 31-07-2019 14:45:00 25.1 C 41 % 10.93 C
1907 31-07-2019 14:50:00 25.2 C 41 % 11.02 C
1908 31-07-2019 14:55:00 25.3 C 41 % 11.11 C
1909 31-07-2019 15:00:00 25.4 C 39 % 10.45 C
1910 31-07-2019 15:05:00 25.4 C 40 % 10.83 C
1911 31-07-2019 15:10:00 25.1 C 41 % 10.93 C
1912 31-07-2019 15:15:00 25.1 C 43 % 11.65 C
1913 31-07-2019 15:20:00 25.4 C 40 % 10.83 C
1914 31-07-2019 15:25:00 25.8 C 40 % 11.18 C
1915 31-07-2019 15:30:00 26 C 39 % 10.98 C
1916 31-07-2019 15:35:00 26 C 39 % 10.98 C
1917 31-07-2019 15:40:00 25.6 C 40 % 11 C
1918 31-07-2019 15:45:00 25.7 C 40 % 11.09 C
1919 31-07-2019 15:50:00 25.6 C 40 % 11 C
1920 31-07-2019 15:55:00 25.5 C 40 % 10.91 C
1921 31-07-2019 16:00:00 25.9 C 40 % 11.27 C
1922 31-07-2019 16:05:00 26.3 C 38 % 10.86 C
1923 31-07-2019 16:10:00 25.8 C 39 % 10.8 C
1924 31-07-2019 16:15:00 25.2 C 41 % 11.02 C
1925 31-07-2019 16:20:00 24.8 C 42 % 11.02 C
Sensor: Nr:Datum:Temp:Feuchte:Taupunkt:
Aussen-T/F 1926 31-07-2019 16:25:00 24.7 C 43 % 11.29 C
1927 31-07-2019 16:30:00 24.6 C 43 % 11.2 C
1928 31-07-2019 16:35:00 24.4 C 43 % 11.02 C
1929 31-07-2019 16:40:00 24.3 C 44 % 11.27 C
1930 31-07-2019 16:45:00 24.3 C 45 % 11.61 C
1931 31-07-2019 16:50:00 24.4 C 45 % 11.7 C
1932 31-07-2019 16:55:00 24.8 C 45 % 12.06 C
1933 31-07-2019 17:00:00 24.8 C 44 % 11.72 C
1934 31-07-2019 17:05:00 25.1 C 44 % 12 C
1935 31-07-2019 17:10:00 25.4 C 43 % 11.92 C
1936 31-07-2019 17:15:00 25.6 C 43 % 12.1 C
1937 31-07-2019 17:20:00 25.7 C 43 % 12.19 C
1938 31-07-2019 17:25:00 25.4 C 43 % 11.92 C
1939 31-07-2019 17:30:00 25.2 C 41 % 11.02 C
1940 31-07-2019 17:35:00 25.2 C 42 % 11.38 C
1941 31-07-2019 17:40:00 25.1 C 43 % 11.65 C
1942 31-07-2019 17:45:00 25.1 C 43 % 11.65 C
1943 31-07-2019 17:50:00 25.2 C 43 % 11.74 C
1944 31-07-2019 17:55:00 25.2 C 43 % 11.74 C
1945 31-07-2019 18:00:00 24.8 C 44 % 11.72 C
1946 31-07-2019 18:05:00 24.4 C 45 % 11.7 C
1947 31-07-2019 18:10:00 24.2 C 46 % 11.85 C
1948 31-07-2019 18:15:00 23.9 C 46 % 11.58 C
1949 31-07-2019 18:20:00 23.8 C 48 % 12.14 C
1950 31-07-2019 18:25:00 23.7 C 47 % 11.73 C
Sensor: Nr:Datum:Temp:Feuchte:Taupunkt:
Aussen-T/F 1951 31-07-2019 18:30:00 23.7 C 47 % 11.73 C
1952 31-07-2019 18:35:00 23.6 C 48 % 11.95 C
1953 31-07-2019 18:40:00 23.6 C 50 % 12.57 C
1954 31-07-2019 18:45:00 23.6 C 48 % 11.95 C
1955 31-07-2019 18:50:00 23.6 C 48 % 11.95 C
1956 31-07-2019 18:55:00 23.6 C 48 % 11.95 C
1957 31-07-2019 19:00:00 23.6 C 48 % 11.95 C
1958 31-07-2019 19:05:00 23.7 C 47 % 11.73 C
1959 31-07-2019 19:10:00 23.9 C 48 % 12.23 C
1960 31-07-2019 19:15:00 24 C 48 % 12.32 C
1961 31-07-2019 19:20:00 23.9 C 50 % 12.85 C
1962 31-07-2019 19:25:00 23.7 C 50 % 12.67 C
1963 31-07-2019 19:30:00 23.4 C 50 % 12.39 C
1964 31-07-2019 19:35:00 23.3 C 46 % 11.04 C
1965 31-07-2019 19:40:00 23.2 C 45 % 10.62 C
1966 31-07-2019 19:45:00 23.2 C 46 % 10.95 C
1967 31-07-2019 19:50:00 23.1 C 51 % 12.42 C
1968 31-07-2019 19:55:00 22.9 C 53 % 12.82 C
1969 31-07-2019 20:00:00 22.8 C 53 % 12.73 C
1970 31-07-2019 20:05:00 22.7 C 53 % 12.63 C
1971 31-07-2019 20:10:00 22.4 C 53 % 12.36 C
1972 31-07-2019 20:15:00 22.3 C 54 % 12.55 C
1973 31-07-2019 20:20:00 22.2 C 54 % 12.45 C
1974 31-07-2019 20:25:00 22.2 C 56 % 13.01 C
1975 31-07-2019 20:30:00 22.2 C 57 % 13.28 C
Sensor: Nr:Datum:Temp:Feuchte:Taupunkt:
Aussen-T/F 1976 31-07-2019 20:35:00 22.1 C 57 % 13.19 C
1977 31-07-2019 20:40:00 21.9 C 57 % 13 C
1978 31-07-2019 20:45:00 21.7 C 58 % 13.08 C
1979 31-07-2019 20:50:00 21.4 C 58 % 12.8 C
1980 31-07-2019 20:55:00 21.2 C 59 % 12.87 C
1981 31-07-2019 21:00:00 21 C 60 % 12.94 C
1982 31-07-2019 21:05:00 20.8 C 60 % 12.76 C
1983 31-07-2019 21:10:00 20.7 C 61 % 12.91 C
1984 31-07-2019 21:15:00 20.4 C 60 % 12.38 C
1985 31-07-2019 21:20:00 20.2 C 60 % 12.19 C
1986 31-07-2019 21:25:00 20 C 60 % 12 C
1987 31-07-2019 21:30:00 19.8 C 59 % 11.56 C
1988 31-07-2019 21:35:00 19.6 C 59 % 11.37 C
1989 31-07-2019 21:40:00 19.4 C 59 % 11.19 C
1990 31-07-2019 21:45:00 19.2 C 59 % 11 C
1991 31-07-2019 21:50:00 19.1 C 59 % 10.91 C
1992 31-07-2019 21:55:00 18.9 C 60 % 10.97 C
1993 31-07-2019 22:00:00 18.8 C 60 % 10.88 C
1994 31-07-2019 22:05:00 18.7 C 61 % 11.03 C
1995 31-07-2019 22:10:00 18.7 C 60 % 10.78 C
1996 31-07-2019 22:15:00 18.6 C 61 % 10.94 C
1997 31-07-2019 22:20:00 18.6 C 61 % 10.94 C
1998 31-07-2019 22:25:00 18.6 C 61 % 10.94 C
1999 31-07-2019 22:30:00 18.6 C 61 % 10.94 C
2000 31-07-2019 22:35:00 18.6 C 61 % 10.94 C
Sensor: Nr:Datum:Temp:Feuchte:Taupunkt:
Aussen-T/F 2001 31-07-2019 22:40:00 18.7 C 62 % 11.28 C
2002 31-07-2019 22:45:00 18.7 C 62 % 11.28 C
2003 31-07-2019 22:50:00 18.8 C 61 % 11.13 C
2004 31-07-2019 22:55:00 18.8 C 61 % 11.13 C
2005 31-07-2019 23:00:00 18.9 C 61 % 11.22 C
2006 31-07-2019 23:05:00 18.9 C 61 % 11.22 C
2007 31-07-2019 23:10:00 18.9 C 61 % 11.22 C
2008 31-07-2019 23:15:00 18.8 C 62 % 11.37 C
2009 31-07-2019 23:20:00 18.8 C 62 % 11.37 C
2010 31-07-2019 23:25:00 18.7 C 62 % 11.28 C
2011 31-07-2019 23:30:00 18.5 C 63 % 11.33 C
2012 31-07-2019 23:35:00 18.4 C 63 % 11.23 C
2013 31-07-2019 23:40:00 18.2 C 64 % 11.28 C
2014 31-07-2019 23:45:00 17.9 C 65 % 11.23 C
2015 31-07-2019 23:50:00 17.8 C 66 % 11.37 C
2016 31-07-2019 23:55:00 17.6 C 67 % 11.4 C
2017 01-08-2019 00:00:00 17.4 C 68 % 11.44 C
2018 01-08-2019 00:05:00 17.3 C 69 % 11.56 C
2019 01-08-2019 00:10:00 17.2 C 69 % 11.47 C
2020 01-08-2019 00:15:00 17.1 C 70 % 11.59 C
2021 01-08-2019 00:20:00 17 C 70 % 11.49 C
2022 01-08-2019 00:25:00 16.9 C 71 % 11.61 C
2023 01-08-2019 00:30:00 16.9 C 71 % 11.61 C
2024 01-08-2019 00:35:00 16.8 C 70 % 11.3 C
2025 01-08-2019 00:40:00 16.7 C 71 % 11.42 C
Sensor: Nr:Datum:Temp:Feuchte:Taupunkt:
Aussen-T/F 2026 01-08-2019 00:45:00 16.6 C 71 % 11.32 C
2027 01-08-2019 00:50:00 16.4 C 71 % 11.13 C
2028 01-08-2019 00:55:00 16.3 C 72 % 11.25 C
2029 01-08-2019 01:00:00 16.1 C 73 % 11.26 C
2030 01-08-2019 01:05:00 15.9 C 73 % 11.07 C
2031 01-08-2019 01:10:00 15.8 C 74 % 11.18 C
2032 01-08-2019 01:15:00 15.7 C 75 % 11.28 C
2033 01-08-2019 01:20:00 15.6 C 75 % 11.19 C
2034 01-08-2019 01:25:00 15.6 C 75 % 11.19 C
2035 01-08-2019 01:30:00 15.4 C 75 % 11 C
2036 01-08-2019 01:35:00 15.4 C 75 % 11 C
2037 01-08-2019 01:40:00 15.3 C 76 % 11.1 C
2038 01-08-2019 01:45:00 15.2 C 76 % 11 C
2039 01-08-2019 01:50:00 15.2 C 76 % 11 C
2040 01-08-2019 01:55:00 15.1 C 77 % 11.1 C
2041 01-08-2019 02:00:00 15.1 C 77 % 11.1 C
2042 01-08-2019 02:05:00 14.9 C 77 % 10.91 C
2043 01-08-2019 02:10:00 14.9 C 78 % 11.1 C
2044 01-08-2019 02:15:00 14.8 C 78 % 11 C
2045 01-08-2019 02:20:00 14.8 C 79 % 11.2 C
2046 01-08-2019 02:25:00 14.7 C 79 % 11.1 C
2047 01-08-2019 02:30:00 14.6 C 79 % 11 C
2048 01-08-2019 02:35:00 14.6 C 80 % 11.19 C
2049 01-08-2019 02:40:00 14.6 C 80 % 11.19 C
2050 01-08-2019 02:45:00 14.6 C 80 % 11.19 C
Sensor: Nr:Datum:Temp:Feuchte:Taupunkt:
Aussen-T/F 2051 01-08-2019 02:50:00 14.6 C 80 % 11.19 C
2052 01-08-2019 02:55:00 14.6 C 80 % 11.19 C
2053 01-08-2019 03:00:00 14.6 C 81 % 11.38 C
2054 01-08-2019 03:05:00 14.6 C 81 % 11.38 C
2055 01-08-2019 03:10:00 14.7 C 80 % 11.29 C
2056 01-08-2019 03:15:00 14.6 C 80 % 11.19 C
2057 01-08-2019 03:20:00 14.5 C 80 % 11.09 C
2058 01-08-2019 03:25:00 14.3 C 80 % 10.9 C
2059 01-08-2019 03:30:00 14.2 C 81 % 10.99 C
2060 01-08-2019 03:35:00 14 C 81 % 10.79 C
2061 01-08-2019 03:40:00 13.8 C 81 % 10.6 C
2062 01-08-2019 03:45:00 13.7 C 82 % 10.69 C
2063 01-08-2019 03:50:00 13.5 C 82 % 10.49 C
2064 01-08-2019 03:55:00 13.4 C 83 % 10.57 C
2065 01-08-2019 04:00:00 13.3 C 83 % 10.48 C
2066 01-08-2019 04:05:00 13.2 C 83 % 10.38 C
2067 01-08-2019 04:10:00 13.1 C 84 % 10.46 C
2068 01-08-2019 04:15:00 13 C 84 % 10.36 C
2069 01-08-2019 04:20:00 13 C 85 % 10.54 C
2070 01-08-2019 04:25:00 12.9 C 85 % 10.44 C
2071 01-08-2019 04:30:00 12.9 C 85 % 10.44 C
2072 01-08-2019 04:35:00 12.8 C 86 % 10.52 C
2073 01-08-2019 04:40:00 12.8 C 86 % 10.52 C
2074 01-08-2019 04:45:00 12.9 C 86 % 10.62 C
2075 01-08-2019 04:50:00 12.8 C 86 % 10.52 C
Sensor: Nr:Datum:Temp:Feuchte:Taupunkt:
Aussen-T/F 2076 01-08-2019 04:55:00 12.8 C 86 % 10.52 C
2077 01-08-2019 05:00:00 12.8 C 86 % 10.52 C
2078 01-08-2019 05:05:00 12.8 C 86 % 10.52 C
2079 01-08-2019 05:10:00 12.7 C 86 % 10.42 C
2080 01-08-2019 05:15:00 12.7 C 87 % 10.59 C
2081 01-08-2019 05:20:00 12.6 C 87 % 10.5 C
2082 01-08-2019 05:25:00 12.6 C 87 % 10.5 C
2083 01-08-2019 05:30:00 12.7 C 88 % 10.77 C
2084 01-08-2019 05:35:00 12.7 C 87 % 10.59 C
2085 01-08-2019 05:40:00 12.6 C 87 % 10.5 C
2086 01-08-2019 05:45:00 12.5 C 87 % 10.4 C
2087 01-08-2019 05:50:00 12.4 C 87 % 10.3 C
2088 01-08-2019 05:55:00 12.4 C 87 % 10.3 C
2089 01-08-2019 06:00:00 12.3 C 88 % 10.37 C
2090 01-08-2019 06:05:00 12.3 C 88 % 10.37 C
2091 01-08-2019 06:10:00 12.2 C 88 % 10.27 C
2092 01-08-2019 06:15:00 12.2 C 88 % 10.27 C
2093 01-08-2019 06:20:00 12.1 C 88 % 10.17 C
2094 01-08-2019 06:25:00 12.1 C 89 % 10.34 C
2095 01-08-2019 06:30:00 12.1 C 88 % 10.17 C
2096 01-08-2019 06:35:00 12 C 89 % 10.25 C
2097 01-08-2019 06:40:00 12 C 89 % 10.25 C
2098 01-08-2019 06:45:00 12 C 89 % 10.25 C
2099 01-08-2019 06:50:00 12.1 C 89 % 10.34 C
2100 01-08-2019 06:55:00 12.1 C 89 % 10.34 C
Sensor: Nr:Datum:Temp:Feuchte:Taupunkt:
Aussen-T/F 2101 01-08-2019 07:00:00 12.1 C 89 % 10.34 C
2102 01-08-2019 07:05:00 12.1 C 89 % 10.34 C
2103 01-08-2019 07:10:00 12.1 C 89 % 10.34 C
2104 01-08-2019 07:15:00 12.2 C 89 % 10.44 C
2105 01-08-2019 07:20:00 12.2 C 89 % 10.44 C
2106 01-08-2019 07:25:00 12.2 C 90 % 10.61 C
2107 01-08-2019 07:30:00 12.3 C 90 % 10.71 C
2108 01-08-2019 07:35:00 12.5 C 90 % 10.91 C
2109 01-08-2019 07:40:00 12.8 C 90 % 11.2 C
2110 01-08-2019 07:45:00 13.1 C 89 % 11.33 C
2111 01-08-2019 07:50:00 13.4 C 88 % 11.45 C
2112 01-08-2019 07:55:00 13.7 C 88 % 11.75 C
2113 01-08-2019 08:00:00 13.9 C 87 % 11.77 C
2114 01-08-2019 08:05:00 14.2 C 86 % 11.89 C
2115 01-08-2019 08:10:00 14.4 C 85 % 11.91 C
2116 01-08-2019 08:15:00 14.7 C 83 % 11.85 C
2117 01-08-2019 08:20:00 15 C 83 % 12.14 C
2118 01-08-2019 08:25:00 15.2 C 81 % 11.96 C
2119 01-08-2019 08:30:00 15.3 C 80 % 11.87 C
2120 01-08-2019 08:35:00 15.5 C 80 % 12.07 C
2121 01-08-2019 08:40:00 15.7 C 79 % 12.07 C
2122 01-08-2019 08:45:00 15.8 C 79 % 12.17 C
2123 01-08-2019 08:50:00 16.1 C 78 % 12.27 C
2124 01-08-2019 08:55:00 16.3 C 77 % 12.26 C
2125 01-08-2019 09:00:00 16.6 C 77 % 12.55 C
Sensor: Nr:Datum:Temp:Feuchte:Taupunkt:
Aussen-T/F 2126 01-08-2019 09:05:00 16.9 C 76 % 12.65 C
2127 01-08-2019 09:10:00 17.2 C 75 % 12.73 C
2128 01-08-2019 09:15:00 17.3 C 75 % 12.83 C
2129 01-08-2019 09:20:00 17.4 C 74 % 12.72 C
2130 01-08-2019 09:25:00 17.5 C 74 % 12.82 C
2131 01-08-2019 09:30:00 17.6 C 73 % 12.71 C
2132 01-08-2019 09:35:00 17.6 C 73 % 12.71 C
2133 01-08-2019 09:40:00 17.7 C 73 % 12.8 C
2134 01-08-2019 09:45:00 18 C 72 % 12.88 C
2135 01-08-2019 09:50:00 18.3 C 71 % 12.95 C
2136 01-08-2019 09:55:00 18.7 C 70 % 13.12 C
2137 01-08-2019 10:00:00 19.2 C 68 % 13.15 C
2138 01-08-2019 10:05:00 19.4 C 67 % 13.12 C
2139 01-08-2019 10:10:00 19.7 C 65 % 12.94 C
2140 01-08-2019 10:15:00 20 C 63 % 12.75 C
2141 01-08-2019 10:20:00 20.2 C 63 % 12.94 C
2142 01-08-2019 10:25:00 20.3 C 62 % 12.79 C
2143 01-08-2019 10:30:00 20.5 C 60 % 12.47 C
2144 01-08-2019 10:35:00 20.6 C 61 % 12.82 C
2145 01-08-2019 10:40:00 20.7 C 61 % 12.91 C
2146 01-08-2019 10:45:00 20.8 C 62 % 13.26 C
2147 01-08-2019 10:50:00 21.1 C 59 % 12.78 C
2148 01-08-2019 10:55:00 21.1 C 58 % 12.52 C
2149 01-08-2019 11:00:00 21.2 C 57 % 12.35 C
2150 01-08-2019 11:05:00 21.2 C 57 % 12.35 C
Sensor: Nr:Datum:Temp:Feuchte:Taupunkt:
Aussen-T/F 2151 01-08-2019 11:10:00 21.3 C 57 % 12.44 C
2152 01-08-2019 11:15:00 21.4 C 58 % 12.8 C
2153 01-08-2019 11:20:00 21.6 C 57 % 12.72 C
2154 01-08-2019 11:25:00 21.7 C 56 % 12.54 C
2155 01-08-2019 11:30:00 21.9 C 55 % 12.46 C
2156 01-08-2019 11:35:00 22.1 C 54 % 12.36 C
2157 01-08-2019 11:40:00 22 C 55 % 12.55 C
2158 01-08-2019 11:45:00 22.2 C 55 % 12.73 C
2159 01-08-2019 11:50:00 22.3 C 54 % 12.55 C
2160 01-08-2019 11:55:00 22.4 C 54 % 12.64 C
2161 01-08-2019 12:00:00 22.4 C 54 % 12.64 C
2162 01-08-2019 12:05:00 22.6 C 53 % 12.54 C
2163 01-08-2019 12:10:00 22.6 C 53 % 12.54 C
2164 01-08-2019 12:15:00 22.6 C 53 % 12.54 C
2165 01-08-2019 12:20:00 22.7 C 53 % 12.63 C
2166 01-08-2019 12:25:00 22.8 C 52 % 12.43 C
2167 01-08-2019 12:30:00 22.7 C 53 % 12.63 C
2168 01-08-2019 12:35:00 22.4 C 53 % 12.36 C
2169 01-08-2019 12:40:00 22.2 C 54 % 12.45 C
2170 01-08-2019 12:45:00 22.1 C 55 % 12.64 C
2171 01-08-2019 12:50:00 22.1 C 55 % 12.64 C
2172 01-08-2019 12:55:00 22.2 C 54 % 12.45 C
2173 01-08-2019 13:00:00 22.3 C 55 % 12.83 C
2174 01-08-2019 13:05:00 22.6 C 55 % 13.11 C
2175 01-08-2019 13:10:00 22.8 C 53 % 12.73 C
Sensor: Nr:Datum:Temp:Feuchte:Taupunkt:
Aussen-T/F 2176 01-08-2019 13:15:00 23.1 C 52 % 12.71 C
2177 01-08-2019 13:20:00 23.1 C 52 % 12.71 C
2178 01-08-2019 13:25:00 23.1 C 52 % 12.71 C
2179 01-08-2019 13:30:00 23.2 C 54 % 13.38 C
2180 01-08-2019 13:35:00 23.2 C 54 % 13.38 C
2181 01-08-2019 13:40:00 23.3 C 54 % 13.47 C
2182 01-08-2019 13:45:00 23.6 C 53 % 13.46 C
2183 01-08-2019 13:50:00 23.8 C 51 % 13.06 C
2184 01-08-2019 13:55:00 23.9 C 51 % 13.15 C
2185 01-08-2019 14:00:00 23.9 C 50 % 12.85 C
2186 01-08-2019 14:05:00 24.1 C 50 % 13.03 C
2187 01-08-2019 14:10:00 24.1 C 49 % 12.72 C
2188 01-08-2019 14:15:00 24.1 C 49 % 12.72 C
2189 01-08-2019 14:20:00 24.1 C 51 % 13.34 C
2190 01-08-2019 14:25:00 24.2 C 49 % 12.81 C
2191 01-08-2019 14:30:00 24.2 C 49 % 12.81 C
2192 01-08-2019 14:35:00 24.2 C 49 % 12.81 C
2193 01-08-2019 14:40:00 24.2 C 50 % 13.12 C
2194 01-08-2019 14:45:00 24.2 C 49 % 12.81 C
2195 01-08-2019 14:50:00 24.2 C 49 % 12.81 C
2196 01-08-2019 14:55:00 24.3 C 49 % 12.91 C
2197 01-08-2019 15:00:00 24.4 C 50 % 13.31 C
2198 01-08-2019 15:05:00 24.5 C 48 % 12.77 C
2199 01-08-2019 15:10:00 24.6 C 49 % 13.18 C
2200 01-08-2019 15:15:00 24.7 C 48 % 12.96 C
Sensor: Nr:Datum:Temp:Feuchte:Taupunkt:
Aussen-T/F 2201 01-08-2019 15:20:00 24.8 C 48 % 13.05 C
2202 01-08-2019 15:25:00 24.8 C 49 % 13.36 C
2203 01-08-2019 15:30:00 24.7 C 48 % 12.96 C
2204 01-08-2019 15:35:00 24.7 C 49 % 13.27 C
2205 01-08-2019 15:40:00 24.6 C 49 % 13.18 C
2206 01-08-2019 15:45:00 24.5 C 49 % 13.09 C
2207 01-08-2019 15:50:00 24.3 C 50 % 13.22 C
2208 01-08-2019 15:55:00 24.3 C 50 % 13.22 C
2209 01-08-2019 16:00:00 24.2 C 51 % 13.43 C
2210 01-08-2019 16:05:00 24.2 C 51 % 13.43 C
2211 01-08-2019 16:10:00 24.2 C 51 % 13.43 C
2212 01-08-2019 16:15:00 24.2 C 51 % 13.43 C
2213 01-08-2019 16:20:00 24.2 C 51 % 13.43 C
2214 01-08-2019 16:25:00 24.2 C 51 % 13.43 C
2215 01-08-2019 16:30:00 24.3 C 51 % 13.52 C
2216 01-08-2019 16:35:00 24.4 C 51 % 13.61 C
2217 01-08-2019 16:40:00 24.6 C 49 % 13.18 C
2218 01-08-2019 16:45:00 24.7 C 48 % 12.96 C
2219 01-08-2019 16:50:00 24.8 C 48 % 13.05 C
2220 01-08-2019 16:55:00 24.8 C 47 % 12.73 C
2221 01-08-2019 17:00:00 24.8 C 47 % 12.73 C
2222 01-08-2019 17:05:00 25 C 48 % 13.23 C
2223 01-08-2019 17:10:00 25 C 48 % 13.23 C
2224 01-08-2019 17:15:00 24.8 C 47 % 12.73 C
2225 01-08-2019 17:20:00 24.8 C 48 % 13.05 C
Sensor: Nr:Datum:Temp:Feuchte:Taupunkt:
Aussen-T/F 2226 01-08-2019 17:25:00 24.8 C 49 % 13.36 C
2227 01-08-2019 17:30:00 24.7 C 49 % 13.27 C
2228 01-08-2019 17:35:00 25 C 49 % 13.55 C
2229 01-08-2019 17:40:00 25.4 C 47 % 13.27 C
2230 01-08-2019 17:45:00 25.5 C 47 % 13.36 C
2231 01-08-2019 17:50:00 25.7 C 47 % 13.55 C
2232 01-08-2019 17:55:00 26.1 C 46 % 13.58 C
2233 01-08-2019 18:00:00 26.6 C 46 % 14.03 C
2234 01-08-2019 18:05:00 26.9 C 44 % 13.62 C
2235 01-08-2019 18:10:00 26.7 C 44 % 13.44 C
2236 01-08-2019 18:15:00 26.4 C 46 % 13.85 C
2237 01-08-2019 18:20:00 26.2 C 45 % 13.33 C
2238 01-08-2019 18:25:00 25.8 C 45 % 12.97 C
2239 01-08-2019 18:30:00 25.7 C 46 % 13.22 C
2240 01-08-2019 18:35:00 25.6 C 46 % 13.12 C
2241 01-08-2019 18:40:00 26.1 C 46 % 13.58 C
2242 01-08-2019 18:45:00 26.6 C 44 % 13.35 C
2243 01-08-2019 18:50:00 26.8 C 43 % 13.18 C
2244 01-08-2019 18:55:00 26.8 C 42 % 12.82 C
2245 01-08-2019 19:00:00 26.8 C 43 % 13.18 C
2246 01-08-2019 19:05:00 26.8 C 43 % 13.18 C
2247 01-08-2019 19:10:00 26.8 C 44 % 13.53 C
2248 01-08-2019 19:15:00 26.7 C 44 % 13.44 C
2249 01-08-2019 19:20:00 26.6 C 45 % 13.69 C
2250 01-08-2019 19:25:00 26.4 C 45 % 13.51 C
Sensor: Nr:Datum:Temp:Feuchte:Taupunkt:
Aussen-T/F 2251 01-08-2019 19:30:00 26.3 C 45 % 13.42 C
2252 01-08-2019 19:35:00 26.1 C 46 % 13.58 C
2253 01-08-2019 19:40:00 25.9 C 46 % 13.4 C
2254 01-08-2019 19:45:00 25.7 C 47 % 13.55 C
2255 01-08-2019 19:50:00 25.6 C 47 % 13.45 C
2256 01-08-2019 19:55:00 25.5 C 47 % 13.36 C
2257 01-08-2019 20:00:00 25.4 C 48 % 13.6 C
2258 01-08-2019 20:05:00 25.2 C 51 % 14.35 C
2259 01-08-2019 20:10:00 24.9 C 52 % 14.37 C
2260 01-08-2019 20:15:00 24.6 C 52 % 14.09 C
2261 01-08-2019 20:20:00 24.4 C 53 % 14.2 C
2262 01-08-2019 20:25:00 24.2 C 54 % 14.31 C
2263 01-08-2019 20:30:00 24 C 53 % 13.83 C
2264 01-08-2019 20:35:00 23.9 C 55 % 14.31 C
2265 01-08-2019 20:40:00 23.7 C 56 % 14.4 C
2266 01-08-2019 20:45:00 23.4 C 57 % 14.4 C
2267 01-08-2019 20:50:00 23 C 57 % 14.03 C
2268 01-08-2019 20:55:00 22.6 C 58 % 13.92 C
2269 01-08-2019 21:00:00 22.3 C 59 % 13.9 C
2270 01-08-2019 21:05:00 22.1 C 60 % 13.98 C
2271 01-08-2019 21:10:00 21.8 C 60 % 13.69 C
2272 01-08-2019 21:15:00 21.6 C 61 % 13.76 C
2273 01-08-2019 21:20:00 21.3 C 62 % 13.73 C
2274 01-08-2019 21:25:00 21.1 C 62 % 13.54 C
2275 01-08-2019 21:30:00 20.9 C 63 % 13.6 C
Sensor: Nr:Datum:Temp:Feuchte:Taupunkt:
Aussen-T/F 2276 01-08-2019 21:35:00 20.8 C 64 % 13.74 C
2277 01-08-2019 21:40:00 20.7 C 64 % 13.65 C
2278 01-08-2019 21:45:00 20.5 C 65 % 13.7 C
2279 01-08-2019 21:50:00 20.4 C 66 % 13.84 C
2280 01-08-2019 21:55:00 20.3 C 66 % 13.74 C
2281 01-08-2019 22:00:00 20.3 C 66 % 13.74 C
2282 01-08-2019 22:05:00 20.2 C 67 % 13.88 C
2283 01-08-2019 22:10:00 20.1 C 67 % 13.78 C
2284 01-08-2019 22:15:00 19.9 C 67 % 13.59 C
2285 01-08-2019 22:20:00 19.8 C 68 % 13.73 C
2286 01-08-2019 22:25:00 19.7 C 68 % 13.63 C
2287 01-08-2019 22:30:00 19.6 C 67 % 13.31 C
2288 01-08-2019 22:35:00 19.6 C 68 % 13.54 C
2289 01-08-2019 22:40:00 19.5 C 68 % 13.44 C
2290 01-08-2019 22:45:00 19.5 C 68 % 13.44 C
2291 01-08-2019 22:50:00 19.5 C 69 % 13.66 C
2292 01-08-2019 22:55:00 19.5 C 69 % 13.66 C
2293 01-08-2019 23:00:00 19.5 C 68 % 13.44 C
2294 01-08-2019 23:05:00 19.4 C 68 % 13.34 C
2295 01-08-2019 23:10:00 19.4 C 68 % 13.34 C
2296 01-08-2019 23:15:00 19.3 C 68 % 13.25 C
2297 01-08-2019 23:20:00 19.3 C 69 % 13.47 C
2298 01-08-2019 23:25:00 19.2 C 70 % 13.6 C
2299 01-08-2019 23:30:00 19.2 C 70 % 13.6 C
2300 01-08-2019 23:35:00 19.2 C 70 % 13.6 C
Sensor: Nr:Datum:Temp:Feuchte:Taupunkt:
Aussen-T/F 2301 01-08-2019 23:40:00 19.1 C 71 % 13.72 C
2302 01-08-2019 23:45:00 19.1 C 71 % 13.72 C
2303 01-08-2019 23:50:00 19.1 C 71 % 13.72 C
2304 01-08-2019 23:55:00 19.1 C 71 % 13.72 C
2305 02-08-2019 00:00:00 19.1 C 72 % 13.94 C
2306 02-08-2019 00:05:00 19.1 C 72 % 13.94 C
2307 02-08-2019 00:10:00 19 C 72 % 13.84 C
2308 02-08-2019 00:15:00 18.9 C 72 % 13.74 C
2309 02-08-2019 00:20:00 18.9 C 73 % 13.96 C
2310 02-08-2019 00:25:00 18.8 C 73 % 13.86 C
2311 02-08-2019 00:30:00 18.8 C 73 % 13.86 C
2312 02-08-2019 00:35:00 18.7 C 74 % 13.97 C
2313 02-08-2019 00:40:00 18.7 C 74 % 13.97 C
2314 02-08-2019 00:45:00 18.6 C 74 % 13.88 C
2315 02-08-2019 00:50:00 18.6 C 75 % 14.08 C
2316 02-08-2019 00:55:00 18.6 C 75 % 14.08 C
2317 02-08-2019 01:00:00 18.5 C 75 % 13.99 C
2318 02-08-2019 01:05:00 18.5 C 75 % 13.99 C
2319 02-08-2019 01:10:00 18.5 C 75 % 13.99 C
2320 02-08-2019 01:15:00 18.4 C 75 % 13.89 C
2321 02-08-2019 01:20:00 18.4 C 75 % 13.89 C
2322 02-08-2019 01:25:00 18.4 C 76 % 14.1 C
2323 02-08-2019 01:30:00 18.3 C 76 % 14 C
2324 02-08-2019 01:35:00 18.3 C 75 % 13.79 C
2325 02-08-2019 01:40:00 18.3 C 77 % 14.2 C
Sensor: Nr:Datum:Temp:Feuchte:Taupunkt:
Aussen-T/F 2326 02-08-2019 01:45:00 18.2 C 77 % 14.1 C
2327 02-08-2019 01:50:00 18.2 C 76 % 13.9 C
2328 02-08-2019 01:55:00 18.1 C 76 % 13.81 C
2329 02-08-2019 02:00:00 18.1 C 76 % 13.81 C
2330 02-08-2019 02:05:00 18.1 C 76 % 13.81 C
2331 02-08-2019 02:10:00 18 C 77 % 13.91 C
2332 02-08-2019 02:15:00 18 C 76 % 13.71 C
2333 02-08-2019 02:20:00 17.9 C 77 % 13.81 C
2334 02-08-2019 02:25:00 17.9 C 77 % 13.81 C
2335 02-08-2019 02:30:00 17.9 C 77 % 13.81 C
2336 02-08-2019 02:35:00 17.8 C 77 % 13.72 C
2337 02-08-2019 02:40:00 17.8 C 77 % 13.72 C
2338 02-08-2019 02:45:00 17.7 C 77 % 13.62 C
2339 02-08-2019 02:50:00 17.6 C 77 % 13.52 C
2340 02-08-2019 02:55:00 17.6 C 78 % 13.72 C
2341 02-08-2019 03:00:00 17.4 C 78 % 13.53 C
2342 02-08-2019 03:05:00 17.3 C 78 % 13.43 C
2343 02-08-2019 03:10:00 17.2 C 79 % 13.53 C
2344 02-08-2019 03:15:00 17.1 C 79 % 13.43 C
2345 02-08-2019 03:20:00 17.1 C 80 % 13.62 C
2346 02-08-2019 03:25:00 16.9 C 80 % 13.43 C
2347 02-08-2019 03:30:00 16.8 C 80 % 13.33 C
2348 02-08-2019 03:35:00 16.8 C 80 % 13.33 C
2349 02-08-2019 03:40:00 16.7 C 80 % 13.23 C
2350 02-08-2019 03:45:00 16.7 C 80 % 13.23 C
Sensor: Nr:Datum:Temp:Feuchte:Taupunkt:
Aussen-T/F 2351 02-08-2019 03:50:00 16.7 C 81 % 13.43 C
2352 02-08-2019 03:55:00 16.6 C 81 % 13.33 C
2353 02-08-2019 04:00:00 16.6 C 81 % 13.33 C
2354 02-08-2019 04:05:00 16.5 C 82 % 13.42 C
2355 02-08-2019 04:10:00 16.4 C 82 % 13.32 C
2356 02-08-2019 04:15:00 16.4 C 82 % 13.32 C
2357 02-08-2019 04:20:00 16.3 C 82 % 13.22 C
2358 02-08-2019 04:25:00 16.3 C 82 % 13.22 C
2359 02-08-2019 04:30:00 16.3 C 83 % 13.41 C
2360 02-08-2019 04:35:00 16.2 C 83 % 13.31 C
2361 02-08-2019 04:40:00 16.2 C 84 % 13.5 C
2362 02-08-2019 04:45:00 16.2 C 83 % 13.31 C
2363 02-08-2019 04:50:00 16.2 C 83 % 13.31 C
2364 02-08-2019 04:55:00 16.2 C 83 % 13.31 C
2365 02-08-2019 05:00:00 16.2 C 84 % 13.5 C
2366 02-08-2019 05:05:00 16.2 C 83 % 13.31 C
2367 02-08-2019 05:10:00 16.2 C 83 % 13.31 C
2368 02-08-2019 05:15:00 16.2 C 83 % 13.31 C
2369 02-08-2019 05:20:00 16.2 C 83 % 13.31 C
2370 02-08-2019 05:25:00 16.2 C 84 % 13.5 C
2371 02-08-2019 05:30:00 16.2 C 84 % 13.5 C
2372 02-08-2019 05:35:00 16.2 C 84 % 13.5 C
2373 02-08-2019 05:40:00 16.2 C 84 % 13.5 C
2374 02-08-2019 05:45:00 16.2 C 84 % 13.5 C
2375 02-08-2019 05:50:00 16.2 C 84 % 13.5 C
Sensor: Nr:Datum:Temp:Feuchte:Taupunkt:
Aussen-T/F 2376 02-08-2019 05:55:00 16.2 C 84 % 13.5 C
2377 02-08-2019 06:00:00 16.2 C 85 % 13.68 C
2378 02-08-2019 06:05:00 16.2 C 85 % 13.68 C
2379 02-08-2019 06:10:00 16.2 C 85 % 13.68 C
2380 02-08-2019 06:15:00 16.2 C 85 % 13.68 C
2381 02-08-2019 06:20:00 16.2 C 85 % 13.68 C
2382 02-08-2019 06:25:00 16.2 C 85 % 13.68 C
2383 02-08-2019 06:30:00 16.2 C 85 % 13.68 C
2384 02-08-2019 06:35:00 16.3 C 85 % 13.77 C
2385 02-08-2019 06:40:00 16.3 C 85 % 13.77 C
2386 02-08-2019 06:45:00 16.3 C 85 % 13.77 C
2387 02-08-2019 06:50:00 16.3 C 85 % 13.77 C
2388 02-08-2019 06:55:00 16.4 C 85 % 13.87 C
2389 02-08-2019 07:00:00 16.4 C 85 % 13.87 C
2390 02-08-2019 07:05:00 16.5 C 85 % 13.97 C
2391 02-08-2019 07:10:00 16.6 C 85 % 14.07 C
2392 02-08-2019 07:15:00 16.7 C 85 % 14.17 C
2393 02-08-2019 07:20:00 16.8 C 85 % 14.26 C
2394 02-08-2019 07:25:00 16.9 C 85 % 14.36 C
2395 02-08-2019 07:30:00 17 C 84 % 14.28 C
2396 02-08-2019 07:35:00 17.1 C 84 % 14.38 C
2397 02-08-2019 07:40:00 17.2 C 84 % 14.47 C
2398 02-08-2019 07:45:00 17.2 C 84 % 14.47 C
2399 02-08-2019 07:50:00 17.3 C 84 % 14.57 C
2400 02-08-2019 07:55:00 17.4 C 84 % 14.67 C
Sensor: Nr:Datum:Temp:Feuchte:Taupunkt:
Aussen-T/F 2401 02-08-2019 08:00:00 17.5 C 83 % 14.58 C
2402 02-08-2019 08:05:00 17.6 C 83 % 14.68 C
2403 02-08-2019 08:10:00 17.6 C 83 % 14.68 C
2404 02-08-2019 08:15:00 17.7 C 83 % 14.78 C
2405 02-08-2019 08:20:00 17.8 C 82 % 14.69 C
2406 02-08-2019 08:25:00 17.9 C 83 % 14.97 C
2407 02-08-2019 08:30:00 18 C 82 % 14.88 C
2408 02-08-2019 08:35:00 18.1 C 82 % 14.98 C
2409 02-08-2019 08:40:00 18.2 C 82 % 15.08 C
2410 02-08-2019 08:45:00 18.2 C 82 % 15.08 C
2411 02-08-2019 08:50:00 18.3 C 82 % 15.17 C
2412 02-08-2019 08:55:00 18.3 C 81 % 14.98 C
2413 02-08-2019 09:00:00 18.4 C 82 % 15.27 C
2414 02-08-2019 09:05:00 18.6 C 81 % 15.28 C
2415 02-08-2019 09:10:00 18.7 C 80 % 15.18 C
2416 02-08-2019 09:15:00 18.8 C 79 % 15.08 C
2417 02-08-2019 09:20:00 19 C 79 % 15.28 C
2418 02-08-2019 09:25:00 19.2 C 78 % 15.27 C
2419 02-08-2019 09:30:00 19.4 C 78 % 15.47 C
2420 02-08-2019 09:35:00 19.7 C 77 % 15.56 C
2421 02-08-2019 09:40:00 19.9 C 76 % 15.54 C
2422 02-08-2019 09:45:00 20.1 C 76 % 15.74 C
2423 02-08-2019 09:50:00 20.2 C 75 % 15.63 C
2424 02-08-2019 09:55:00 20.2 C 74 % 15.42 C
2425 02-08-2019 10:00:00 20.3 C 74 % 15.51 C
Sensor: Nr:Datum:Temp:Feuchte:Taupunkt:
Aussen-T/F 2426 02-08-2019 10:05:00 20.3 C 74 % 15.51 C
2427 02-08-2019 10:10:00 20.4 C 74 % 15.61 C
2428 02-08-2019 10:15:00 20.5 C 74 % 15.71 C
2429 02-08-2019 10:20:00 20.6 C 73 % 15.59 C
2430 02-08-2019 10:25:00 20.7 C 73 % 15.69 C
2431 02-08-2019 10:30:00 20.8 C 72 % 15.57 C
2432 02-08-2019 10:35:00 20.8 C 71 % 15.35 C
2433 02-08-2019 10:40:00 20.9 C 71 % 15.45 C
2434 02-08-2019 10:45:00 21 C 70 % 15.32 C
2435 02-08-2019 10:50:00 21.1 C 71 % 15.64 C
2436 02-08-2019 10:55:00 21.2 C 69 % 15.29 C
2437 02-08-2019 11:00:00 21.4 C 69 % 15.48 C
2438 02-08-2019 11:05:00 21.7 C 67 % 15.31 C
2439 02-08-2019 11:10:00 21.7 C 67 % 15.31 C
2440 02-08-2019 11:15:00 21.8 C 66 % 15.17 C
2441 02-08-2019 11:20:00 21.9 C 66 % 15.26 C
2442 02-08-2019 11:25:00 22.1 C 65 % 15.21 C
2443 02-08-2019 11:30:00 22.3 C 64 % 15.16 C
2444 02-08-2019 11:35:00 22.5 C 63 % 15.11 C
2445 02-08-2019 11:40:00 22.6 C 63 % 15.2 C
2446 02-08-2019 11:45:00 22.6 C 63 % 15.2 C
2447 02-08-2019 11:50:00 22.7 C 62 % 15.05 C
2448 02-08-2019 11:55:00 22.7 C 63 % 15.3 C
2449 02-08-2019 12:00:00 22.6 C 67 % 16.16 C
2450 02-08-2019 12:05:00 22.5 C 73 % 17.42 C
Sensor: Nr:Datum:Temp:Feuchte:Taupunkt:
Aussen-T/F 2451 02-08-2019 12:10:00 22.3 C 76 % 17.86 C
2452 02-08-2019 12:15:00 21.9 C 75 % 17.27 C
2453 02-08-2019 12:20:00 21.4 C 74 % 16.57 C
2454 02-08-2019 12:25:00 21.2 C 76 % 16.8 C
2455 02-08-2019 12:30:00 20.8 C 78 % 16.82 C
2456 02-08-2019 12:35:00 20.7 C 79 % 16.93 C
2457 02-08-2019 12:40:00 20.6 C 80 % 17.03 C
2458 02-08-2019 12:45:00 20.5 C 78 % 16.53 C
2459 02-08-2019 12:50:00 20.4 C 76 % 16.03 C
2460 02-08-2019 12:55:00 20.4 C 74 % 15.61 C
2461 02-08-2019 13:00:00 20.4 C 75 % 15.82 C
2462 02-08-2019 13:05:00 20.5 C 71 % 15.06 C
2463 02-08-2019 13:10:00 20.7 C 75 % 16.11 C
2464 02-08-2019 13:15:00 20.7 C 72 % 15.47 C
2465 02-08-2019 13:20:00 20.8 C 72 % 15.57 C
2466 02-08-2019 13:25:00 20.9 C 71 % 15.45 C
2467 02-08-2019 13:30:00 21.1 C 71 % 15.64 C
2468 02-08-2019 13:35:00 21.4 C 69 % 15.48 C
2469 02-08-2019 13:40:00 21.6 C 70 % 15.89 C
2470 02-08-2019 13:45:00 21.7 C 70 % 15.99 C
2471 02-08-2019 13:50:00 21.8 C 71 % 16.31 C
2472 02-08-2019 13:55:00 21.9 C 68 % 15.73 C
2473 02-08-2019 14:00:00 22 C 65 % 15.12 C
2474 02-08-2019 14:05:00 22.1 C 64 % 14.97 C
2475 02-08-2019 14:10:00 22.3 C 63 % 14.92 C
Sensor: Nr:Datum:Temp:Feuchte:Taupunkt:
Aussen-T/F 2476 02-08-2019 14:15:00 22.5 C 62 % 14.86 C
2477 02-08-2019 14:20:00 22.8 C 61 % 14.89 C
2478 02-08-2019 14:25:00 23 C 62 % 15.33 C
2479 02-08-2019 14:30:00 23.3 C 61 % 15.36 C
2480 02-08-2019 14:35:00 23.5 C 62 % 15.8 C
2481 02-08-2019 14:40:00 23.8 C 61 % 15.83 C
2482 02-08-2019 14:45:00 24.1 C 59 % 15.59 C
2483 02-08-2019 14:50:00 24.2 C 61 % 16.2 C
2484 02-08-2019 14:55:00 24.4 C 60 % 16.13 C
2485 02-08-2019 15:00:00 24.5 C 59 % 15.96 C
2486 02-08-2019 15:05:00 24.5 C 59 % 15.96 C
2487 02-08-2019 15:10:00 24.7 C 58 % 15.88 C
2488 02-08-2019 15:15:00 24.8 C 57 % 15.7 C
2489 02-08-2019 15:20:00 24.8 C 55 % 15.15 C
2490 02-08-2019 15:25:00 24.7 C 55 % 15.05 C
2491 02-08-2019 15:30:00 24.5 C 56 % 15.15 C
2492 02-08-2019 15:35:00 24.4 C 57 % 15.33 C
2493 02-08-2019 15:40:00 24.4 C 55 % 14.78 C
2494 02-08-2019 15:45:00 24.4 C 56 % 15.06 C
2495 02-08-2019 15:50:00 24.6 C 54 % 14.68 C
2496 02-08-2019 15:55:00 24.7 C 55 % 15.05 C
2497 02-08-2019 16:00:00 25.2 C 53 % 14.94 C
2498 02-08-2019 16:05:00 25.5 C 52 % 14.92 C
2499 02-08-2019 16:10:00 25.6 C 51 % 14.71 C
2500 02-08-2019 16:15:00 25.6 C 52 % 15.02 C
Sensor: Nr:Datum:Temp:Feuchte:Taupunkt:
Aussen-T/F 2501 02-08-2019 16:20:00 26.1 C 51 % 15.17 C
2502 02-08-2019 16:25:00 26.2 C 50 % 14.96 C
2503 02-08-2019 16:30:00 26.1 C 49 % 14.55 C
2504 02-08-2019 16:35:00 25.7 C 50 % 14.5 C
2505 02-08-2019 16:40:00 25.4 C 52 % 14.83 C
2506 02-08-2019 16:45:00 25.3 C 52 % 14.74 C
2507 02-08-2019 16:50:00 25.2 C 51 % 14.35 C
2508 02-08-2019 16:55:00 25.2 C 50 % 14.04 C
2509 02-08-2019 17:00:00 25.4 C 51 % 14.53 C
2510 02-08-2019 17:05:00 26.1 C 48 % 14.23 C
2511 02-08-2019 17:10:00 26.7 C 46 % 14.12 C
2512 02-08-2019 17:15:00 27.1 C 46 % 14.49 C
2513 02-08-2019 17:20:00 27.3 C 44 % 13.98 C
2514 02-08-2019 17:25:00 27.3 C 44 % 13.98 C
2515 02-08-2019 17:30:00 27.5 C 45 % 14.51 C
2516 02-08-2019 17:35:00 27.4 C 43 % 13.72 C
2517 02-08-2019 17:40:00 27 C 44 % 13.71 C
2518 02-08-2019 17:45:00 26.6 C 46 % 14.03 C
2519 02-08-2019 17:50:00 26.3 C 47 % 14.09 C
2520 02-08-2019 17:55:00 26 C 48 % 14.14 C
2521 02-08-2019 18:00:00 25.8 C 48 % 13.96 C
2522 02-08-2019 18:05:00 26 C 48 % 14.14 C
2523 02-08-2019 18:10:00 25.9 C 49 % 14.37 C
2524 02-08-2019 18:15:00 25.6 C 50 % 14.41 C
2525 02-08-2019 18:20:00 25.3 C 53 % 15.03 C
Sensor: Nr:Datum:Temp:Feuchte:Taupunkt:
Aussen-T/F 2526 02-08-2019 18:25:00 24.9 C 55 % 15.24 C
2527 02-08-2019 18:30:00 24.5 C 56 % 15.15 C
2528 02-08-2019 18:35:00 24.3 C 57 % 15.24 C
2529 02-08-2019 18:40:00 24.4 C 56 % 15.06 C
2530 02-08-2019 18:45:00 24.4 C 57 % 15.33 C
2531 02-08-2019 18:50:00 24.5 C 56 % 15.15 C
2532 02-08-2019 18:55:00 24.5 C 56 % 15.15 C
2533 02-08-2019 19:00:00 24.3 C 57 % 15.24 C
2534 02-08-2019 19:05:00 24.2 C 58 % 15.42 C
2535 02-08-2019 19:10:00 24 C 58 % 15.23 C
2536 02-08-2019 19:15:00 23.9 C 53 % 13.74 C
2537 02-08-2019 19:20:00 23.8 C 53 % 13.65 C
2538 02-08-2019 19:25:00 23.7 C 54 % 13.84 C
2539 02-08-2019 19:30:00 23.6 C 54 % 13.75 C
2540 02-08-2019 19:35:00 23.6 C 53 % 13.46 C
2541 02-08-2019 19:40:00 23.4 C 54 % 13.57 C
2542 02-08-2019 19:45:00 23.4 C 55 % 13.85 C
2543 02-08-2019 19:50:00 23.3 C 54 % 13.47 C
2544 02-08-2019 19:55:00 23.2 C 55 % 13.66 C
2545 02-08-2019 20:00:00 23.1 C 56 % 13.85 C
2546 02-08-2019 20:05:00 22.9 C 60 % 14.73 C
2547 02-08-2019 20:10:00 22.8 C 59 % 14.37 C
2548 02-08-2019 20:15:00 22.7 C 61 % 14.79 C
2549 02-08-2019 20:20:00 22.5 C 61 % 14.61 C
2550 02-08-2019 20:25:00 22.4 C 60 % 14.26 C
Sensor: Nr:Datum:Temp:Feuchte:Taupunkt:
Aussen-T/F 2551 02-08-2019 20:30:00 22.3 C 60 % 14.16 C
2552 02-08-2019 20:35:00 22.3 C 60 % 14.16 C
2553 02-08-2019 20:40:00 22.3 C 61 % 14.42 C
2554 02-08-2019 20:45:00 22.2 C 62 % 14.58 C
2555 02-08-2019 20:50:00 22.1 C 62 % 14.48 C
2556 02-08-2019 20:55:00 21.9 C 63 % 14.54 C
2557 02-08-2019 21:00:00 21.7 C 64 % 14.6 C
2558 02-08-2019 21:05:00 21.5 C 65 % 14.65 C
2559 02-08-2019 21:10:00 21.2 C 64 % 14.12 C
2560 02-08-2019 21:15:00 21.1 C 65 % 14.27 C
2561 02-08-2019 21:20:00 20.9 C 66 % 14.31 C
2562 02-08-2019 21:25:00 20.9 C 64 % 13.84 C
2563 02-08-2019 21:30:00 21.1 C 63 % 13.79 C
2564 02-08-2019 21:35:00 21.3 C 63 % 13.97 C
2565 02-08-2019 21:40:00 21.4 C 62 % 13.82 C
2566 02-08-2019 21:45:00 21.4 C 62 % 13.82 C
2567 02-08-2019 21:50:00 21.4 C 62 % 13.82 C
2568 02-08-2019 21:55:00 21.4 C 63 % 14.07 C
2569 02-08-2019 22:00:00 21.4 C 63 % 14.07 C
2570 02-08-2019 22:05:00 21.3 C 63 % 13.97 C
2571 02-08-2019 22:10:00 21.1 C 64 % 14.03 C
2572 02-08-2019 22:15:00 21 C 65 % 14.17 C
2573 02-08-2019 22:20:00 20.9 C 65 % 14.08 C
2574 02-08-2019 22:25:00 20.9 C 66 % 14.31 C
2575 02-08-2019 22:30:00 20.8 C 67 % 14.45 C
Sensor: Nr:Datum:Temp:Feuchte:Taupunkt:
Aussen-T/F 2576 02-08-2019 22:35:00 20.8 C 66 % 14.22 C
2577 02-08-2019 22:40:00 20.8 C 66 % 14.22 C
2578 02-08-2019 22:45:00 20.8 C 66 % 14.22 C
2579 02-08-2019 22:50:00 20.8 C 67 % 14.45 C
2580 02-08-2019 22:55:00 20.8 C 66 % 14.22 C
2581 02-08-2019 23:00:00 20.6 C 68 % 14.49 C
2582 02-08-2019 23:05:00 20.3 C 72 % 15.09 C
2583 02-08-2019 23:10:00 19.9 C 74 % 15.13 C
2584 02-08-2019 23:15:00 19.6 C 77 % 15.46 C
2585 02-08-2019 23:20:00 19.3 C 78 % 15.37 C
2586 02-08-2019 23:25:00 18.9 C 80 % 15.38 C
2587 02-08-2019 23:30:00 18.7 C 81 % 15.37 C
2588 02-08-2019 23:35:00 18.4 C 81 % 15.08 C
2589 02-08-2019 23:40:00 18.3 C 83 % 15.36 C
2590 02-08-2019 23:45:00 18.1 C 83 % 15.17 C
2591 02-08-2019 23:50:00 17.9 C 84 % 15.16 C
2592 02-08-2019 23:55:00 17.7 C 85 % 15.15 C
2593 03-08-2019 00:00:00 17.5 C 85 % 14.95 C
2594 03-08-2019 00:05:00 17.4 C 86 % 15.03 C
2595 03-08-2019 00:10:00 17.4 C 86 % 15.03 C
2596 03-08-2019 00:15:00 17.4 C 86 % 15.03 C
2597 03-08-2019 00:20:00 17.4 C 86 % 15.03 C
2598 03-08-2019 00:25:00 17.7 C 85 % 15.15 C
2599 03-08-2019 00:30:00 17.8 C 84 % 15.06 C
2600 03-08-2019 00:35:00 17.9 C 84 % 15.16 C
Sensor: Nr:Datum:Temp:Feuchte:Taupunkt:
Aussen-T/F 2601 03-08-2019 00:40:00 18.1 C 83 % 15.17 C
2602 03-08-2019 00:45:00 18.1 C 83 % 15.17 C
2603 03-08-2019 00:50:00 18.2 C 82 % 15.08 C
2604 03-08-2019 00:55:00 18.2 C 82 % 15.08 C
2605 03-08-2019 01:00:00 18.3 C 82 % 15.17 C
2606 03-08-2019 01:05:00 18.3 C 82 % 15.17 C
2607 03-08-2019 01:10:00 18.3 C 83 % 15.36 C
2608 03-08-2019 01:15:00 18.3 C 82 % 15.17 C
2609 03-08-2019 01:20:00 18.3 C 82 % 15.17 C
2610 03-08-2019 01:25:00 18.3 C 82 % 15.17 C
2611 03-08-2019 01:30:00 18.3 C 82 % 15.17 C
2612 03-08-2019 01:35:00 18.3 C 82 % 15.17 C
2613 03-08-2019 01:40:00 18.3 C 83 % 15.36 C
2614 03-08-2019 01:45:00 18.3 C 83 % 15.36 C
2615 03-08-2019 01:50:00 18.2 C 83 % 15.27 C
2616 03-08-2019 01:55:00 18.2 C 84 % 15.45 C
2617 03-08-2019 02:00:00 18.2 C 84 % 15.45 C
2618 03-08-2019 02:05:00 18.2 C 84 % 15.45 C
2619 03-08-2019 02:10:00 18.2 C 84 % 15.45 C
2620 03-08-2019 02:15:00 18.2 C 84 % 15.45 C
2621 03-08-2019 02:20:00 18.2 C 84 % 15.45 C
2622 03-08-2019 02:25:00 18.2 C 84 % 15.45 C
2623 03-08-2019 02:30:00 18.3 C 85 % 15.74 C
2624 03-08-2019 02:35:00 18.3 C 84 % 15.55 C
2625 03-08-2019 02:40:00 18.3 C 85 % 15.74 C
Sensor: Nr:Datum:Temp:Feuchte:Taupunkt:
Aussen-T/F 2626 03-08-2019 02:45:00 18.3 C 85 % 15.74 C
2627 03-08-2019 02:50:00 18.3 C 85 % 15.74 C
2628 03-08-2019 02:55:00 18.2 C 85 % 15.64 C
2629 03-08-2019 03:00:00 18.2 C 85 % 15.64 C
2630 03-08-2019 03:05:00 18.2 C 85 % 15.64 C
2631 03-08-2019 03:10:00 18.2 C 85 % 15.64 C
2632 03-08-2019 03:15:00 18.2 C 85 % 15.64 C
2633 03-08-2019 03:20:00 18.2 C 86 % 15.82 C
2634 03-08-2019 03:25:00 18.2 C 86 % 15.82 C
2635 03-08-2019 03:30:00 18.2 C 86 % 15.82 C
2636 03-08-2019 03:35:00 18.2 C 86 % 15.82 C
2637 03-08-2019 03:40:00 18.2 C 86 % 15.82 C
2638 03-08-2019 03:45:00 18.2 C 86 % 15.82 C
2639 03-08-2019 03:50:00 18.2 C 86 % 15.82 C
2640 03-08-2019 03:55:00 18.2 C 86 % 15.82 C
2641 03-08-2019 04:00:00 18.2 C 86 % 15.82 C
2642 03-08-2019 04:05:00 18.1 C 87 % 15.9 C
2643 03-08-2019 04:10:00 18.1 C 87 % 15.9 C
2644 03-08-2019 04:15:00 18.1 C 87 % 15.9 C
2645 03-08-2019 04:20:00 18.1 C 87 % 15.9 C
2646 03-08-2019 04:25:00 18.1 C 87 % 15.9 C
2647 03-08-2019 04:30:00 18.1 C 87 % 15.9 C
2648 03-08-2019 04:35:00 18.2 C 87 % 16 C
2649 03-08-2019 04:40:00 18.2 C 87 % 16 C
2650 03-08-2019 04:45:00 18.2 C 87 % 16 C
Sensor: Nr:Datum:Temp:Feuchte:Taupunkt:
Aussen-T/F 2651 03-08-2019 04:50:00 18.2 C 87 % 16 C
2652 03-08-2019 04:55:00 18.2 C 87 % 16 C
2653 03-08-2019 05:00:00 18.2 C 87 % 16 C
2654 03-08-2019 05:05:00 18.2 C 87 % 16 C
2655 03-08-2019 05:10:00 18.2 C 87 % 16 C
2656 03-08-2019 05:15:00 18.2 C 87 % 16 C
2657 03-08-2019 05:20:00 18.2 C 87 % 16 C
2658 03-08-2019 05:25:00 18.1 C 87 % 15.9 C
2659 03-08-2019 05:30:00 18.1 C 87 % 15.9 C
2660 03-08-2019 05:35:00 18.1 C 87 % 15.9 C
2661 03-08-2019 05:40:00 18.1 C 87 % 15.9 C
2662 03-08-2019 05:45:00 18.1 C 87 % 15.9 C
2663 03-08-2019 05:50:00 18.1 C 87 % 15.9 C
2664 03-08-2019 05:55:00 18.1 C 87 % 15.9 C
2665 03-08-2019 06:00:00 18 C 87 % 15.8 C
2666 03-08-2019 06:05:00 18 C 87 % 15.8 C
2667 03-08-2019 06:10:00 17.9 C 87 % 15.71 C
2668 03-08-2019 06:15:00 17.9 C 88 % 15.88 C
2669 03-08-2019 06:20:00 17.9 C 88 % 15.88 C
2670 03-08-2019 06:25:00 17.9 C 88 % 15.88 C
2671 03-08-2019 06:30:00 17.9 C 87 % 15.71 C
2672 03-08-2019 06:35:00 17.9 C 87 % 15.71 C
2673 03-08-2019 06:40:00 17.9 C 87 % 15.71 C
2674 03-08-2019 06:45:00 17.8 C 87 % 15.61 C
2675 03-08-2019 06:50:00 17.8 C 87 % 15.61 C
Sensor: Nr:Datum:Temp:Feuchte:Taupunkt:
Aussen-T/F 2676 03-08-2019 06:55:00 17.8 C 87 % 15.61 C
2677 03-08-2019 07:00:00 17.8 C 87 % 15.61 C
2678 03-08-2019 07:05:00 17.8 C 86 % 15.43 C
2679 03-08-2019 07:10:00 17.8 C 86 % 15.43 C
2680 03-08-2019 07:15:00 17.8 C 86 % 15.43 C
2681 03-08-2019 07:20:00 17.8 C 86 % 15.43 C
2682 03-08-2019 07:25:00 17.8 C 86 % 15.43 C
2683 03-08-2019 07:30:00 17.9 C 86 % 15.53 C
2684 03-08-2019 07:35:00 17.9 C 85 % 15.34 C
2685 03-08-2019 07:40:00 17.9 C 85 % 15.34 C
2686 03-08-2019 07:45:00 17.9 C 85 % 15.34 C
2687 03-08-2019 07:50:00 17.9 C 85 % 15.34 C
2688 03-08-2019 07:55:00 17.8 C 85 % 15.25 C
2689 03-08-2019 08:00:00 17.8 C 86 % 15.43 C
2690 03-08-2019 08:05:00 17.8 C 86 % 15.43 C
2691 03-08-2019 08:10:00 17.8 C 85 % 15.25 C
2692 03-08-2019 08:15:00 17.8 C 85 % 15.25 C
2693 03-08-2019 08:20:00 17.8 C 85 % 15.25 C
2694 03-08-2019 08:25:00 17.8 C 85 % 15.25 C
2695 03-08-2019 08:30:00 17.9 C 85 % 15.34 C
2696 03-08-2019 08:35:00 18 C 84 % 15.26 C
2697 03-08-2019 08:40:00 18.1 C 84 % 15.35 C
2698 03-08-2019 08:45:00 18.2 C 84 % 15.45 C
2699 03-08-2019 08:50:00 18.2 C 83 % 15.27 C
2700 03-08-2019 08:55:00 18.2 C 82 % 15.08 C
Sensor: Nr:Datum:Temp:Feuchte:Taupunkt:
Aussen-T/F 2701 03-08-2019 09:00:00 18.2 C 82 % 15.08 C
2702 03-08-2019 09:05:00 18.3 C 81 % 14.98 C
2703 03-08-2019 09:10:00 18.3 C 81 % 14.98 C
2704 03-08-2019 09:15:00 18.4 C 79 % 14.69 C
2705 03-08-2019 09:20:00 18.5 C 79 % 14.79 C
2706 03-08-2019 09:25:00 18.6 C 79 % 14.89 C
2707 03-08-2019 09:30:00 18.7 C 79 % 14.99 C
2708 03-08-2019 09:35:00 18.8 C 79 % 15.08 C
2709 03-08-2019 09:40:00 18.8 C 78 % 14.88 C
2710 03-08-2019 09:45:00 18.8 C 78 % 14.88 C
2711 03-08-2019 09:50:00 18.9 C 78 % 14.98 C
2712 03-08-2019 09:55:00 18.9 C 78 % 14.98 C
2713 03-08-2019 10:00:00 19.1 C 77 % 14.97 C
2714 03-08-2019 10:05:00 19.2 C 76 % 14.87 C
2715 03-08-2019 10:10:00 19.3 C 76 % 14.97 C
2716 03-08-2019 10:15:00 19.4 C 76 % 15.06 C
2717 03-08-2019 10:20:00 19.7 C 76 % 15.35 C
2718 03-08-2019 10:25:00 19.9 C 76 % 15.54 C
2719 03-08-2019 10:30:00 19.8 C 75 % 15.24 C
2720 03-08-2019 10:35:00 19.8 C 75 % 15.24 C
2721 03-08-2019 10:40:00 19.7 C 76 % 15.35 C
2722 03-08-2019 10:45:00 19.8 C 74 % 15.03 C
2723 03-08-2019 10:50:00 19.8 C 74 % 15.03 C
2724 03-08-2019 10:55:00 19.9 C 75 % 15.34 C
2725 03-08-2019 11:00:00 19.9 C 74 % 15.13 C
Sensor: Nr:Datum:Temp:Feuchte:Taupunkt:
Aussen-T/F 2726 03-08-2019 11:05:00 20 C 74 % 15.23 C
2727 03-08-2019 11:10:00 20 C 75 % 15.43 C
2728 03-08-2019 11:15:00 20.1 C 74 % 15.32 C
2729 03-08-2019 11:20:00 20.2 C 73 % 15.21 C
2730 03-08-2019 11:25:00 20.3 C 73 % 15.3 C
2731 03-08-2019 11:30:00 20.3 C 73 % 15.3 C
2732 03-08-2019 11:35:00 20.4 C 74 % 15.61 C
2733 03-08-2019 11:40:00 20.7 C 73 % 15.69 C
2734 03-08-2019 11:45:00 20.8 C 72 % 15.57 C
2735 03-08-2019 11:50:00 20.8 C 71 % 15.35 C
2736 03-08-2019 11:55:00 20.8 C 72 % 15.57 C
2737 03-08-2019 12:00:00 20.8 C 71 % 15.35 C
2738 03-08-2019 12:05:00 21 C 71 % 15.54 C
2739 03-08-2019 12:10:00 21.3 C 69 % 15.38 C
2740 03-08-2019 12:15:00 21.3 C 70 % 15.61 C
2741 03-08-2019 12:20:00 21.4 C 68 % 15.25 C
2742 03-08-2019 12:25:00 21.6 C 66 % 14.98 C
2743 03-08-2019 12:30:00 21.8 C 66 % 15.17 C
2744 03-08-2019 12:35:00 21.9 C 65 % 15.02 C
2745 03-08-2019 12:40:00 21.9 C 65 % 15.02 C
2746 03-08-2019 12:45:00 21.9 C 64 % 14.78 C
2747 03-08-2019 12:50:00 21.9 C 64 % 14.78 C
2748 03-08-2019 12:55:00 21.9 C 64 % 14.78 C
2749 03-08-2019 13:00:00 21.9 C 65 % 15.02 C
2750 03-08-2019 13:05:00 21.9 C 66 % 15.26 C
Sensor: Nr:Datum:Temp:Feuchte:Taupunkt:
Aussen-T/F 2751 03-08-2019 13:10:00 21.9 C 66 % 15.26 C
2752 03-08-2019 13:15:00 22.2 C 66 % 15.55 C
2753 03-08-2019 13:20:00 22.3 C 63 % 14.92 C
2754 03-08-2019 13:25:00 22.3 C 64 % 15.16 C
2755 03-08-2019 13:30:00 22.3 C 64 % 15.16 C
2756 03-08-2019 13:35:00 22.3 C 68 % 16.11 C
2757 03-08-2019 13:40:00 22 C 68 % 15.82 C
2758 03-08-2019 13:45:00 21.9 C 69 % 15.96 C
2759 03-08-2019 13:50:00 21.8 C 68 % 15.63 C
2760 03-08-2019 13:55:00 21.8 C 69 % 15.86 C
2761 03-08-2019 14:00:00 21.7 C 69 % 15.77 C
2762 03-08-2019 14:05:00 21.7 C 70 % 15.99 C
2763 03-08-2019 14:10:00 21.6 C 68 % 15.44 C
2764 03-08-2019 14:15:00 21.7 C 68 % 15.54 C
2765 03-08-2019 14:20:00 21.8 C 67 % 15.4 C
2766 03-08-2019 14:25:00 22 C 66 % 15.36 C
2767 03-08-2019 14:30:00 22.1 C 65 % 15.21 C
2768 03-08-2019 14:35:00 22.3 C 65 % 15.4 C
2769 03-08-2019 14:40:00 22.5 C 64 % 15.35 C
2770 03-08-2019 14:45:00 22.8 C 64 % 15.64 C
2771 03-08-2019 14:50:00 23.1 C 62 % 15.42 C
2772 03-08-2019 14:55:00 23.2 C 62 % 15.52 C
2773 03-08-2019 15:00:00 23.5 C 60 % 15.29 C
2774 03-08-2019 15:05:00 23.4 C 58 % 14.67 C
2775 03-08-2019 15:10:00 23.4 C 56 % 14.13 C
Sensor: Nr:Datum:Temp:Feuchte:Taupunkt:
Aussen-T/F 2776 03-08-2019 15:15:00 23.7 C 58 % 14.95 C
2777 03-08-2019 15:20:00 23.9 C 55 % 14.31 C
2778 03-08-2019 15:25:00 23.7 C 56 % 14.4 C
2779 03-08-2019 15:30:00 23.6 C 60 % 15.38 C
2780 03-08-2019 15:35:00 23.6 C 60 % 15.38 C
2781 03-08-2019 15:40:00 23.7 C 60 % 15.48 C
2782 03-08-2019 15:45:00 24.2 C 58 % 15.42 C
2783 03-08-2019 15:50:00 24.4 C 59 % 15.87 C
2784 03-08-2019 15:55:00 24.6 C 56 % 15.24 C
2785 03-08-2019 16:00:00 24.7 C 56 % 15.33 C
2786 03-08-2019 16:05:00 24.9 C 55 % 15.24 C
2787 03-08-2019 16:10:00 24.9 C 54 % 14.95 C
2788 03-08-2019 16:15:00 25 C 53 % 14.76 C
2789 03-08-2019 16:20:00 25.1 C 54 % 15.14 C
2790 03-08-2019 16:25:00 25.1 C 54 % 15.14 C
2791 03-08-2019 16:30:00 25.2 C 53 % 14.94 C
2792 03-08-2019 16:35:00 25.4 C 52 % 14.83 C
2793 03-08-2019 16:40:00 25.3 C 52 % 14.74 C
2794 03-08-2019 16:45:00 25.4 C 52 % 14.83 C
2795 03-08-2019 16:50:00 25.5 C 52 % 14.92 C
2796 03-08-2019 16:55:00 25.5 C 51 % 14.62 C
2797 03-08-2019 17:00:00 25.6 C 52 % 15.02 C
2798 03-08-2019 17:05:00 25.7 C 52 % 15.11 C
2799 03-08-2019 17:10:00 25.7 C 51 % 14.81 C
2800 03-08-2019 17:15:00 25.4 C 51 % 14.53 C
Sensor: Nr:Datum:Temp:Feuchte:Taupunkt:
Aussen-T/F 2801 03-08-2019 17:20:00 25.3 C 51 % 14.44 C
2802 03-08-2019 17:25:00 25.2 C 52 % 14.65 C
2803 03-08-2019 17:30:00 25.2 C 52 % 14.65 C
2804 03-08-2019 17:35:00 25.3 C 51 % 14.44 C
2805 03-08-2019 17:40:00 25.4 C 51 % 14.53 C
2806 03-08-2019 17:45:00 25.7 C 49 % 14.19 C
2807 03-08-2019 17:50:00 25.7 C 50 % 14.5 C
2808 03-08-2019 17:55:00 25.7 C 50 % 14.5 C
2809 03-08-2019 18:00:00 25.6 C 50 % 14.41 C
2810 03-08-2019 18:05:00 25.6 C 50 % 14.41 C
2811 03-08-2019 18:10:00 25.7 C 50 % 14.5 C
2812 03-08-2019 18:15:00 25.6 C 51 % 14.71 C
2813 03-08-2019 18:20:00 25.6 C 51 % 14.71 C
2814 03-08-2019 18:25:00 25.6 C 50 % 14.41 C
2815 03-08-2019 18:30:00 25.6 C 50 % 14.41 C
2816 03-08-2019 18:35:00 25.6 C 51 % 14.71 C
2817 03-08-2019 18:40:00 25.3 C 52 % 14.74 C
2818 03-08-2019 18:45:00 25.2 C 52 % 14.65 C
2819 03-08-2019 18:50:00 25.1 C 52 % 14.55 C
2820 03-08-2019 18:55:00 25.1 C 53 % 14.85 C
2821 03-08-2019 19:00:00 25.1 C 53 % 14.85 C
2822 03-08-2019 19:05:00 25.1 C 53 % 14.85 C
2823 03-08-2019 19:10:00 24.9 C 53 % 14.66 C
2824 03-08-2019 19:15:00 24.8 C 53 % 14.57 C
2825 03-08-2019 19:20:00 24.6 C 54 % 14.68 C
Sensor: Nr:Datum:Temp:Feuchte:Taupunkt:
Aussen-T/F 2826 03-08-2019 19:25:00 24.3 C 54 % 14.4 C
2827 03-08-2019 19:30:00 24.1 C 55 % 14.5 C
2828 03-08-2019 19:35:00 23.9 C 56 % 14.59 C
2829 03-08-2019 19:40:00 23.8 C 56 % 14.5 C
2830 03-08-2019 19:45:00 23.8 C 55 % 14.22 C
2831 03-08-2019 19:50:00 23.7 C 56 % 14.4 C
2832 03-08-2019 19:55:00 23.6 C 56 % 14.31 C
2833 03-08-2019 20:00:00 23.5 C 56 % 14.22 C
2834 03-08-2019 20:05:00 23.4 C 57 % 14.4 C
2835 03-08-2019 20:10:00 23.2 C 58 % 14.48 C
2836 03-08-2019 20:15:00 23 C 59 % 14.56 C
2837 03-08-2019 20:20:00 22.9 C 59 % 14.47 C
2838 03-08-2019 20:25:00 22.7 C 60 % 14.54 C
2839 03-08-2019 20:30:00 22.6 C 60 % 14.44 C
2840 03-08-2019 20:35:00 22.3 C 61 % 14.42 C
2841 03-08-2019 20:40:00 22.2 C 61 % 14.32 C
2842 03-08-2019 20:45:00 22 C 62 % 14.39 C
2843 03-08-2019 20:50:00 21.9 C 62 % 14.29 C
2844 03-08-2019 20:55:00 21.7 C 63 % 14.35 C
2845 03-08-2019 21:00:00 21.5 C 63 % 14.16 C
2846 03-08-2019 21:05:00 21.3 C 64 % 14.22 C
2847 03-08-2019 21:10:00 21.1 C 64 % 14.03 C
2848 03-08-2019 21:15:00 20.9 C 65 % 14.08 C
2849 03-08-2019 21:20:00 20.8 C 66 % 14.22 C
2850 03-08-2019 21:25:00 20.6 C 65 % 13.79 C
Sensor: Nr:Datum:Temp:Feuchte:Taupunkt:
Aussen-T/F 2851 03-08-2019 21:30:00 20.5 C 66 % 13.93 C
2852 03-08-2019 21:35:00 20.3 C 66 % 13.74 C
2853 03-08-2019 21:40:00 20.2 C 66 % 13.65 C
2854 03-08-2019 21:45:00 20.1 C 67 % 13.78 C
2855 03-08-2019 21:50:00 19.8 C 68 % 13.73 C
2856 03-08-2019 21:55:00 19.6 C 69 % 13.76 C
2857 03-08-2019 22:00:00 19.2 C 70 % 13.6 C
2858 03-08-2019 22:05:00 18.9 C 71 % 13.53 C
2859 03-08-2019 22:10:00 18.6 C 72 % 13.46 C
2860 03-08-2019 22:15:00 18.4 C 73 % 13.48 C
2861 03-08-2019 22:20:00 18.2 C 73 % 13.28 C
2862 03-08-2019 22:25:00 18.1 C 74 % 13.4 C
2863 03-08-2019 22:30:00 17.9 C 75 % 13.41 C
2864 03-08-2019 22:35:00 17.8 C 75 % 13.31 C
2865 03-08-2019 22:40:00 17.7 C 76 % 13.42 C
2866 03-08-2019 22:45:00 17.6 C 76 % 13.32 C
2867 03-08-2019 22:50:00 17.5 C 77 % 13.43 C
2868 03-08-2019 22:55:00 17.4 C 78 % 13.53 C
2869 03-08-2019 23:00:00 17.3 C 78 % 13.43 C
2870 03-08-2019 23:05:00 17.3 C 78 % 13.43 C
2871 03-08-2019 23:10:00 17.2 C 79 % 13.53 C
2872 03-08-2019 23:15:00 17.2 C 79 % 13.53 C
2873 03-08-2019 23:20:00 17.1 C 80 % 13.62 C
2874 03-08-2019 23:25:00 17.1 C 80 % 13.62 C
2875 03-08-2019 23:30:00 17.1 C 80 % 13.62 C
Sensor: Nr:Datum:Temp:Feuchte:Taupunkt:
Aussen-T/F 2876 03-08-2019 23:35:00 17 C 79 % 13.33 C
2877 03-08-2019 23:40:00 16.9 C 79 % 13.24 C
2878 03-08-2019 23:45:00 16.9 C 80 % 13.43 C
2879 03-08-2019 23:50:00 16.8 C 80 % 13.33 C
2880 03-08-2019 23:55:00 16.7 C 80 % 13.23 C
2881 04-08-2019 00:00:00 16.7 C 80 % 13.23 C
2882 04-08-2019 00:05:00 16.6 C 81 % 13.33 C
2883 04-08-2019 00:10:00 16.5 C 81 % 13.23 C
2884 04-08-2019 00:15:00 16.4 C 81 % 13.13 C
2885 04-08-2019 00:20:00 16.3 C 81 % 13.04 C
2886 04-08-2019 00:25:00 16.3 C 81 % 13.04 C
2887 04-08-2019 00:30:00 16.2 C 82 % 13.13 C
2888 04-08-2019 00:35:00 16.1 C 83 % 13.21 C
2889 04-08-2019 00:40:00 16.1 C 83 % 13.21 C
2890 04-08-2019 00:45:00 15.9 C 83 % 13.02 C
2891 04-08-2019 00:50:00 15.8 C 83 % 12.92 C
2892 04-08-2019 00:55:00 15.8 C 83 % 12.92 C
2893 04-08-2019 01:00:00 15.7 C 84 % 13.01 C
2894 04-08-2019 01:05:00 15.6 C 84 % 12.91 C
2895 04-08-2019 01:10:00 15.6 C 84 % 12.91 C
2896 04-08-2019 01:15:00 15.4 C 85 % 12.89 C
2897 04-08-2019 01:20:00 15.3 C 85 % 12.79 C
2898 04-08-2019 01:25:00 15.2 C 85 % 12.7 C
2899 04-08-2019 01:30:00 15.1 C 86 % 12.78 C
2900 04-08-2019 01:35:00 14.9 C 86 % 12.58 C
Sensor: Nr:Datum:Temp:Feuchte:Taupunkt:
Aussen-T/F 2901 04-08-2019 01:40:00 14.8 C 86 % 12.48 C
2902 04-08-2019 01:45:00 14.7 C 87 % 12.56 C
2903 04-08-2019 01:50:00 14.6 C 87 % 12.46 C
2904 04-08-2019 01:55:00 14.6 C 87 % 12.46 C
2905 04-08-2019 02:00:00 14.4 C 87 % 12.27 C
2906 04-08-2019 02:05:00 14.3 C 88 % 12.34 C
2907 04-08-2019 02:10:00 14.3 C 88 % 12.34 C
2908 04-08-2019 02:15:00 14.2 C 88 % 12.24 C
2909 04-08-2019 02:20:00 14.1 C 88 % 12.14 C
2910 04-08-2019 02:25:00 14 C 89 % 12.22 C
2911 04-08-2019 02:30:00 13.9 C 89 % 12.12 C
2912 04-08-2019 02:35:00 13.9 C 89 % 12.12 C
2913 04-08-2019 02:40:00 13.8 C 90 % 12.19 C
2914 04-08-2019 02:45:00 13.7 C 89 % 11.92 C
2915 04-08-2019 02:50:00 13.7 C 90 % 12.09 C
2916 04-08-2019 02:55:00 13.7 C 90 % 12.09 C
2917 04-08-2019 03:00:00 13.6 C 90 % 11.99 C
2918 04-08-2019 03:05:00 13.5 C 90 % 11.89 C
2919 04-08-2019 03:10:00 13.4 C 90 % 11.79 C
2920 04-08-2019 03:15:00 13.3 C 91 % 11.86 C
2921 04-08-2019 03:20:00 13.3 C 91 % 11.86 C
2922 04-08-2019 03:25:00 13.3 C 91 % 11.86 C
2923 04-08-2019 03:30:00 13.3 C 91 % 11.86 C
2924 04-08-2019 03:35:00 13.2 C 91 % 11.76 C
2925 04-08-2019 03:40:00 13.2 C 91 % 11.76 C
Sensor: Nr:Datum:Temp:Feuchte:Taupunkt:
Aussen-T/F 2926 04-08-2019 03:45:00 13.2 C 91 % 11.76 C
2927 04-08-2019 03:50:00 13.2 C 92 % 11.93 C
2928 04-08-2019 03:55:00 13.1 C 92 % 11.83 C
2929 04-08-2019 04:00:00 13.1 C 92 % 11.83 C
2930 04-08-2019 04:05:00 13.1 C 92 % 11.83 C
2931 04-08-2019 04:10:00 12.9 C 91 % 11.47 C
2932 04-08-2019 04:15:00 12.9 C 92 % 11.63 C
2933 04-08-2019 04:20:00 12.9 C 92 % 11.63 C
2934 04-08-2019 04:25:00 12.9 C 92 % 11.63 C
2935 04-08-2019 04:30:00 12.9 C 93 % 11.8 C
2936 04-08-2019 04:35:00 12.9 C 92 % 11.63 C
2937 04-08-2019 04:40:00 12.8 C 92 % 11.53 C
2938 04-08-2019 04:45:00 12.8 C 92 % 11.53 C
2939 04-08-2019 04:50:00 12.7 C 93 % 11.6 C
2940 04-08-2019 04:55:00 12.7 C 92 % 11.43 C
2941 04-08-2019 05:00:00 12.7 C 93 % 11.6 C
2942 04-08-2019 05:05:00 12.7 C 93 % 11.6 C
2943 04-08-2019 05:10:00 12.6 C 93 % 11.5 C
2944 04-08-2019 05:15:00 12.6 C 93 % 11.5 C
2945 04-08-2019 05:20:00 12.6 C 93 % 11.5 C
2946 04-08-2019 05:25:00 12.5 C 93 % 11.4 C
2947 04-08-2019 05:30:00 12.4 C 93 % 11.3 C
2948 04-08-2019 05:35:00 12.4 C 93 % 11.3 C
2949 04-08-2019 05:40:00 12.4 C 93 % 11.3 C
2950 04-08-2019 05:45:00 12.4 C 93 % 11.3 C
Sensor: Nr:Datum:Temp:Feuchte:Taupunkt:
Aussen-T/F 2951 04-08-2019 05:50:00 12.3 C 93 % 11.2 C
2952 04-08-2019 05:55:00 12.3 C 93 % 11.2 C
2953 04-08-2019 06:00:00 12.3 C 93 % 11.2 C
2954 04-08-2019 06:05:00 12.3 C 94 % 11.36 C
2955 04-08-2019 06:10:00 12.3 C 93 % 11.2 C
2956 04-08-2019 06:15:00 12.2 C 94 % 11.26 C
2957 04-08-2019 06:20:00 12.3 C 94 % 11.36 C
2958 04-08-2019 06:25:00 12.3 C 94 % 11.36 C
2959 04-08-2019 06:30:00 12.3 C 94 % 11.36 C
2960 04-08-2019 06:35:00 12.3 C 94 % 11.36 C
2961 04-08-2019 06:40:00 12.4 C 94 % 11.46 C
2962 04-08-2019 06:45:00 12.4 C 94 % 11.46 C
2963 04-08-2019 06:50:00 12.5 C 94 % 11.56 C
2964 04-08-2019 06:55:00 12.5 C 94 % 11.56 C
2965 04-08-2019 07:00:00 12.5 C 94 % 11.56 C
2966 04-08-2019 07:05:00 12.5 C 94 % 11.56 C
2967 04-08-2019 07:10:00 12.5 C 94 % 11.56 C
2968 04-08-2019 07:15:00 12.6 C 94 % 11.66 C
2969 04-08-2019 07:20:00 12.6 C 94 % 11.66 C
2970 04-08-2019 07:25:00 12.7 C 94 % 11.76 C
2971 04-08-2019 07:30:00 12.7 C 94 % 11.76 C
2972 04-08-2019 07:35:00 12.8 C 95 % 12.02 C
2973 04-08-2019 07:40:00 12.8 C 95 % 12.02 C
2974 04-08-2019 07:45:00 12.9 C 95 % 12.12 C
2975 04-08-2019 07:50:00 13 C 95 % 12.22 C
Sensor: Nr:Datum:Temp:Feuchte:Taupunkt:
Aussen-T/F 2976 04-08-2019 07:55:00 13.1 C 95 % 12.32 C
2977 04-08-2019 08:00:00 13.2 C 95 % 12.42 C
2978 04-08-2019 08:05:00 13.3 C 95 % 12.52 C
2979 04-08-2019 08:10:00 13.4 C 95 % 12.62 C
2980 04-08-2019 08:15:00 13.4 C 95 % 12.62 C
2981 04-08-2019 08:20:00 13.6 C 95 % 12.81 C
2982 04-08-2019 08:25:00 13.7 C 95 % 12.91 C
2983 04-08-2019 08:30:00 13.8 C 95 % 13.01 C
2984 04-08-2019 08:35:00 13.8 C 95 % 13.01 C
2985 04-08-2019 08:40:00 14 C 95 % 13.21 C
2986 04-08-2019 08:45:00 14.1 C 95 % 13.31 C
2987 04-08-2019 08:50:00 14.2 C 95 % 13.41 C
2988 04-08-2019 08:55:00 14.3 C 95 % 13.51 C
2989 04-08-2019 09:00:00 14.5 C 95 % 13.71 C
2990 04-08-2019 09:05:00 14.7 C 94 % 13.74 C
2991 04-08-2019 09:10:00 14.8 C 94 % 13.84 C
2992 04-08-2019 09:15:00 14.9 C 94 % 13.94 C
2993 04-08-2019 09:20:00 15.1 C 94 % 14.14 C
2994 04-08-2019 09:25:00 15.2 C 94 % 14.24 C
2995 04-08-2019 09:30:00 15.3 C 93 % 14.18 C
2996 04-08-2019 09:35:00 15.6 C 93 % 14.47 C
2997 04-08-2019 09:40:00 15.7 C 92 % 14.4 C
2998 04-08-2019 09:45:00 15.9 C 92 % 14.6 C
2999 04-08-2019 09:50:00 16.1 C 91 % 14.63 C
3000 04-08-2019 09:55:00 16.3 C 91 % 14.83 C
Sensor: Nr:Datum:Temp:Feuchte:Taupunkt:
Aussen-T/F 3001 04-08-2019 10:00:00 16.6 C 90 % 14.95 C
3002 04-08-2019 10:05:00 16.8 C 89 % 14.98 C
3003 04-08-2019 10:10:00 17 C 89 % 15.17 C
3004 04-08-2019 10:15:00 17.2 C 88 % 15.2 C
3005 04-08-2019 10:20:00 17.4 C 87 % 15.21 C
3006 04-08-2019 10:25:00 17.8 C 84 % 15.06 C
3007 04-08-2019 10:30:00 18.2 C 82 % 15.08 C
3008 04-08-2019 10:35:00 18.6 C 83 % 15.66 C
3009 04-08-2019 10:40:00 18.8 C 80 % 15.28 C
3010 04-08-2019 10:45:00 19.2 C 77 % 15.07 C
3011 04-08-2019 10:50:00 19.7 C 76 % 15.35 C
3012 04-08-2019 10:55:00 20 C 75 % 15.43 C
3013 04-08-2019 11:00:00 20.3 C 73 % 15.3 C
3014 04-08-2019 11:05:00 20.6 C 71 % 15.16 C
3015 04-08-2019 11:10:00 20.7 C 71 % 15.25 C
3016 04-08-2019 11:15:00 20.9 C 69 % 15 C
3017 04-08-2019 11:20:00 21.2 C 69 % 15.29 C
3018 04-08-2019 11:25:00 21.3 C 67 % 14.93 C
3019 04-08-2019 11:30:00 21.4 C 66 % 14.79 C
3020 04-08-2019 11:35:00 21.6 C 66 % 14.98 C
3021 04-08-2019 11:40:00 21.7 C 65 % 14.84 C
3022 04-08-2019 11:45:00 21.8 C 65 % 14.93 C
3023 04-08-2019 11:50:00 22 C 65 % 15.12 C
3024 04-08-2019 11:55:00 22.3 C 63 % 14.92 C
3025 04-08-2019 12:00:00 22.4 C 63 % 15.01 C
Sensor: Nr:Datum:Temp:Feuchte:Taupunkt:
Aussen-T/F 3026 04-08-2019 12:05:00 22.6 C 62 % 14.95 C
3027 04-08-2019 12:10:00 22.8 C 61 % 14.89 C
3028 04-08-2019 12:15:00 22.8 C 61 % 14.89 C
3029 04-08-2019 12:20:00 22.9 C 61 % 14.98 C
3030 04-08-2019 12:25:00 23.1 C 62 % 15.42 C
3031 04-08-2019 12:30:00 23.3 C 60 % 15.1 C
3032 04-08-2019 12:35:00 23.5 C 59 % 15.03 C
3033 04-08-2019 12:40:00 23.7 C 58 % 14.95 C
3034 04-08-2019 12:45:00 24 C 57 % 14.96 C
3035 04-08-2019 12:50:00 24.2 C 55 % 14.59 C
3036 04-08-2019 12:55:00 24.3 C 55 % 14.68 C
3037 04-08-2019 13:00:00 24.4 C 55 % 14.78 C
3038 04-08-2019 13:05:00 24.4 C 55 % 14.78 C
3039 04-08-2019 13:10:00 24.4 C 56 % 15.06 C
3040 04-08-2019 13:15:00 24.5 C 56 % 15.15 C
3041 04-08-2019 13:20:00 24.7 C 55 % 15.05 C
3042 04-08-2019 13:25:00 24.7 C 54 % 14.77 C
3043 04-08-2019 13:30:00 24.8 C 53 % 14.57 C
3044 04-08-2019 13:35:00 24.8 C 53 % 14.57 C
3045 04-08-2019 13:40:00 25 C 52 % 14.46 C
3046 04-08-2019 13:45:00 25.1 C 53 % 14.85 C
3047 04-08-2019 13:50:00 25.1 C 51 % 14.25 C
3048 04-08-2019 13:55:00 25.1 C 51 % 14.25 C
3049 04-08-2019 14:00:00 25.1 C 52 % 14.55 C
3050 04-08-2019 14:05:00 25.2 C 52 % 14.65 C
Sensor: Nr:Datum:Temp:Feuchte:Taupunkt:
Aussen-T/F 3051 04-08-2019 14:10:00 25.4 C 50 % 14.22 C
3052 04-08-2019 14:15:00 25.6 C 50 % 14.41 C
3053 04-08-2019 14:20:00 25.6 C 50 % 14.41 C
3054 04-08-2019 14:25:00 25.7 C 49 % 14.19 C
3055 04-08-2019 14:30:00 25.9 C 48 % 14.05 C
3056 04-08-2019 14:35:00 26.2 C 48 % 14.32 C
3057 04-08-2019 14:40:00 26.3 C 46 % 13.76 C
3058 04-08-2019 14:45:00 26.4 C 45 % 13.51 C
3059 04-08-2019 14:50:00 26.4 C 46 % 13.85 C
3060 04-08-2019 14:55:00 26.6 C 47 % 14.36 C
3061 04-08-2019 15:00:00 26.8 C 46 % 14.21 C
3062 04-08-2019 15:05:00 26.9 C 44 % 13.62 C
3063 04-08-2019 15:10:00 27.2 C 42 % 13.18 C
3064 04-08-2019 15:15:00 27.3 C 44 % 13.98 C
3065 04-08-2019 15:20:00 27.6 C 43 % 13.9 C
3066 04-08-2019 15:25:00 28.1 C 41 % 13.61 C
3067 04-08-2019 15:30:00 28.3 C 39 % 13.02 C
3068 04-08-2019 15:35:00 28.6 C 39 % 13.29 C
3069 04-08-2019 15:40:00 29 C 39 % 13.65 C
3070 04-08-2019 15:45:00 29.4 C 37 % 13.19 C
3071 04-08-2019 15:50:00 29.7 C 37 % 13.46 C
3072 04-08-2019 15:55:00 29.8 C 37 % 13.54 C
3073 04-08-2019 16:00:00 29.9 C 35 % 12.78 C
3074 04-08-2019 16:05:00 30.1 C 36 % 13.39 C
3075 04-08-2019 16:10:00 30.2 C 35 % 13.04 C
Sensor: Nr:Datum:Temp:Feuchte:Taupunkt:
Aussen-T/F 3076 04-08-2019 16:15:00 30.2 C 35 % 13.04 C
3077 04-08-2019 16:20:00 30.2 C 36 % 13.48 C
3078 04-08-2019 16:25:00 29.8 C 35 % 12.69 C
3079 04-08-2019 16:30:00 29.7 C 37 % 13.46 C
3080 04-08-2019 16:35:00 29.9 C 35 % 12.78 C
3081 04-08-2019 16:40:00 30.1 C 33 % 12.06 C
3082 04-08-2019 16:45:00 30.1 C 32 % 11.59 C
3083 04-08-2019 16:50:00 30.1 C 32 % 11.59 C
3084 04-08-2019 16:55:00 30.1 C 33 % 12.06 C
3085 04-08-2019 17:00:00 30.2 C 34 % 12.6 C
3086 04-08-2019 17:05:00 30.4 C 32 % 11.85 C
3087 04-08-2019 17:10:00 30.7 C 33 % 12.58 C
3088 04-08-2019 17:15:00 30.9 C 32 % 12.29 C
3089 04-08-2019 17:20:00 31 C 32 % 12.37 C
3090 04-08-2019 17:25:00 31.1 C 32 % 12.46 C
3091 04-08-2019 17:30:00 31.2 C 32 % 12.55 C
3092 04-08-2019 17:35:00 31.2 C 32 % 12.55 C
3093 04-08-2019 17:40:00 31.3 C 31 % 12.15 C
3094 04-08-2019 17:45:00 31.3 C 31 % 12.15 C
3095 04-08-2019 17:50:00 31.2 C 31 % 12.06 C
3096 04-08-2019 17:55:00 31 C 33 % 12.84 C
3097 04-08-2019 18:00:00 30.8 C 34 % 13.13 C
3098 04-08-2019 18:05:00 30.8 C 33 % 12.67 C
3099 04-08-2019 18:10:00 30.7 C 34 % 13.04 C
3100 04-08-2019 18:15:00 30.7 C 34 % 13.04 C
Sensor: Nr:Datum:Temp:Feuchte:Taupunkt:
Aussen-T/F 3101 04-08-2019 18:20:00 30.8 C 34 % 13.13 C
3102 04-08-2019 18:25:00 31.2 C 34 % 13.47 C
3103 04-08-2019 18:30:00 31.2 C 35 % 13.92 C
3104 04-08-2019 18:35:00 31 C 34 % 13.3 C
3105 04-08-2019 18:40:00 30.7 C 34 % 13.04 C
3106 04-08-2019 18:45:00 30.6 C 33 % 12.5 C
3107 04-08-2019 18:50:00 30.6 C 33 % 12.5 C
3108 04-08-2019 18:55:00 30.4 C 33 % 12.32 C
3109 04-08-2019 19:00:00 30.2 C 34 % 12.6 C
3110 04-08-2019 19:05:00 29.8 C 35 % 12.69 C
3111 04-08-2019 19:10:00 29.5 C 35 % 12.43 C
3112 04-08-2019 19:15:00 29.3 C 39 % 13.91 C
3113 04-08-2019 19:20:00 29.2 C 38 % 13.42 C
3114 04-08-2019 19:25:00 28.9 C 41 % 14.33 C
3115 04-08-2019 19:30:00 28.8 C 44 % 15.33 C
3116 04-08-2019 19:35:00 28.5 C 43 % 14.71 C
3117 04-08-2019 19:40:00 28.2 C 49 % 16.47 C
3118 04-08-2019 19:45:00 27.8 C 46 % 15.12 C
3119 04-08-2019 19:50:00 27.6 C 48 % 15.6 C
3120 04-08-2019 19:55:00 27.3 C 48 % 15.33 C
3121 04-08-2019 20:00:00 27.1 C 48 % 15.15 C
3122 04-08-2019 20:05:00 26.8 C 48 % 14.87 C
3123 04-08-2019 20:10:00 26.7 C 51 % 15.72 C
3124 04-08-2019 20:15:00 26.6 C 50 % 15.32 C
3125 04-08-2019 20:20:00 26.3 C 51 % 15.36 C
Sensor: Nr:Datum:Temp:Feuchte:Taupunkt:
Aussen-T/F 3126 04-08-2019 20:25:00 26.1 C 51 % 15.17 C
3127 04-08-2019 20:30:00 25.8 C 52 % 15.2 C
3128 04-08-2019 20:35:00 25.5 C 53 % 15.22 C
3129 04-08-2019 20:40:00 25.1 C 53 % 14.85 C
3130 04-08-2019 20:45:00 24.8 C 55 % 15.15 C
3131 04-08-2019 20:50:00 24.4 C 55 % 14.78 C
3132 04-08-2019 20:55:00 24.2 C 56 % 14.87 C
3133 04-08-2019 21:00:00 23.8 C 56 % 14.5 C
3134 04-08-2019 21:05:00 23.5 C 57 % 14.49 C
3135 04-08-2019 21:10:00 23.2 C 58 % 14.48 C
3136 04-08-2019 21:15:00 22.9 C 59 % 14.47 C
3137 04-08-2019 21:20:00 22.6 C 60 % 14.44 C
3138 04-08-2019 21:25:00 22.4 C 61 % 14.51 C
3139 04-08-2019 21:30:00 22.2 C 61 % 14.32 C
3140 04-08-2019 21:35:00 22.1 C 61 % 14.23 C
3141 04-08-2019 21:40:00 22 C 62 % 14.39 C
3142 04-08-2019 21:45:00 21.9 C 62 % 14.29 C
3143 04-08-2019 21:50:00 21.8 C 63 % 14.45 C
3144 04-08-2019 21:55:00 21.8 C 64 % 14.69 C
3145 04-08-2019 22:00:00 21.8 C 64 % 14.69 C
3146 04-08-2019 22:05:00 21.7 C 64 % 14.6 C
3147 04-08-2019 22:10:00 21.8 C 64 % 14.69 C
3148 04-08-2019 22:15:00 21.8 C 63 % 14.45 C
3149 04-08-2019 22:20:00 21.8 C 63 % 14.45 C
3150 04-08-2019 22:25:00 22 C 63 % 14.63 C
Sensor: Nr:Datum:Temp:Feuchte:Taupunkt:
Aussen-T/F 3151 04-08-2019 22:30:00 22.1 C 64 % 14.97 C
3152 04-08-2019 22:35:00 22.1 C 63 % 14.73 C
3153 04-08-2019 22:40:00 22.1 C 64 % 14.97 C
3154 04-08-2019 22:45:00 22.1 C 64 % 14.97 C
3155 04-08-2019 22:50:00 22.1 C 64 % 14.97 C
3156 04-08-2019 22:55:00 22.1 C 64 % 14.97 C
3157 04-08-2019 23:00:00 22.1 C 64 % 14.97 C
3158 04-08-2019 23:05:00 22.1 C 63 % 14.73 C
3159 04-08-2019 23:10:00 22.2 C 63 % 14.82 C
3160 04-08-2019 23:15:00 22.3 C 63 % 14.92 C
3161 04-08-2019 23:20:00 22.3 C 62 % 14.67 C
3162 04-08-2019 23:25:00 22.3 C 61 % 14.42 C
3163 04-08-2019 23:30:00 22.4 C 61 % 14.51 C
3164 04-08-2019 23:35:00 22.4 C 60 % 14.26 C
3165 04-08-2019 23:40:00 22.5 C 60 % 14.35 C
3166 04-08-2019 23:45:00 22.6 C 59 % 14.18 C
3167 04-08-2019 23:50:00 22.7 C 60 % 14.54 C
3168 04-08-2019 23:55:00 22.8 C 59 % 14.37 C
3169 05-08-2019 00:00:00 22.8 C 59 % 14.37 C
3170 05-08-2019 00:05:00 22.9 C 58 % 14.2 C
3171 05-08-2019 00:10:00 22.9 C 57 % 13.93 C
3172 05-08-2019 00:15:00 22.9 C 58 % 14.2 C
3173 05-08-2019 00:20:00 23 C 57 % 14.03 C
3174 05-08-2019 00:25:00 23 C 58 % 14.29 C
3175 05-08-2019 00:30:00 22.9 C 57 % 13.93 C
Sensor: Nr:Datum:Temp:Feuchte:Taupunkt:
Aussen-T/F 3176 05-08-2019 00:35:00 22.9 C 56 % 13.66 C
3177 05-08-2019 00:40:00 22.9 C 57 % 13.93 C
3178 05-08-2019 00:45:00 22.8 C 59 % 14.37 C
3179 05-08-2019 00:50:00 22.8 C 58 % 14.11 C
3180 05-08-2019 00:55:00 22.7 C 60 % 14.54 C
3181 05-08-2019 01:00:00 22.6 C 60 % 14.44 C
3182 05-08-2019 01:05:00 22.3 C 61 % 14.42 C
3183 05-08-2019 01:10:00 22.1 C 61 % 14.23 C
3184 05-08-2019 01:15:00 21.9 C 62 % 14.29 C
3185 05-08-2019 01:20:00 21.8 C 62 % 14.2 C
3186 05-08-2019 01:25:00 21.7 C 62 % 14.1 C
3187 05-08-2019 01:30:00 21.6 C 63 % 14.26 C
3188 05-08-2019 01:35:00 21.4 C 63 % 14.07 C
3189 05-08-2019 01:40:00 21.3 C 63 % 13.97 C
3190 05-08-2019 01:45:00 21.2 C 64 % 14.12 C
3191 05-08-2019 01:50:00 21.1 C 64 % 14.03 C
3192 05-08-2019 01:55:00 20.9 C 64 % 13.84 C
3193 05-08-2019 02:00:00 20.8 C 64 % 13.74 C
3194 05-08-2019 02:05:00 20.7 C 65 % 13.89 C
3195 05-08-2019 02:10:00 20.6 C 66 % 14.03 C
3196 05-08-2019 02:15:00 20.4 C 66 % 13.84 C
3197 05-08-2019 02:20:00 20.3 C 67 % 13.97 C
3198 05-08-2019 02:25:00 20.3 C 67 % 13.97 C
3199 05-08-2019 02:30:00 20.2 C 67 % 13.88 C
3200 05-08-2019 02:35:00 20.2 C 68 % 14.11 C
Sensor: Nr:Datum:Temp:Feuchte:Taupunkt:
Aussen-T/F 3201 05-08-2019 02:40:00 20.1 C 68 % 14.01 C
3202 05-08-2019 02:45:00 20 C 68 % 13.92 C
3203 05-08-2019 02:50:00 19.9 C 68 % 13.82 C
3204 05-08-2019 02:55:00 19.9 C 68 % 13.82 C
3205 05-08-2019 03:00:00 19.8 C 68 % 13.73 C
3206 05-08-2019 03:05:00 19.8 C 69 % 13.95 C
3207 05-08-2019 03:10:00 19.8 C 69 % 13.95 C
3208 05-08-2019 03:15:00 19.7 C 69 % 13.86 C
3209 05-08-2019 03:20:00 19.7 C 70 % 14.08 C
3210 05-08-2019 03:25:00 19.6 C 69 % 13.76 C
3211 05-08-2019 03:30:00 19.6 C 70 % 13.98 C
3212 05-08-2019 03:35:00 19.5 C 70 % 13.89 C
3213 05-08-2019 03:40:00 19.4 C 70 % 13.79 C
3214 05-08-2019 03:45:00 19.4 C 71 % 14.01 C
3215 05-08-2019 03:50:00 19.4 C 70 % 13.79 C
3216 05-08-2019 03:55:00 19.5 C 71 % 14.1 C
3217 05-08-2019 04:00:00 19.6 C 73 % 14.63 C
3218 05-08-2019 04:05:00 19.6 C 74 % 14.84 C
3219 05-08-2019 04:10:00 19.6 C 76 % 15.26 C
3220 05-08-2019 04:15:00 19.5 C 76 % 15.16 C
3221 05-08-2019 04:20:00 19.3 C 76 % 14.97 C
3222 05-08-2019 04:25:00 19.3 C 75 % 14.76 C
3223 05-08-2019 04:30:00 19.2 C 77 % 15.07 C
3224 05-08-2019 04:35:00 19.2 C 77 % 15.07 C
3225 05-08-2019 04:40:00 19.1 C 76 % 14.77 C
Sensor: Nr:Datum:Temp:Feuchte:Taupunkt:
Aussen-T/F 3226 05-08-2019 04:45:00 19.1 C 76 % 14.77 C
3227 05-08-2019 04:50:00 19.1 C 76 % 14.77 C
3228 05-08-2019 04:55:00 19.2 C 77 % 15.07 C
3229 05-08-2019 05:00:00 19.3 C 78 % 15.37 C
3230 05-08-2019 05:05:00 19.3 C 78 % 15.37 C
3231 05-08-2019 05:10:00 19.3 C 77 % 15.17 C
3232 05-08-2019 05:15:00 19.3 C 77 % 15.17 C
3233 05-08-2019 05:20:00 19.3 C 77 % 15.17 C
3234 05-08-2019 05:25:00 19.3 C 77 % 15.17 C
3235 05-08-2019 05:30:00 19.2 C 76 % 14.87 C
3236 05-08-2019 05:35:00 19.3 C 76 % 14.97 C
3237 05-08-2019 05:40:00 19.4 C 77 % 15.27 C
3238 05-08-2019 05:45:00 19.5 C 80 % 15.96 C
3239 05-08-2019 05:50:00 19.4 C 81 % 16.06 C
3240 05-08-2019 05:55:00 19.3 C 82 % 16.15 C
3241 05-08-2019 06:00:00 19.1 C 83 % 16.15 C
3242 05-08-2019 06:05:00 18.8 C 84 % 16.04 C
3243 05-08-2019 06:10:00 18.6 C 85 % 16.03 C
3244 05-08-2019 06:15:00 18.4 C 86 % 16.02 C
3245 05-08-2019 06:20:00 18.3 C 86 % 15.92 C
3246 05-08-2019 06:25:00 18.2 C 87 % 16 C
3247 05-08-2019 06:30:00 18.2 C 88 % 16.18 C
3248 05-08-2019 06:35:00 18.1 C 89 % 16.26 C
3249 05-08-2019 06:40:00 18.1 C 89 % 16.26 C
3250 05-08-2019 06:45:00 17.9 C 90 % 16.24 C
Sensor: Nr:Datum:Temp:Feuchte:Taupunkt:
Aussen-T/F 3251 05-08-2019 06:50:00 17.9 C 90 % 16.24 C
3252 05-08-2019 06:55:00 17.8 C 91 % 16.31 C
3253 05-08-2019 07:00:00 17.8 C 91 % 16.31 C
3254 05-08-2019 07:05:00 17.7 C 91 % 16.21 C
3255 05-08-2019 07:10:00 17.7 C 92 % 16.38 C
3256 05-08-2019 07:15:00 17.6 C 92 % 16.28 C
3257 05-08-2019 07:20:00 17.6 C 92 % 16.28 C
3258 05-08-2019 07:25:00 17.6 C 92 % 16.28 C
3259 05-08-2019 07:30:00 17.6 C 93 % 16.45 C
3260 05-08-2019 07:35:00 17.5 C 93 % 16.36 C
3261 05-08-2019 07:40:00 17.4 C 93 % 16.26 C
3262 05-08-2019 07:45:00 17.3 C 93 % 16.16 C
3263 05-08-2019 07:50:00 17.3 C 93 % 16.16 C
3264 05-08-2019 07:55:00 17.3 C 93 % 16.16 C
3265 05-08-2019 08:00:00 17.3 C 94 % 16.33 C
3266 05-08-2019 08:05:00 17.3 C 94 % 16.33 C
3267 05-08-2019 08:10:00 17.4 C 94 % 16.42 C
3268 05-08-2019 08:15:00 17.4 C 94 % 16.42 C
3269 05-08-2019 08:20:00 17.6 C 94 % 16.62 C
3270 05-08-2019 08:25:00 17.6 C 94 % 16.62 C
3271 05-08-2019 08:30:00 17.6 C 95 % 16.79 C
3272 05-08-2019 08:35:00 17.8 C 95 % 16.99 C
3273 05-08-2019 08:40:00 17.8 C 95 % 16.99 C
3274 05-08-2019 08:45:00 17.9 C 95 % 17.09 C
3275 05-08-2019 08:50:00 17.9 C 95 % 17.09 C
Sensor: Nr:Datum:Temp:Feuchte:Taupunkt:
Aussen-T/F 3276 05-08-2019 08:55:00 18.1 C 95 % 17.29 C
3277 05-08-2019 09:00:00 18.1 C 95 % 17.29 C
3278 05-08-2019 09:05:00 18.2 C 95 % 17.39 C
3279 05-08-2019 09:10:00 18.3 C 95 % 17.48 C
3280 05-08-2019 09:15:00 18.5 C 95 % 17.68 C
3281 05-08-2019 09:20:00 18.7 C 96 % 18.05 C
3282 05-08-2019 09:25:00 18.8 C 95 % 17.98 C
3283 05-08-2019 09:30:00 18.8 C 95 % 17.98 C
3284 05-08-2019 09:35:00 18.9 C 95 % 18.08 C
3285 05-08-2019 09:40:00 19.1 C 95 % 18.28 C
3286 05-08-2019 09:45:00 19.2 C 95 % 18.38 C
3287 05-08-2019 09:50:00 19.2 C 94 % 18.21 C
3288 05-08-2019 09:55:00 19.2 C 94 % 18.21 C
3289 05-08-2019 10:00:00 19.4 C 94 % 18.41 C
3290 05-08-2019 10:05:00 19.6 C 94 % 18.61 C
3291 05-08-2019 10:10:00 19.7 C 94 % 18.71 C
3292 05-08-2019 10:15:00 19.8 C 93 % 18.63 C
3293 05-08-2019 10:20:00 19.9 C 94 % 18.91 C
3294 05-08-2019 10:25:00 20.1 C 94 % 19.1 C
3295 05-08-2019 10:30:00 20.4 C 94 % 19.4 C
3296 05-08-2019 10:35:00 20.4 C 93 % 19.23 C
3297 05-08-2019 10:40:00 20.3 C 91 % 18.78 C
3298 05-08-2019 10:45:00 20.4 C 91 % 18.88 C
3299 05-08-2019 10:50:00 20.4 C 89 % 18.53 C
3300 05-08-2019 10:55:00 20.6 C 90 % 18.9 C
Sensor: Nr:Datum:Temp:Feuchte:Taupunkt:
Aussen-T/F 3301 05-08-2019 11:00:00 20.8 C 89 % 18.92 C
3302 05-08-2019 11:05:00 21.1 C 87 % 18.85 C
3303 05-08-2019 11:10:00 21.4 C 88 % 19.33 C
3304 05-08-2019 11:15:00 21.7 C 87 % 19.44 C
3305 05-08-2019 11:20:00 21.8 C 85 % 19.16 C
3306 05-08-2019 11:25:00 21.8 C 84 % 18.97 C
3307 05-08-2019 11:30:00 22.1 C 83 % 19.08 C
3308 05-08-2019 11:35:00 22.3 C 83 % 19.27 C
3309 05-08-2019 11:40:00 22.4 C 80 % 18.78 C
3310 05-08-2019 11:45:00 22.6 C 80 % 18.97 C
3311 05-08-2019 11:50:00 22.8 C 81 % 19.37 C
3312 05-08-2019 11:55:00 23.1 C 82 % 19.86 C
3313 05-08-2019 12:00:00 23.3 C 79 % 19.45 C
3314 05-08-2019 12:05:00 23.4 C 75 % 18.71 C
3315 05-08-2019 12:10:00 23.6 C 74 % 18.69 C
3316 05-08-2019 12:15:00 23.7 C 73 % 18.57 C
3317 05-08-2019 12:20:00 23.9 C 69 % 17.87 C
3318 05-08-2019 12:25:00 24.1 C 68 % 17.82 C
3319 05-08-2019 12:30:00 24.3 C 68 % 18.01 C
3320 05-08-2019 12:35:00 24.6 C 65 % 17.58 C
3321 05-08-2019 12:40:00 24.8 C 63 % 17.28 C
3322 05-08-2019 12:45:00 24.9 C 65 % 17.87 C
3323 05-08-2019 12:50:00 25.2 C 63 % 17.65 C
3324 05-08-2019 12:55:00 25.2 C 63 % 17.65 C
3325 05-08-2019 13:00:00 25.2 C 64 % 17.9 C
Sensor: Nr:Datum:Temp:Feuchte:Taupunkt:
Aussen-T/F 3326 05-08-2019 13:05:00 25.3 C 62 % 17.5 C
3327 05-08-2019 13:10:00 25.5 C 61 % 17.43 C
3328 05-08-2019 13:15:00 25.7 C 62 % 17.87 C
3329 05-08-2019 13:20:00 25.8 C 61 % 17.71 C
3330 05-08-2019 13:25:00 25.9 C 61 % 17.8 C
3331 05-08-2019 13:30:00 26.2 C 59 % 17.55 C
3332 05-08-2019 13:35:00 26.3 C 59 % 17.65 C
3333 05-08-2019 13:40:00 26.4 C 56 % 16.92 C
3334 05-08-2019 13:45:00 26.5 C 58 % 17.56 C
3335 05-08-2019 13:50:00 26.6 C 57 % 17.38 C
3336 05-08-2019 13:55:00 26.6 C 57 % 17.38 C
3337 05-08-2019 14:00:00 26.6 C 58 % 17.66 C
3338 05-08-2019 14:05:00 26.6 C 57 % 17.38 C
3339 05-08-2019 14:10:00 26.7 C 56 % 17.19 C
3340 05-08-2019 14:15:00 26.8 C 56 % 17.29 C
3341 05-08-2019 14:20:00 27.1 C 55 % 17.28 C
3342 05-08-2019 14:25:00 27.3 C 54 % 17.18 C
3343 05-08-2019 14:30:00 27.3 C 53 % 16.88 C
3344 05-08-2019 14:35:00 27.3 C 55 % 17.47 C
3345 05-08-2019 14:40:00 27.3 C 53 % 16.88 C
3346 05-08-2019 14:45:00 27.3 C 53 % 16.88 C
3347 05-08-2019 14:50:00 27.4 C 54 % 17.27 C
3348 05-08-2019 14:55:00 27.7 C 52 % 16.95 C
3349 05-08-2019 15:00:00 27.8 C 47 % 15.45 C
3350 05-08-2019 15:05:00 27.9 C 50 % 16.51 C
Sensor: Nr:Datum:Temp:Feuchte:Taupunkt:
Aussen-T/F 3351 05-08-2019 15:10:00 28 C 50 % 16.61 C
3352 05-08-2019 15:15:00 28.4 C 50 % 16.97 C
3353 05-08-2019 15:20:00 28.4 C 48 % 16.33 C
3354 05-08-2019 15:25:00 28.4 C 45 % 15.32 C
3355 05-08-2019 15:30:00 28.5 C 46 % 15.75 C
3356 05-08-2019 15:35:00 28.3 C 45 % 15.23 C
3357 05-08-2019 15:40:00 28.4 C 45 % 15.32 C
3358 05-08-2019 15:45:00 28.7 C 44 % 15.24 C
3359 05-08-2019 15:50:00 28.8 C 44 % 15.33 C
3360 05-08-2019 15:55:00 28.9 C 44 % 15.42 C
3361 05-08-2019 16:00:00 28.9 C 41 % 14.33 C
3362 05-08-2019 16:05:00 28.9 C 42 % 14.7 C
3363 05-08-2019 16:10:00 29 C 42 % 14.79 C
3364 05-08-2019 16:15:00 29.1 C 41 % 14.51 C
3365 05-08-2019 16:20:00 29.1 C 41 % 14.51 C
3366 05-08-2019 16:25:00 29.1 C 41 % 14.51 C
3367 05-08-2019 16:30:00 29.1 C 41 % 14.51 C
3368 05-08-2019 16:35:00 28.9 C 41 % 14.33 C
3369 05-08-2019 16:40:00 28.8 C 41 % 14.24 C
3370 05-08-2019 16:45:00 28.7 C 41 % 14.15 C
3371 05-08-2019 16:50:00 28.5 C 42 % 14.34 C
3372 05-08-2019 16:55:00 28.4 C 42 % 14.25 C
3373 05-08-2019 17:00:00 28.3 C 42 % 14.16 C
3374 05-08-2019 17:05:00 28.3 C 43 % 14.53 C
3375 05-08-2019 17:10:00 28.3 C 42 % 14.16 C
Sensor: Nr:Datum:Temp:Feuchte:Taupunkt:
Aussen-T/F 3376 05-08-2019 17:15:00 28.3 C 42 % 14.16 C
3377 05-08-2019 17:20:00 28.3 C 42 % 14.16 C
3378 05-08-2019 17:25:00 28.3 C 41 % 13.79 C
3379 05-08-2019 17:30:00 28.3 C 42 % 14.16 C
3380 05-08-2019 17:35:00 28.3 C 42 % 14.16 C
3381 05-08-2019 17:40:00 28.2 C 42 % 14.07 C
3382 05-08-2019 17:45:00 28.1 C 42 % 13.98 C
3383 05-08-2019 17:50:00 28 C 43 % 14.26 C
3384 05-08-2019 17:55:00 28 C 42 % 13.89 C
3385 05-08-2019 18:00:00 28.1 C 43 % 14.35 C
3386 05-08-2019 18:05:00 28.2 C 42 % 14.07 C
3387 05-08-2019 18:10:00 28.1 C 42 % 13.98 C
3388 05-08-2019 18:15:00 27.9 C 40 % 13.05 C
3389 05-08-2019 18:20:00 27.8 C 42 % 13.71 C
3390 05-08-2019 18:25:00 27.7 C 41 % 13.25 C
3391 05-08-2019 18:30:00 27.5 C 42 % 13.44 C
3392 05-08-2019 18:35:00 27.4 C 43 % 13.72 C
3393 05-08-2019 18:40:00 27.5 C 43 % 13.81 C
3394 05-08-2019 18:45:00 27.5 C 43 % 13.81 C
3395 05-08-2019 18:50:00 27.4 C 42 % 13.35 C
3396 05-08-2019 18:55:00 27.3 C 43 % 13.63 C
3397 05-08-2019 19:00:00 27.2 C 44 % 13.89 C
3398 05-08-2019 19:05:00 27.1 C 44 % 13.8 C
3399 05-08-2019 19:10:00 27.1 C 44 % 13.8 C
3400 05-08-2019 19:15:00 26.9 C 45 % 13.96 C
Sensor: Nr:Datum:Temp:Feuchte:Taupunkt:
Aussen-T/F 3401 05-08-2019 19:20:00 26.8 C 45 % 13.87 C
3402 05-08-2019 19:25:00 26.8 C 46 % 14.21 C
3403 05-08-2019 19:30:00 26.7 C 46 % 14.12 C
3404 05-08-2019 19:35:00 26.6 C 47 % 14.36 C
3405 05-08-2019 19:40:00 26.4 C 48 % 14.51 C
3406 05-08-2019 19:45:00 26.3 C 48 % 14.42 C
3407 05-08-2019 19:50:00 26.3 C 49 % 14.74 C
3408 05-08-2019 19:55:00 26.2 C 51 % 15.27 C
3409 05-08-2019 20:00:00 26.1 C 47 % 13.91 C
3410 05-08-2019 20:05:00 26 C 48 % 14.14 C
3411 05-08-2019 20:10:00 25.9 C 45 % 13.06 C
3412 05-08-2019 20:15:00 25.8 C 48 % 13.96 C
3413 05-08-2019 20:20:00 25.7 C 53 % 15.4 C
3414 05-08-2019 20:25:00 25.5 C 55 % 15.8 C
3415 05-08-2019 20:30:00 25.2 C 57 % 16.08 C
3416 05-08-2019 20:35:00 24.9 C 58 % 16.07 C
3417 05-08-2019 20:40:00 24.6 C 59 % 16.06 C
3418 05-08-2019 20:45:00 24.2 C 59 % 15.68 C
3419 05-08-2019 20:50:00 23.8 C 57 % 14.77 C
3420 05-08-2019 20:55:00 23.5 C 57 % 14.49 C
3421 05-08-2019 21:00:00 23.3 C 58 % 14.58 C
3422 05-08-2019 21:05:00 23 C 58 % 14.29 C
3423 05-08-2019 21:10:00 22.7 C 59 % 14.28 C
3424 05-08-2019 21:15:00 22.4 C 61 % 14.51 C
3425 05-08-2019 21:20:00 22.2 C 62 % 14.58 C
Sensor: Nr:Datum:Temp:Feuchte:Taupunkt:
Aussen-T/F 3426 05-08-2019 21:25:00 22 C 61 % 14.14 C
3427 05-08-2019 21:30:00 21.8 C 62 % 14.2 C
3428 05-08-2019 21:35:00 21.7 C 62 % 14.1 C
3429 05-08-2019 21:40:00 21.6 C 62 % 14.01 C
3430 05-08-2019 21:45:00 21.5 C 62 % 13.92 C
3431 05-08-2019 21:50:00 21.4 C 63 % 14.07 C
3432 05-08-2019 21:55:00 21.3 C 64 % 14.22 C
3433 05-08-2019 22:00:00 21.2 C 64 % 14.12 C
3434 05-08-2019 22:05:00 21.1 C 66 % 14.5 C
3435 05-08-2019 22:10:00 21 C 66 % 14.41 C
3436 05-08-2019 22:15:00 20.8 C 68 % 14.68 C
3437 05-08-2019 22:20:00 20.7 C 69 % 14.81 C
3438 05-08-2019 22:25:00 20.6 C 70 % 14.94 C
3439 05-08-2019 22:30:00 20.4 C 71 % 14.97 C
3440 05-08-2019 22:35:00 20.3 C 71 % 14.87 C
3441 05-08-2019 22:40:00 20.2 C 71 % 14.78 C
3442 05-08-2019 22:45:00 20.1 C 72 % 14.9 C
3443 05-08-2019 22:50:00 20 C 71 % 14.58 C
3444 05-08-2019 22:55:00 20 C 73 % 15.01 C
3445 05-08-2019 23:00:00 19.9 C 73 % 14.92 C
3446 05-08-2019 23:05:00 19.8 C 72 % 14.61 C
3447 05-08-2019 23:10:00 19.8 C 73 % 14.82 C
3448 05-08-2019 23:15:00 19.7 C 73 % 14.73 C
3449 05-08-2019 23:20:00 19.6 C 74 % 14.84 C
3450 05-08-2019 23:25:00 19.4 C 74 % 14.65 C
Sensor: Nr:Datum:Temp:Feuchte:Taupunkt:
Aussen-T/F 3451 05-08-2019 23:30:00 19.3 C 74 % 14.55 C
3452 05-08-2019 23:35:00 19.1 C 74 % 14.36 C
3453 05-08-2019 23:40:00 18.9 C 75 % 14.37 C
3454 05-08-2019 23:45:00 18.8 C 75 % 14.28 C
3455 05-08-2019 23:50:00 18.6 C 76 % 14.29 C
3456 05-08-2019 23:55:00 18.5 C 75 % 13.99 C
3457 06-08-2019 00:00:00 18.4 C 77 % 14.3 C
3458 06-08-2019 00:05:00 18.3 C 77 % 14.2 C
3459 06-08-2019 00:10:00 18.2 C 77 % 14.1 C
3460 06-08-2019 00:15:00 18.2 C 77 % 14.1 C
3461 06-08-2019 00:20:00 18.1 C 78 % 14.21 C
3462 06-08-2019 00:25:00 18.1 C 78 % 14.21 C
3463 06-08-2019 00:30:00 18 C 79 % 14.31 C
3464 06-08-2019 00:35:00 17.9 C 79 % 14.21 C
3465 06-08-2019 00:40:00 17.8 C 78 % 13.91 C
3466 06-08-2019 00:45:00 17.8 C 79 % 14.11 C
3467 06-08-2019 00:50:00 17.7 C 80 % 14.21 C
3468 06-08-2019 00:55:00 17.6 C 80 % 14.11 C
3469 06-08-2019 01:00:00 17.4 C 80 % 13.92 C
3470 06-08-2019 01:05:00 17.3 C 81 % 14.01 C
3471 06-08-2019 01:10:00 17.3 C 81 % 14.01 C
3472 06-08-2019 01:15:00 17.2 C 81 % 13.91 C
3473 06-08-2019 01:20:00 17.2 C 81 % 13.91 C
3474 06-08-2019 01:25:00 17.1 C 81 % 13.82 C
3475 06-08-2019 01:30:00 17.1 C 82 % 14 C
Sensor: Nr:Datum:Temp:Feuchte:Taupunkt:
Aussen-T/F 3476 06-08-2019 01:35:00 17.1 C 82 % 14 C
3477 06-08-2019 01:40:00 16.9 C 82 % 13.81 C
3478 06-08-2019 01:45:00 16.9 C 82 % 13.81 C
3479 06-08-2019 01:50:00 16.9 C 82 % 13.81 C
3480 06-08-2019 01:55:00 16.9 C 82 % 13.81 C
3481 06-08-2019 02:00:00 16.8 C 82 % 13.71 C
3482 06-08-2019 02:05:00 16.7 C 83 % 13.8 C
3483 06-08-2019 02:10:00 16.7 C 83 % 13.8 C
3484 06-08-2019 02:15:00 16.7 C 83 % 13.8 C
3485 06-08-2019 02:20:00 16.7 C 84 % 13.98 C
3486 06-08-2019 02:25:00 16.8 C 84 % 14.08 C
3487 06-08-2019 02:30:00 17 C 83 % 14.09 C
3488 06-08-2019 02:35:00 17.2 C 83 % 14.29 C
3489 06-08-2019 02:40:00 17.3 C 82 % 14.2 C
3490 06-08-2019 02:45:00 17.4 C 82 % 14.3 C
3491 06-08-2019 02:50:00 17.4 C 83 % 14.48 C
3492 06-08-2019 02:55:00 17.4 C 83 % 14.48 C
3493 06-08-2019 03:00:00 17.4 C 83 % 14.48 C
3494 06-08-2019 03:05:00 17.4 C 83 % 14.48 C
3495 06-08-2019 03:10:00 17.5 C 83 % 14.58 C
3496 06-08-2019 03:15:00 17.5 C 83 % 14.58 C
3497 06-08-2019 03:20:00 17.5 C 83 % 14.58 C
3498 06-08-2019 03:25:00 17.5 C 83 % 14.58 C
3499 06-08-2019 03:30:00 17.4 C 83 % 14.48 C
3500 06-08-2019 03:35:00 17.4 C 83 % 14.48 C
Sensor: Nr:Datum:Temp:Feuchte:Taupunkt:
Aussen-T/F 3501 06-08-2019 03:40:00 17.4 C 84 % 14.67 C
3502 06-08-2019 03:45:00 17.4 C 83 % 14.48 C
3503 06-08-2019 03:50:00 17.5 C 83 % 14.58 C
3504 06-08-2019 03:55:00 17.6 C 83 % 14.68 C
3505 06-08-2019 04:00:00 17.6 C 83 % 14.68 C
3506 06-08-2019 04:05:00 17.5 C 83 % 14.58 C
3507 06-08-2019 04:10:00 17.5 C 83 % 14.58 C
3508 06-08-2019 04:15:00 17.4 C 84 % 14.67 C
3509 06-08-2019 04:20:00 17.3 C 84 % 14.57 C
3510 06-08-2019 04:25:00 17.3 C 83 % 14.39 C
3511 06-08-2019 04:30:00 17.2 C 83 % 14.29 C
3512 06-08-2019 04:35:00 17.1 C 84 % 14.38 C
3513 06-08-2019 04:40:00 16.9 C 84 % 14.18 C
3514 06-08-2019 04:45:00 16.9 C 85 % 14.36 C
3515 06-08-2019 04:50:00 16.9 C 85 % 14.36 C
3516 06-08-2019 04:55:00 16.9 C 85 % 14.36 C
3517 06-08-2019 05:00:00 16.8 C 85 % 14.26 C
3518 06-08-2019 05:05:00 16.8 C 85 % 14.26 C
3519 06-08-2019 05:10:00 16.7 C 85 % 14.17 C
3520 06-08-2019 05:15:00 16.6 C 85 % 14.07 C
3521 06-08-2019 05:20:00 16.6 C 86 % 14.25 C
3522 06-08-2019 05:25:00 16.6 C 86 % 14.25 C
3523 06-08-2019 05:30:00 16.6 C 86 % 14.25 C
3524 06-08-2019 05:35:00 16.6 C 86 % 14.25 C
3525 06-08-2019 05:40:00 16.6 C 86 % 14.25 C
Sensor: Nr:Datum:Temp:Feuchte:Taupunkt:
Aussen-T/F 3526 06-08-2019 05:45:00 16.5 C 86 % 14.15 C
3527 06-08-2019 05:50:00 16.5 C 86 % 14.15 C
3528 06-08-2019 05:55:00 16.4 C 86 % 14.05 C
3529 06-08-2019 06:00:00 16.3 C 86 % 13.95 C
3530 06-08-2019 06:05:00 16.3 C 87 % 14.13 C
3531 06-08-2019 06:10:00 16.3 C 87 % 14.13 C
3532 06-08-2019 06:15:00 16.4 C 87 % 14.23 C
3533 06-08-2019 06:20:00 16.5 C 87 % 14.33 C
3534 06-08-2019 06:25:00 16.6 C 87 % 14.43 C
3535 06-08-2019 06:30:00 16.7 C 87 % 14.53 C
3536 06-08-2019 06:35:00 16.8 C 87 % 14.62 C
3537 06-08-2019 06:40:00 16.9 C 86 % 14.54 C
3538 06-08-2019 06:45:00 17 C 86 % 14.64 C
3539 06-08-2019 06:50:00 17.1 C 86 % 14.74 C
3540 06-08-2019 06:55:00 17.1 C 86 % 14.74 C
3541 06-08-2019 07:00:00 17.2 C 86 % 14.84 C
3542 06-08-2019 07:05:00 17.3 C 85 % 14.76 C
3543 06-08-2019 07:10:00 17.5 C 84 % 14.77 C
3544 06-08-2019 07:15:00 17.7 C 83 % 14.78 C
3545 06-08-2019 07:20:00 17.8 C 83 % 14.88 C
3546 06-08-2019 07:25:00 17.8 C 83 % 14.88 C
3547 06-08-2019 07:30:00 17.9 C 83 % 14.97 C
3548 06-08-2019 07:35:00 18 C 83 % 15.07 C
3549 06-08-2019 07:40:00 18.1 C 83 % 15.17 C
3550 06-08-2019 07:45:00 18.2 C 82 % 15.08 C
Sensor: Nr:Datum:Temp:Feuchte:Taupunkt:
Aussen-T/F 3551 06-08-2019 07:50:00 18.2 C 82 % 15.08 C
3552 06-08-2019 07:55:00 18.3 C 82 % 15.17 C
3553 06-08-2019 08:00:00 18.3 C 82 % 15.17 C
3554 06-08-2019 08:05:00 18.4 C 82 % 15.27 C
3555 06-08-2019 08:10:00 18.4 C 81 % 15.08 C
3556 06-08-2019 08:15:00 18.5 C 81 % 15.18 C
3557 06-08-2019 08:20:00 18.6 C 81 % 15.28 C
3558 06-08-2019 08:25:00 18.6 C 81 % 15.28 C
3559 06-08-2019 08:30:00 18.7 C 81 % 15.37 C
3560 06-08-2019 08:35:00 18.8 C 81 % 15.47 C
3561 06-08-2019 08:40:00 18.8 C 81 % 15.47 C
3562 06-08-2019 08:45:00 18.9 C 81 % 15.57 C
3563 06-08-2019 08:50:00 19 C 81 % 15.67 C
3564 06-08-2019 08:55:00 19.1 C 80 % 15.57 C
3565 06-08-2019 09:00:00 19.3 C 79 % 15.57 C
3566 06-08-2019 09:05:00 19.4 C 79 % 15.66 C
3567 06-08-2019 09:10:00 19.7 C 78 % 15.76 C
3568 06-08-2019 09:15:00 19.8 C 77 % 15.65 C
3569 06-08-2019 09:20:00 19.9 C 76 % 15.54 C
3570 06-08-2019 09:25:00 20.1 C 77 % 15.94 C
3571 06-08-2019 09:30:00 20.1 C 77 % 15.94 C
3572 06-08-2019 09:35:00 20.3 C 76 % 15.93 C
3573 06-08-2019 09:40:00 20.4 C 76 % 16.03 C
3574 06-08-2019 09:45:00 20.6 C 75 % 16.01 C
3575 06-08-2019 09:50:00 20.8 C 74 % 16 C
Sensor: Nr:Datum:Temp:Feuchte:Taupunkt:
Aussen-T/F 3576 06-08-2019 09:55:00 20.8 C 74 % 16 C
3577 06-08-2019 10:00:00 20.8 C 73 % 15.78 C
3578 06-08-2019 10:05:00 20.7 C 77 % 16.52 C
3579 06-08-2019 10:10:00 20.6 C 80 % 17.03 C
3580 06-08-2019 10:15:00 20.4 C 81 % 17.03 C
3581 06-08-2019 10:20:00 20.2 C 83 % 17.22 C
3582 06-08-2019 10:25:00 19.9 C 84 % 17.12 C
3583 06-08-2019 10:30:00 19.7 C 86 % 17.29 C
3584 06-08-2019 10:35:00 19.6 C 87 % 17.38 C
3585 06-08-2019 10:40:00 19.4 C 88 % 17.36 C
3586 06-08-2019 10:45:00 19.3 C 88 % 17.26 C
3587 06-08-2019 10:50:00 19.2 C 89 % 17.34 C
3588 06-08-2019 10:55:00 19.2 C 89 % 17.34 C
3589 06-08-2019 11:00:00 19.2 C 89 % 17.34 C
3590 06-08-2019 11:05:00 19.2 C 89 % 17.34 C
3591 06-08-2019 11:10:00 19.2 C 89 % 17.34 C
3592 06-08-2019 11:15:00 19.3 C 90 % 17.62 C
3593 06-08-2019 11:20:00 19.4 C 90 % 17.72 C
3594 06-08-2019 11:25:00 19.6 C 90 % 17.91 C
3595 06-08-2019 11:30:00 19.6 C 90 % 17.91 C
3596 06-08-2019 11:35:00 19.7 C 89 % 17.84 C
3597 06-08-2019 11:40:00 19.9 C 89 % 18.03 C
3598 06-08-2019 11:45:00 20.1 C 89 % 18.23 C
3599 06-08-2019 11:50:00 20.2 C 88 % 18.15 C
3600 06-08-2019 11:55:00 20.4 C 88 % 18.34 C
Sensor: Nr:Datum:Temp:Feuchte:Taupunkt:
Aussen-T/F 3601 06-08-2019 12:00:00 20.6 C 87 % 18.36 C
3602 06-08-2019 12:05:00 20.7 C 86 % 18.27 C
3603 06-08-2019 12:10:00 20.8 C 87 % 18.56 C
3604 06-08-2019 12:15:00 21 C 84 % 18.19 C
3605 06-08-2019 12:20:00 21.2 C 83 % 18.2 C
3606 06-08-2019 12:25:00 21.3 C 82 % 18.1 C
3607 06-08-2019 12:30:00 21.4 C 80 % 17.81 C
3608 06-08-2019 12:35:00 21.6 C 80 % 18 C
3609 06-08-2019 12:40:00 21.7 C 80 % 18.1 C
3610 06-08-2019 12:45:00 21.8 C 80 % 18.2 C
3611 06-08-2019 12:50:00 21.8 C 79 % 18 C
3612 06-08-2019 12:55:00 21.9 C 79 % 18.09 C
3613 06-08-2019 13:00:00 21.9 C 78 % 17.89 C
3614 06-08-2019 13:05:00 22 C 78 % 17.99 C
3615 06-08-2019 13:10:00 22.1 C 78 % 18.08 C
3616 06-08-2019 13:15:00 22.2 C 79 % 18.38 C
3617 06-08-2019 13:20:00 22.3 C 79 % 18.48 C
3618 06-08-2019 13:25:00 22.3 C 78 % 18.28 C
3619 06-08-2019 13:30:00 22.3 C 77 % 18.07 C
3620 06-08-2019 13:35:00 22.3 C 79 % 18.48 C
3621 06-08-2019 13:40:00 22.4 C 76 % 17.96 C
3622 06-08-2019 13:45:00 22.6 C 77 % 18.36 C
3623 06-08-2019 13:50:00 22.7 C 76 % 18.25 C
3624 06-08-2019 13:55:00 22.8 C 74 % 17.92 C
3625 06-08-2019 14:00:00 23.1 C 73 % 17.99 C
Sensor: Nr:Datum:Temp:Feuchte:Taupunkt:
Aussen-T/F 3626 06-08-2019 14:05:00 23.2 C 72 % 17.87 C
3627 06-08-2019 14:10:00 23.2 C 72 % 17.87 C
3628 06-08-2019 14:15:00 23.3 C 71 % 17.75 C
3629 06-08-2019 14:20:00 23.4 C 71 % 17.84 C
3630 06-08-2019 14:25:00 23.5 C 69 % 17.48 C
3631 06-08-2019 14:30:00 23.6 C 68 % 17.35 C
3632 06-08-2019 14:35:00 23.7 C 70 % 17.9 C
3633 06-08-2019 14:40:00 23.9 C 69 % 17.87 C
3634 06-08-2019 14:45:00 24.1 C 68 % 17.82 C
3635 06-08-2019 14:50:00 24.2 C 67 % 17.68 C
3636 06-08-2019 14:55:00 24.2 C 68 % 17.92 C
3637 06-08-2019 15:00:00 24.3 C 65 % 17.3 C
3638 06-08-2019 15:05:00 24.4 C 65 % 17.39 C
3639 06-08-2019 15:10:00 24.5 C 65 % 17.49 C
3640 06-08-2019 15:15:00 24.4 C 67 % 17.87 C
3641 06-08-2019 15:20:00 24.6 C 66 % 17.83 C
3642 06-08-2019 15:25:00 24.8 C 66 % 18.01 C
3643 06-08-2019 15:30:00 24.8 C 65 % 17.77 C
3644 06-08-2019 15:35:00 24.9 C 65 % 17.87 C
3645 06-08-2019 15:40:00 25 C 63 % 17.47 C
3646 06-08-2019 15:45:00 25 C 63 % 17.47 C
3647 06-08-2019 15:50:00 24.9 C 64 % 17.62 C
3648 06-08-2019 15:55:00 25.1 C 63 % 17.56 C
3649 06-08-2019 16:00:00 25.2 C 63 % 17.65 C
3650 06-08-2019 16:05:00 25.2 C 63 % 17.65 C
Sensor: Nr:Datum:Temp:Feuchte:Taupunkt:
Aussen-T/F 3651 06-08-2019 16:10:00 25.3 C 63 % 17.75 C
3652 06-08-2019 16:15:00 25.4 C 62 % 17.59 C
3653 06-08-2019 16:20:00 25.2 C 63 % 17.65 C
3654 06-08-2019 16:25:00 25.3 C 62 % 17.5 C
3655 06-08-2019 16:30:00 25.4 C 62 % 17.59 C
3656 06-08-2019 16:35:00 25.4 C 62 % 17.59 C
3657 06-08-2019 16:40:00 25.4 C 62 % 17.59 C
3658 06-08-2019 16:45:00 25.4 C 61 % 17.33 C
3659 06-08-2019 16:50:00 25.6 C 61 % 17.52 C
3660 06-08-2019 16:55:00 25.9 C 59 % 17.27 C
3661 06-08-2019 17:00:00 26.2 C 59 % 17.55 C
3662 06-08-2019 17:05:00 26.4 C 58 % 17.47 C
3663 06-08-2019 17:10:00 26.4 C 59 % 17.74 C
3664 06-08-2019 17:15:00 26.6 C 57 % 17.38 C
3665 06-08-2019 17:20:00 26.8 C 57 % 17.57 C
3666 06-08-2019 17:25:00 26.8 C 57 % 17.57 C
3667 06-08-2019 17:30:00 26.7 C 56 % 17.19 C
3668 06-08-2019 17:35:00 26.4 C 55 % 16.63 C
3669 06-08-2019 17:40:00 26.1 C 58 % 17.19 C
3670 06-08-2019 17:45:00 26 C 58 % 17.1 C
3671 06-08-2019 17:50:00 26.2 C 59 % 17.55 C
3672 06-08-2019 17:55:00 26.2 C 57 % 17.01 C
3673 06-08-2019 18:00:00 26.2 C 58 % 17.28 C
3674 06-08-2019 18:05:00 26 C 58 % 17.1 C
3675 06-08-2019 18:10:00 25.7 C 59 % 17.09 C
Sensor: Nr:Datum:Temp:Feuchte:Taupunkt:
Aussen-T/F 3676 06-08-2019 18:15:00 25.4 C 60 % 17.07 C
3677 06-08-2019 18:20:00 25.3 C 61 % 17.24 C
3678 06-08-2019 18:25:00 25.2 C 60 % 16.88 C
3679 06-08-2019 18:30:00 25.1 C 62 % 17.31 C
3680 06-08-2019 18:35:00 24.9 C 61 % 16.86 C
3681 06-08-2019 18:40:00 24.8 C 62 % 17.02 C
3682 06-08-2019 18:45:00 24.7 C 65 % 17.68 C
3683 06-08-2019 18:50:00 24.7 C 68 % 18.4 C
3684 06-08-2019 18:55:00 24.5 C 68 % 18.2 C
3685 06-08-2019 19:00:00 24.3 C 70 % 18.48 C
3686 06-08-2019 19:05:00 23.9 C 70 % 18.09 C
3687 06-08-2019 19:10:00 23.7 C 72 % 18.35 C
3688 06-08-2019 19:15:00 23.4 C 73 % 18.28 C
3689 06-08-2019 19:20:00 23.1 C 74 % 18.21 C
3690 06-08-2019 19:25:00 22.8 C 75 % 18.14 C
3691 06-08-2019 19:30:00 22.5 C 75 % 17.85 C
3692 06-08-2019 19:35:00 22.3 C 77 % 18.07 C
3693 06-08-2019 19:40:00 22 C 81 % 18.59 C
3694 06-08-2019 19:45:00 21.4 C 82 % 18.2 C
3695 06-08-2019 19:50:00 20.8 C 85 % 18.18 C
3696 06-08-2019 19:55:00 20.3 C 87 % 18.06 C
3697 06-08-2019 20:00:00 20 C 89 % 18.13 C
3698 06-08-2019 20:05:00 19.8 C 89 % 17.93 C
3699 06-08-2019 20:10:00 19.7 C 89 % 17.84 C
3700 06-08-2019 20:15:00 19.4 C 90 % 17.72 C
Sensor: Nr:Datum:Temp:Feuchte:Taupunkt:
Aussen-T/F 3701 06-08-2019 20:20:00 19.2 C 89 % 17.34 C
3702 06-08-2019 20:25:00 19 C 90 % 17.32 C
3703 06-08-2019 20:30:00 18.8 C 91 % 17.3 C
3704 06-08-2019 20:35:00 18.7 C 91 % 17.2 C
3705 06-08-2019 20:40:00 18.7 C 91 % 17.2 C
3706 06-08-2019 20:45:00 18.6 C 92 % 17.27 C
3707 06-08-2019 20:50:00 18.4 C 92 % 17.08 C
3708 06-08-2019 20:55:00 18.3 C 92 % 16.98 C
3709 06-08-2019 21:00:00 18.2 C 92 % 16.88 C
3710 06-08-2019 21:05:00 18.2 C 93 % 17.05 C
3711 06-08-2019 21:10:00 18.2 C 93 % 17.05 C
3712 06-08-2019 21:15:00 18.1 C 93 % 16.95 C
3713 06-08-2019 21:20:00 18.1 C 93 % 16.95 C
3714 06-08-2019 21:25:00 18 C 93 % 16.85 C
3715 06-08-2019 21:30:00 18 C 93 % 16.85 C
3716 06-08-2019 21:35:00 18 C 93 % 16.85 C
3717 06-08-2019 21:40:00 17.9 C 93 % 16.75 C
3718 06-08-2019 21:45:00 17.9 C 94 % 16.92 C
3719 06-08-2019 21:50:00 17.8 C 94 % 16.82 C
3720 06-08-2019 21:55:00 17.7 C 94 % 16.72 C
3721 06-08-2019 22:00:00 17.7 C 94 % 16.72 C
3722 06-08-2019 22:05:00 17.7 C 94 % 16.72 C
3723 06-08-2019 22:10:00 17.7 C 94 % 16.72 C
3724 06-08-2019 22:15:00 17.6 C 94 % 16.62 C
3725 06-08-2019 22:20:00 17.6 C 94 % 16.62 C
Sensor: Nr:Datum:Temp:Feuchte:Taupunkt:
Aussen-T/F 3726 06-08-2019 22:25:00 17.6 C 94 % 16.62 C
3727 06-08-2019 22:30:00 17.5 C 94 % 16.52 C
3728 06-08-2019 22:35:00 17.4 C 94 % 16.42 C
3729 06-08-2019 22:40:00 17.4 C 94 % 16.42 C
3730 06-08-2019 22:45:00 17.4 C 94 % 16.42 C
3731 06-08-2019 22:50:00 17.3 C 94 % 16.33 C
3732 06-08-2019 22:55:00 17.3 C 94 % 16.33 C
3733 06-08-2019 23:00:00 17.3 C 94 % 16.33 C
3734 06-08-2019 23:05:00 17.2 C 95 % 16.39 C
3735 06-08-2019 23:10:00 17.2 C 95 % 16.39 C
3736 06-08-2019 23:15:00 17.2 C 95 % 16.39 C
3737 06-08-2019 23:20:00 17.2 C 95 % 16.39 C
3738 06-08-2019 23:25:00 17.1 C 95 % 16.29 C
3739 06-08-2019 23:30:00 17.1 C 95 % 16.29 C
3740 06-08-2019 23:35:00 17 C 95 % 16.19 C
3741 06-08-2019 23:40:00 17 C 95 % 16.19 C
3742 06-08-2019 23:45:00 16.9 C 95 % 16.09 C
3743 06-08-2019 23:50:00 16.9 C 95 % 16.09 C
3744 06-08-2019 23:55:00 16.9 C 95 % 16.09 C
3745 07-08-2019 00:00:00 16.8 C 95 % 15.99 C
3746 07-08-2019 00:05:00 16.7 C 95 % 15.9 C
3747 07-08-2019 00:10:00 16.7 C 95 % 15.9 C
3748 07-08-2019 00:15:00 16.6 C 95 % 15.8 C
3749 07-08-2019 00:20:00 16.6 C 95 % 15.8 C
3750 07-08-2019 00:25:00 16.7 C 95 % 15.9 C
Sensor: Nr:Datum:Temp:Feuchte:Taupunkt:
Aussen-T/F 3751 07-08-2019 00:30:00 16.7 C 95 % 15.9 C
3752 07-08-2019 00:35:00 16.7 C 95 % 15.9 C
3753 07-08-2019 00:40:00 16.7 C 95 % 15.9 C
3754 07-08-2019 00:45:00 16.7 C 95 % 15.9 C
3755 07-08-2019 00:50:00 16.7 C 95 % 15.9 C
3756 07-08-2019 00:55:00 16.6 C 95 % 15.8 C
3757 07-08-2019 01:00:00 16.5 C 95 % 15.7 C
3758 07-08-2019 01:05:00 16.4 C 95 % 15.6 C
3759 07-08-2019 01:10:00 16.3 C 95 % 15.5 C
3760 07-08-2019 01:15:00 16.3 C 95 % 15.5 C
3761 07-08-2019 01:20:00 16.2 C 95 % 15.4 C
3762 07-08-2019 01:25:00 16.2 C 95 % 15.4 C
3763 07-08-2019 01:30:00 16.2 C 96 % 15.56 C
3764 07-08-2019 01:35:00 16.2 C 96 % 15.56 C
3765 07-08-2019 01:40:00 16.3 C 96 % 15.66 C
3766 07-08-2019 01:45:00 16.3 C 96 % 15.66 C
3767 07-08-2019 01:50:00 16.3 C 96 % 15.66 C
3768 07-08-2019 01:55:00 16.4 C 96 % 15.76 C
3769 07-08-2019 02:00:00 16.4 C 96 % 15.76 C
3770 07-08-2019 02:05:00 16.5 C 96 % 15.86 C
3771 07-08-2019 02:10:00 16.5 C 96 % 15.86 C
3772 07-08-2019 02:15:00 16.5 C 96 % 15.86 C
3773 07-08-2019 02:20:00 16.5 C 96 % 15.86 C
3774 07-08-2019 02:25:00 16.5 C 96 % 15.86 C
3775 07-08-2019 02:30:00 16.5 C 96 % 15.86 C
Sensor: Nr:Datum:Temp:Feuchte:Taupunkt:
Aussen-T/F 3776 07-08-2019 02:35:00 16.5 C 96 % 15.86 C
3777 07-08-2019 02:40:00 16.4 C 96 % 15.76 C
3778 07-08-2019 02:45:00 16.4 C 96 % 15.76 C
3779 07-08-2019 02:50:00 16.4 C 96 % 15.76 C
3780 07-08-2019 02:55:00 16.4 C 96 % 15.76 C
3781 07-08-2019 03:00:00 16.5 C 96 % 15.86 C
3782 07-08-2019 03:05:00 16.5 C 96 % 15.86 C
3783 07-08-2019 03:10:00 16.6 C 96 % 15.96 C
3784 07-08-2019 03:15:00 16.6 C 96 % 15.96 C
3785 07-08-2019 03:20:00 16.6 C 97 % 16.12 C
3786 07-08-2019 03:25:00 16.6 C 97 % 16.12 C
3787 07-08-2019 03:30:00 16.6 C 97 % 16.12 C
3788 07-08-2019 03:35:00 16.6 C 96 % 15.96 C
3789 07-08-2019 03:40:00 16.6 C 96 % 15.96 C
3790 07-08-2019 03:45:00 16.6 C 96 % 15.96 C
3791 07-08-2019 03:50:00 16.6 C 96 % 15.96 C
3792 07-08-2019 03:55:00 16.6 C 96 % 15.96 C
3793 07-08-2019 04:00:00 16.6 C 97 % 16.12 C
3794 07-08-2019 04:05:00 16.6 C 97 % 16.12 C
3795 07-08-2019 04:10:00 16.6 C 97 % 16.12 C
3796 07-08-2019 04:15:00 16.6 C 97 % 16.12 C
3797 07-08-2019 04:20:00 16.6 C 97 % 16.12 C
3798 07-08-2019 04:25:00 16.6 C 97 % 16.12 C
3799 07-08-2019 04:30:00 16.7 C 97 % 16.22 C
3800 07-08-2019 04:35:00 16.6 C 97 % 16.12 C
Sensor: Nr:Datum:Temp:Feuchte:Taupunkt:
Aussen-T/F 3801 07-08-2019 04:40:00 16.7 C 97 % 16.22 C
3802 07-08-2019 04:45:00 16.7 C 97 % 16.22 C
3803 07-08-2019 04:50:00 16.7 C 97 % 16.22 C
3804 07-08-2019 04:55:00 16.6 C 97 % 16.12 C
3805 07-08-2019 05:00:00 16.6 C 97 % 16.12 C
3806 07-08-2019 05:05:00 16.6 C 97 % 16.12 C
3807 07-08-2019 05:10:00 16.7 C 97 % 16.22 C
3808 07-08-2019 05:15:00 16.6 C 97 % 16.12 C
3809 07-08-2019 05:20:00 16.6 C 97 % 16.12 C
3810 07-08-2019 05:25:00 16.7 C 97 % 16.22 C
3811 07-08-2019 05:30:00 16.7 C 97 % 16.22 C
3812 07-08-2019 05:35:00 16.7 C 97 % 16.22 C
3813 07-08-2019 05:40:00 16.7 C 97 % 16.22 C
3814 07-08-2019 05:45:00 16.7 C 97 % 16.22 C
3815 07-08-2019 05:50:00 16.7 C 97 % 16.22 C
3816 07-08-2019 05:55:00 16.7 C 97 % 16.22 C
3817 07-08-2019 06:00:00 16.7 C 97 % 16.22 C
3818 07-08-2019 06:05:00 16.8 C 97 % 16.32 C
3819 07-08-2019 06:10:00 16.8 C 97 % 16.32 C
3820 07-08-2019 06:15:00 16.8 C 97 % 16.32 C
3821 07-08-2019 06:20:00 16.8 C 97 % 16.32 C
3822 07-08-2019 06:25:00 16.8 C 97 % 16.32 C
3823 07-08-2019 06:30:00 16.9 C 97 % 16.42 C
3824 07-08-2019 06:35:00 16.9 C 97 % 16.42 C
3825 07-08-2019 06:40:00 16.9 C 97 % 16.42 C
Sensor: Nr:Datum:Temp:Feuchte:Taupunkt:
Aussen-T/F 3826 07-08-2019 06:45:00 17 C 97 % 16.52 C
3827 07-08-2019 06:50:00 17 C 97 % 16.52 C
3828 07-08-2019 06:55:00 17.1 C 97 % 16.62 C
3829 07-08-2019 07:00:00 17.1 C 97 % 16.62 C
3830 07-08-2019 07:05:00 17.1 C 97 % 16.62 C
3831 07-08-2019 07:10:00 17.1 C 97 % 16.62 C
3832 07-08-2019 07:15:00 17.2 C 97 % 16.72 C
3833 07-08-2019 07:20:00 17.2 C 97 % 16.72 C
3834 07-08-2019 07:25:00 17.2 C 97 % 16.72 C
3835 07-08-2019 07:30:00 17.3 C 97 % 16.82 C
3836 07-08-2019 07:35:00 17.3 C 97 % 16.82 C
3837 07-08-2019 07:40:00 17.3 C 97 % 16.82 C
3838 07-08-2019 07:45:00 17.4 C 97 % 16.92 C
3839 07-08-2019 07:50:00 17.4 C 97 % 16.92 C
3840 07-08-2019 07:55:00 17.4 C 97 % 16.92 C
3841 07-08-2019 08:00:00 17.4 C 97 % 16.92 C
3842 07-08-2019 08:05:00 17.4 C 97 % 16.92 C
3843 07-08-2019 08:10:00 17.5 C 97 % 17.02 C
3844 07-08-2019 08:15:00 17.6 C 97 % 17.12 C
3845 07-08-2019 08:20:00 17.6 C 97 % 17.12 C
3846 07-08-2019 08:25:00 17.7 C 97 % 17.22 C
3847 07-08-2019 08:30:00 17.8 C 97 % 17.32 C
3848 07-08-2019 08:35:00 17.9 C 97 % 17.42 C
3849 07-08-2019 08:40:00 17.9 C 97 % 17.42 C
3850 07-08-2019 08:45:00 18.1 C 97 % 17.62 C
Sensor: Nr:Datum:Temp:Feuchte:Taupunkt:
Aussen-T/F 3851 07-08-2019 08:50:00 18.1 C 97 % 17.62 C
3852 07-08-2019 08:55:00 18.1 C 97 % 17.62 C
3853 07-08-2019 09:00:00 18.1 C 97 % 17.62 C
3854 07-08-2019 09:05:00 18.1 C 97 % 17.62 C
3855 07-08-2019 09:10:00 18 C 97 % 17.52 C
3856 07-08-2019 09:15:00 18 C 97 % 17.52 C
3857 07-08-2019 09:20:00 18.1 C 97 % 17.62 C
3858 07-08-2019 09:25:00 18.2 C 97 % 17.72 C
3859 07-08-2019 09:30:00 18.3 C 97 % 17.82 C
3860 07-08-2019 09:35:00 18.3 C 97 % 17.82 C
3861 07-08-2019 09:40:00 18.3 C 97 % 17.82 C
3862 07-08-2019 09:45:00 18.4 C 97 % 17.91 C
3863 07-08-2019 09:50:00 18.6 C 97 % 18.11 C
3864 07-08-2019 09:55:00 18.6 C 97 % 18.11 C
3865 07-08-2019 10:00:00 18.6 C 97 % 18.11 C
3866 07-08-2019 10:05:00 18.7 C 97 % 18.21 C
3867 07-08-2019 10:10:00 18.8 C 97 % 18.31 C
3868 07-08-2019 10:15:00 19 C 97 % 18.51 C
3869 07-08-2019 10:20:00 18.8 C 96 % 18.15 C
3870 07-08-2019 10:25:00 18.8 C 96 % 18.15 C
3871 07-08-2019 10:30:00 18.9 C 96 % 18.25 C
3872 07-08-2019 10:35:00 19.1 C 96 % 18.45 C
3873 07-08-2019 10:40:00 19.2 C 97 % 18.71 C
3874 07-08-2019 10:45:00 19.2 C 96 % 18.55 C
3875 07-08-2019 10:50:00 19.3 C 96 % 18.65 C
Sensor: Nr: